<?xml version="1.0" encoding="UTF-8" standalone="no" ?>
<gpx xmlns="http://www.topografix.com/GPX/1/1" xmlns:xsi="http://www.w3.org/2001/XMLSchema-instance" xsi:schemaLocation="http://www.topografix.com/GPX/1/1 http://www.topografix.com/GPX/1/1/gpx.xsd" version="1.1" creator="VisuGPX - https://www.visugpx.com">
  <metadata>
    <name>parentignat nonette bergonne 14 11 12</name>
    <desc><![CDATA[circuit avec un peu de dénivellé mais  moins 2h]]></desc>
  </metadata>
  <trk>
    <name><![CDATA[2012-11-14 14:42]]></name>
    <desc><![CDATA[<h1>OruxMaps</h1><br /><hr align="center" width="480" style="height: 2px; width: 517px"/><h2>Nom: 2012-11-14 14:42</h2><br /><p>Temps de départ: 11/14/2012 14:42</p><p>Temps d'arrivée: 11/14/2012 16:32</p><p>Distance: 33,7 km (01:49)</p><p>Temps déplacement: 01:43</p><p>Vitesse moyenne: 18,5 km/h</p><p>Vitesse moyenne: 19,6 km/h</p><p>Vitess Max.: 54,3 km/h</p><p>Altitude minimale: 360 m</p><p>Altitude maximale: 553 m</p><p>Vitesse d'élévation: 519,5 m/h</p><p>Vitesse de descente: -958,5 m/h</p><p>Gain Altitude: 409 m</p><p>Perte Altitude: -420 m</p><p>Temps d'élévation: 00:47</p><p>Temps de descente: 00:26</p><hr align="center" width="480" style="height: 2px; width: 517px"/>]]></desc>
    <trkseg>
      <trkpt lat="45.50603" lon="3.22214">
        <ele>544</ele>
        <time>2012-11-14T13:43:23Z</time>
      </trkpt>
      <trkpt lat="45.50596" lon="3.22188">
        <ele>545</ele>
        <time>2012-11-14T13:43:27Z</time>
      </trkpt>
      <trkpt lat="45.50596" lon="3.22162">
        <ele>548</ele>
        <time>2012-11-14T13:43:33Z</time>
      </trkpt>
      <trkpt lat="45.50597" lon="3.22134">
        <ele>550</ele>
        <time>2012-11-14T13:43:40Z</time>
      </trkpt>
      <trkpt lat="45.5061" lon="3.22112">
        <ele>551</ele>
        <time>2012-11-14T13:43:47Z</time>
      </trkpt>
      <trkpt lat="45.50623" lon="3.22093">
        <ele>552</ele>
        <time>2012-11-14T13:43:53Z</time>
      </trkpt>
      <trkpt lat="45.50638" lon="3.22075">
        <ele>554</ele>
        <time>2012-11-14T13:43:59Z</time>
      </trkpt>
      <trkpt lat="45.50657" lon="3.22065">
        <ele>554</ele>
        <time>2012-11-14T13:44:06Z</time>
      </trkpt>
      <trkpt lat="45.50672" lon="3.22048">
        <ele>555</ele>
        <time>2012-11-14T13:44:11Z</time>
      </trkpt>
      <trkpt lat="45.50676" lon="3.22023">
        <ele>555</ele>
        <time>2012-11-14T13:44:16Z</time>
      </trkpt>
      <trkpt lat="45.50675" lon="3.21997">
        <ele>555</ele>
        <time>2012-11-14T13:44:22Z</time>
      </trkpt>
      <trkpt lat="45.5069" lon="3.2198">
        <ele>555</ele>
        <time>2012-11-14T13:44:27Z</time>
      </trkpt>
      <trkpt lat="45.50713" lon="3.21976">
        <ele>556</ele>
        <time>2012-11-14T13:44:32Z</time>
      </trkpt>
      <trkpt lat="45.50736" lon="3.2197">
        <ele>556</ele>
        <time>2012-11-14T13:44:37Z</time>
      </trkpt>
      <trkpt lat="45.50754" lon="3.21967">
        <ele>557</ele>
        <time>2012-11-14T13:44:41Z</time>
      </trkpt>
      <trkpt lat="45.50773" lon="3.21966">
        <ele>557</ele>
        <time>2012-11-14T13:44:45Z</time>
      </trkpt>
      <trkpt lat="45.50792" lon="3.21964">
        <ele>557</ele>
        <time>2012-11-14T13:44:48Z</time>
      </trkpt>
      <trkpt lat="45.50811" lon="3.21963">
        <ele>557</ele>
        <time>2012-11-14T13:44:53Z</time>
      </trkpt>
      <trkpt lat="45.50831" lon="3.21959">
        <ele>557</ele>
        <time>2012-11-14T13:44:57Z</time>
      </trkpt>
      <trkpt lat="45.50851" lon="3.21954">
        <ele>557</ele>
        <time>2012-11-14T13:45:01Z</time>
      </trkpt>
      <trkpt lat="45.50872" lon="3.21947">
        <ele>557</ele>
        <time>2012-11-14T13:45:05Z</time>
      </trkpt>
      <trkpt lat="45.50894" lon="3.21941">
        <ele>557</ele>
        <time>2012-11-14T13:45:09Z</time>
      </trkpt>
      <trkpt lat="45.50911" lon="3.21935">
        <ele>557</ele>
        <time>2012-11-14T13:45:12Z</time>
      </trkpt>
      <trkpt lat="45.50929" lon="3.21929">
        <ele>557</ele>
        <time>2012-11-14T13:45:15Z</time>
      </trkpt>
      <trkpt lat="45.50952" lon="3.2192">
        <ele>557</ele>
        <time>2012-11-14T13:45:19Z</time>
      </trkpt>
      <trkpt lat="45.50975" lon="3.21912">
        <ele>557</ele>
        <time>2012-11-14T13:45:23Z</time>
      </trkpt>
      <trkpt lat="45.50993" lon="3.21905">
        <ele>557</ele>
        <time>2012-11-14T13:45:26Z</time>
      </trkpt>
      <trkpt lat="45.51016" lon="3.21897">
        <ele>556</ele>
        <time>2012-11-14T13:45:30Z</time>
      </trkpt>
      <trkpt lat="45.51038" lon="3.21889">
        <ele>556</ele>
        <time>2012-11-14T13:45:34Z</time>
      </trkpt>
      <trkpt lat="45.5106" lon="3.21881">
        <ele>556</ele>
        <time>2012-11-14T13:45:38Z</time>
      </trkpt>
      <trkpt lat="45.51079" lon="3.21877">
        <ele>556</ele>
        <time>2012-11-14T13:45:41Z</time>
      </trkpt>
      <trkpt lat="45.51102" lon="3.21873">
        <ele>556</ele>
        <time>2012-11-14T13:45:45Z</time>
      </trkpt>
      <trkpt lat="45.51123" lon="3.21869">
        <ele>556</ele>
        <time>2012-11-14T13:45:49Z</time>
      </trkpt>
      <trkpt lat="45.51147" lon="3.21867">
        <ele>556</ele>
        <time>2012-11-14T13:45:53Z</time>
      </trkpt>
      <trkpt lat="45.51169" lon="3.21866">
        <ele>556</ele>
        <time>2012-11-14T13:45:57Z</time>
      </trkpt>
      <trkpt lat="45.51192" lon="3.21866">
        <ele>556</ele>
        <time>2012-11-14T13:46:01Z</time>
      </trkpt>
      <trkpt lat="45.51214" lon="3.21864">
        <ele>556</ele>
        <time>2012-11-14T13:46:05Z</time>
      </trkpt>
      <trkpt lat="45.51235" lon="3.21866">
        <ele>556</ele>
        <time>2012-11-14T13:46:09Z</time>
      </trkpt>
      <trkpt lat="45.51255" lon="3.21875">
        <ele>555</ele>
        <time>2012-11-14T13:46:13Z</time>
      </trkpt>
      <trkpt lat="45.51278" lon="3.21881">
        <ele>555</ele>
        <time>2012-11-14T13:46:17Z</time>
      </trkpt>
      <trkpt lat="45.513" lon="3.21883">
        <ele>554</ele>
        <time>2012-11-14T13:46:21Z</time>
      </trkpt>
      <trkpt lat="45.51322" lon="3.21883">
        <ele>554</ele>
        <time>2012-11-14T13:46:25Z</time>
      </trkpt>
      <trkpt lat="45.51344" lon="3.21882">
        <ele>553</ele>
        <time>2012-11-14T13:46:29Z</time>
      </trkpt>
      <trkpt lat="45.51367" lon="3.2189">
        <ele>553</ele>
        <time>2012-11-14T13:46:32Z</time>
      </trkpt>
      <trkpt lat="45.51383" lon="3.21902">
        <ele>553</ele>
        <time>2012-11-14T13:46:36Z</time>
      </trkpt>
      <trkpt lat="45.51404" lon="3.21916">
        <ele>552</ele>
        <time>2012-11-14T13:46:40Z</time>
      </trkpt>
      <trkpt lat="45.51423" lon="3.21929">
        <ele>551</ele>
        <time>2012-11-14T13:46:44Z</time>
      </trkpt>
      <trkpt lat="45.51441" lon="3.21944">
        <ele>551</ele>
        <time>2012-11-14T13:46:48Z</time>
      </trkpt>
      <trkpt lat="45.5146" lon="3.21957">
        <ele>550</ele>
        <time>2012-11-14T13:46:52Z</time>
      </trkpt>
      <trkpt lat="45.51481" lon="3.21955">
        <ele>550</ele>
        <time>2012-11-14T13:46:56Z</time>
      </trkpt>
      <trkpt lat="45.51503" lon="3.21946">
        <ele>547</ele>
        <time>2012-11-14T13:47:00Z</time>
      </trkpt>
      <trkpt lat="45.51523" lon="3.21945">
        <ele>546</ele>
        <time>2012-11-14T13:47:04Z</time>
      </trkpt>
      <trkpt lat="45.51541" lon="3.21948">
        <ele>546</ele>
        <time>2012-11-14T13:47:07Z</time>
      </trkpt>
      <trkpt lat="45.51563" lon="3.21955">
        <ele>545</ele>
        <time>2012-11-14T13:47:10Z</time>
      </trkpt>
      <trkpt lat="45.51588" lon="3.21957">
        <ele>539</ele>
        <time>2012-11-14T13:47:13Z</time>
      </trkpt>
      <trkpt lat="45.51614" lon="3.21963">
        <ele>538</ele>
        <time>2012-11-14T13:47:16Z</time>
      </trkpt>
      <trkpt lat="45.51638" lon="3.21978">
        <ele>537</ele>
        <time>2012-11-14T13:47:19Z</time>
      </trkpt>
      <trkpt lat="45.51659" lon="3.21999">
        <ele>534</ele>
        <time>2012-11-14T13:47:22Z</time>
      </trkpt>
      <trkpt lat="45.51679" lon="3.22022">
        <ele>532</ele>
        <time>2012-11-14T13:47:25Z</time>
      </trkpt>
      <trkpt lat="45.51703" lon="3.22037">
        <ele>532</ele>
        <time>2012-11-14T13:47:28Z</time>
      </trkpt>
      <trkpt lat="45.51726" lon="3.22049">
        <ele>531</ele>
        <time>2012-11-14T13:47:31Z</time>
      </trkpt>
      <trkpt lat="45.51748" lon="3.22061">
        <ele>530</ele>
        <time>2012-11-14T13:47:34Z</time>
      </trkpt>
      <trkpt lat="45.5177" lon="3.2207">
        <ele>527</ele>
        <time>2012-11-14T13:47:36Z</time>
      </trkpt>
      <trkpt lat="45.51791" lon="3.22073">
        <ele>526</ele>
        <time>2012-11-14T13:47:40Z</time>
      </trkpt>
      <trkpt lat="45.51813" lon="3.22071">
        <ele>525</ele>
        <time>2012-11-14T13:47:43Z</time>
      </trkpt>
      <trkpt lat="45.51833" lon="3.22069">
        <ele>522</ele>
        <time>2012-11-14T13:47:46Z</time>
      </trkpt>
      <trkpt lat="45.51854" lon="3.22066">
        <ele>521</ele>
        <time>2012-11-14T13:47:49Z</time>
      </trkpt>
      <trkpt lat="45.51875" lon="3.22064">
        <ele>520</ele>
        <time>2012-11-14T13:47:52Z</time>
      </trkpt>
      <trkpt lat="45.51895" lon="3.22064">
        <ele>519</ele>
        <time>2012-11-14T13:47:55Z</time>
      </trkpt>
      <trkpt lat="45.51914" lon="3.22068">
        <ele>518</ele>
        <time>2012-11-14T13:47:58Z</time>
      </trkpt>
      <trkpt lat="45.51937" lon="3.22073">
        <ele>515</ele>
        <time>2012-11-14T13:48:01Z</time>
      </trkpt>
      <trkpt lat="45.51958" lon="3.22079">
        <ele>514</ele>
        <time>2012-11-14T13:48:04Z</time>
      </trkpt>
      <trkpt lat="45.51981" lon="3.22087">
        <ele>512</ele>
        <time>2012-11-14T13:48:07Z</time>
      </trkpt>
      <trkpt lat="45.52005" lon="3.22092">
        <ele>509</ele>
        <time>2012-11-14T13:48:10Z</time>
      </trkpt>
      <trkpt lat="45.52027" lon="3.22097">
        <ele>508</ele>
        <time>2012-11-14T13:48:13Z</time>
      </trkpt>
      <trkpt lat="45.5205" lon="3.22104">
        <ele>507</ele>
        <time>2012-11-14T13:48:16Z</time>
      </trkpt>
      <trkpt lat="45.52067" lon="3.22113">
        <ele>506</ele>
        <time>2012-11-14T13:48:19Z</time>
      </trkpt>
      <trkpt lat="45.52086" lon="3.2213">
        <ele>501</ele>
        <time>2012-11-14T13:48:23Z</time>
      </trkpt>
      <trkpt lat="45.52106" lon="3.22149">
        <ele>500</ele>
        <time>2012-11-14T13:48:27Z</time>
      </trkpt>
      <trkpt lat="45.52124" lon="3.22168">
        <ele>498</ele>
        <time>2012-11-14T13:48:31Z</time>
      </trkpt>
      <trkpt lat="45.52141" lon="3.22186">
        <ele>497</ele>
        <time>2012-11-14T13:48:35Z</time>
      </trkpt>
      <trkpt lat="45.52159" lon="3.22199">
        <ele>496</ele>
        <time>2012-11-14T13:48:39Z</time>
      </trkpt>
      <trkpt lat="45.52174" lon="3.22216">
        <ele>492</ele>
        <time>2012-11-14T13:48:42Z</time>
      </trkpt>
      <trkpt lat="45.52189" lon="3.22235">
        <ele>492</ele>
        <time>2012-11-14T13:48:45Z</time>
      </trkpt>
      <trkpt lat="45.52201" lon="3.22261">
        <ele>491</ele>
        <time>2012-11-14T13:48:48Z</time>
      </trkpt>
      <trkpt lat="45.52216" lon="3.22292">
        <ele>490</ele>
        <time>2012-11-14T13:48:51Z</time>
      </trkpt>
      <trkpt lat="45.52233" lon="3.22319">
        <ele>489</ele>
        <time>2012-11-14T13:48:54Z</time>
      </trkpt>
      <trkpt lat="45.52247" lon="3.22336">
        <ele>487</ele>
        <time>2012-11-14T13:48:56Z</time>
      </trkpt>
      <trkpt lat="45.52263" lon="3.22351">
        <ele>485</ele>
        <time>2012-11-14T13:48:58Z</time>
      </trkpt>
      <trkpt lat="45.52278" lon="3.22366">
        <ele>485</ele>
        <time>2012-11-14T13:49:00Z</time>
      </trkpt>
      <trkpt lat="45.523" lon="3.22382">
        <ele>484</ele>
        <time>2012-11-14T13:49:03Z</time>
      </trkpt>
      <trkpt lat="45.52321" lon="3.22397">
        <ele>482</ele>
        <time>2012-11-14T13:49:06Z</time>
      </trkpt>
      <trkpt lat="45.52344" lon="3.22418">
        <ele>478</ele>
        <time>2012-11-14T13:49:09Z</time>
      </trkpt>
      <trkpt lat="45.52368" lon="3.22437">
        <ele>477</ele>
        <time>2012-11-14T13:49:12Z</time>
      </trkpt>
      <trkpt lat="45.52389" lon="3.22459">
        <ele>476</ele>
        <time>2012-11-14T13:49:15Z</time>
      </trkpt>
      <trkpt lat="45.52411" lon="3.22481">
        <ele>475</ele>
        <time>2012-11-14T13:49:18Z</time>
      </trkpt>
      <trkpt lat="45.52428" lon="3.22506">
        <ele>472</ele>
        <time>2012-11-14T13:49:22Z</time>
      </trkpt>
      <trkpt lat="45.52446" lon="3.22538">
        <ele>470</ele>
        <time>2012-11-14T13:49:25Z</time>
      </trkpt>
      <trkpt lat="45.52463" lon="3.22565">
        <ele>469</ele>
        <time>2012-11-14T13:49:28Z</time>
      </trkpt>
      <trkpt lat="45.52483" lon="3.22587">
        <ele>465</ele>
        <time>2012-11-14T13:49:31Z</time>
      </trkpt>
      <trkpt lat="45.52505" lon="3.22597">
        <ele>464</ele>
        <time>2012-11-14T13:49:34Z</time>
      </trkpt>
      <trkpt lat="45.52526" lon="3.22599">
        <ele>464</ele>
        <time>2012-11-14T13:49:37Z</time>
      </trkpt>
      <trkpt lat="45.52543" lon="3.22618">
        <ele>465</ele>
        <time>2012-11-14T13:49:41Z</time>
      </trkpt>
      <trkpt lat="45.52555" lon="3.22644">
        <ele>465</ele>
        <time>2012-11-14T13:49:46Z</time>
      </trkpt>
      <trkpt lat="45.52567" lon="3.22669">
        <ele>463</ele>
        <time>2012-11-14T13:49:51Z</time>
      </trkpt>
      <trkpt lat="45.52582" lon="3.22689">
        <ele>463</ele>
        <time>2012-11-14T13:49:56Z</time>
      </trkpt>
      <trkpt lat="45.52596" lon="3.22706">
        <ele>464</ele>
        <time>2012-11-14T13:50:01Z</time>
      </trkpt>
      <trkpt lat="45.52613" lon="3.22719">
        <ele>463</ele>
        <time>2012-11-14T13:50:06Z</time>
      </trkpt>
      <trkpt lat="45.52617" lon="3.2269">
        <ele>464</ele>
        <time>2012-11-14T13:50:19Z</time>
      </trkpt>
      <trkpt lat="45.52617" lon="3.22662">
        <ele>467</ele>
        <time>2012-11-14T13:50:25Z</time>
      </trkpt>
      <trkpt lat="45.52625" lon="3.22635">
        <ele>467</ele>
        <time>2012-11-14T13:50:32Z</time>
      </trkpt>
      <trkpt lat="45.52631" lon="3.2261">
        <ele>468</ele>
        <time>2012-11-14T13:50:38Z</time>
      </trkpt>
      <trkpt lat="45.52636" lon="3.22584">
        <ele>469</ele>
        <time>2012-11-14T13:50:44Z</time>
      </trkpt>
      <trkpt lat="45.52643" lon="3.22558">
        <ele>472</ele>
        <time>2012-11-14T13:50:50Z</time>
      </trkpt>
      <trkpt lat="45.52661" lon="3.22567">
        <ele>472</ele>
        <time>2012-11-14T13:50:59Z</time>
      </trkpt>
      <trkpt lat="45.52677" lon="3.22588">
        <ele>471</ele>
        <time>2012-11-14T13:51:04Z</time>
      </trkpt>
      <trkpt lat="45.52692" lon="3.22604">
        <ele>469</ele>
        <time>2012-11-14T13:51:08Z</time>
      </trkpt>
      <trkpt lat="45.52711" lon="3.22624">
        <ele>468</ele>
        <time>2012-11-14T13:51:12Z</time>
      </trkpt>
      <trkpt lat="45.52728" lon="3.22639">
        <ele>467</ele>
        <time>2012-11-14T13:51:15Z</time>
      </trkpt>
      <trkpt lat="45.52746" lon="3.22653">
        <ele>466</ele>
        <time>2012-11-14T13:51:18Z</time>
      </trkpt>
      <trkpt lat="45.52767" lon="3.22666">
        <ele>465</ele>
        <time>2012-11-14T13:51:21Z</time>
      </trkpt>
      <trkpt lat="45.52786" lon="3.22679">
        <ele>462</ele>
        <time>2012-11-14T13:51:24Z</time>
      </trkpt>
      <trkpt lat="45.52806" lon="3.22698">
        <ele>462</ele>
        <time>2012-11-14T13:51:27Z</time>
      </trkpt>
      <trkpt lat="45.52824" lon="3.22717">
        <ele>461</ele>
        <time>2012-11-14T13:51:30Z</time>
      </trkpt>
      <trkpt lat="45.52842" lon="3.22736">
        <ele>460</ele>
        <time>2012-11-14T13:51:33Z</time>
      </trkpt>
      <trkpt lat="45.52859" lon="3.22751">
        <ele>458</ele>
        <time>2012-11-14T13:51:36Z</time>
      </trkpt>
      <trkpt lat="45.52876" lon="3.22766">
        <ele>458</ele>
        <time>2012-11-14T13:51:39Z</time>
      </trkpt>
      <trkpt lat="45.52893" lon="3.22781">
        <ele>458</ele>
        <time>2012-11-14T13:51:42Z</time>
      </trkpt>
      <trkpt lat="45.52911" lon="3.22796">
        <ele>458</ele>
        <time>2012-11-14T13:51:45Z</time>
      </trkpt>
      <trkpt lat="45.52929" lon="3.22814">
        <ele>457</ele>
        <time>2012-11-14T13:51:48Z</time>
      </trkpt>
      <trkpt lat="45.52947" lon="3.22833">
        <ele>458</ele>
        <time>2012-11-14T13:51:51Z</time>
      </trkpt>
      <trkpt lat="45.52963" lon="3.22855">
        <ele>456</ele>
        <time>2012-11-14T13:51:54Z</time>
      </trkpt>
      <trkpt lat="45.52977" lon="3.22879">
        <ele>456</ele>
        <time>2012-11-14T13:51:57Z</time>
      </trkpt>
      <trkpt lat="45.52989" lon="3.22907">
        <ele>456</ele>
        <time>2012-11-14T13:52:00Z</time>
      </trkpt>
      <trkpt lat="45.52998" lon="3.22934">
        <ele>455</ele>
        <time>2012-11-14T13:52:03Z</time>
      </trkpt>
      <trkpt lat="45.53006" lon="3.22961">
        <ele>457</ele>
        <time>2012-11-14T13:52:06Z</time>
      </trkpt>
      <trkpt lat="45.53014" lon="3.22984">
        <ele>457</ele>
        <time>2012-11-14T13:52:09Z</time>
      </trkpt>
      <trkpt lat="45.53024" lon="3.23008">
        <ele>456</ele>
        <time>2012-11-14T13:52:13Z</time>
      </trkpt>
      <trkpt lat="45.53037" lon="3.23031">
        <ele>456</ele>
        <time>2012-11-14T13:52:17Z</time>
      </trkpt>
      <trkpt lat="45.53052" lon="3.23051">
        <ele>456</ele>
        <time>2012-11-14T13:52:21Z</time>
      </trkpt>
      <trkpt lat="45.53071" lon="3.23065">
        <ele>456</ele>
        <time>2012-11-14T13:52:25Z</time>
      </trkpt>
      <trkpt lat="45.5309" lon="3.2308">
        <ele>457</ele>
        <time>2012-11-14T13:52:29Z</time>
      </trkpt>
      <trkpt lat="45.53109" lon="3.23092">
        <ele>456</ele>
        <time>2012-11-14T13:52:33Z</time>
      </trkpt>
      <trkpt lat="45.53127" lon="3.23108">
        <ele>456</ele>
        <time>2012-11-14T13:52:37Z</time>
      </trkpt>
      <trkpt lat="45.53147" lon="3.23124">
        <ele>456</ele>
        <time>2012-11-14T13:52:41Z</time>
      </trkpt>
      <trkpt lat="45.53165" lon="3.23141">
        <ele>456</ele>
        <time>2012-11-14T13:52:45Z</time>
      </trkpt>
      <trkpt lat="45.53183" lon="3.23158">
        <ele>456</ele>
        <time>2012-11-14T13:52:49Z</time>
      </trkpt>
      <trkpt lat="45.53199" lon="3.23176">
        <ele>456</ele>
        <time>2012-11-14T13:52:53Z</time>
      </trkpt>
      <trkpt lat="45.53215" lon="3.23201">
        <ele>456</ele>
        <time>2012-11-14T13:52:57Z</time>
      </trkpt>
      <trkpt lat="45.53228" lon="3.23221">
        <ele>455</ele>
        <time>2012-11-14T13:53:00Z</time>
      </trkpt>
      <trkpt lat="45.53243" lon="3.23245">
        <ele>455</ele>
        <time>2012-11-14T13:53:03Z</time>
      </trkpt>
      <trkpt lat="45.53259" lon="3.2327">
        <ele>453</ele>
        <time>2012-11-14T13:53:06Z</time>
      </trkpt>
      <trkpt lat="45.53274" lon="3.23294">
        <ele>453</ele>
        <time>2012-11-14T13:53:09Z</time>
      </trkpt>
      <trkpt lat="45.53288" lon="3.2332">
        <ele>453</ele>
        <time>2012-11-14T13:53:12Z</time>
      </trkpt>
      <trkpt lat="45.53303" lon="3.23345">
        <ele>452</ele>
        <time>2012-11-14T13:53:15Z</time>
      </trkpt>
      <trkpt lat="45.53319" lon="3.2337">
        <ele>451</ele>
        <time>2012-11-14T13:53:18Z</time>
      </trkpt>
      <trkpt lat="45.53335" lon="3.23392">
        <ele>449</ele>
        <time>2012-11-14T13:53:21Z</time>
      </trkpt>
      <trkpt lat="45.53354" lon="3.23415">
        <ele>448</ele>
        <time>2012-11-14T13:53:24Z</time>
      </trkpt>
      <trkpt lat="45.53373" lon="3.23437">
        <ele>445</ele>
        <time>2012-11-14T13:53:27Z</time>
      </trkpt>
      <trkpt lat="45.53392" lon="3.23459">
        <ele>444</ele>
        <time>2012-11-14T13:53:30Z</time>
      </trkpt>
      <trkpt lat="45.53412" lon="3.23479">
        <ele>443</ele>
        <time>2012-11-14T13:53:34Z</time>
      </trkpt>
      <trkpt lat="45.53427" lon="3.23497">
        <ele>441</ele>
        <time>2012-11-14T13:53:37Z</time>
      </trkpt>
      <trkpt lat="45.53443" lon="3.23518">
        <ele>438</ele>
        <time>2012-11-14T13:53:40Z</time>
      </trkpt>
      <trkpt lat="45.5346" lon="3.23541">
        <ele>437</ele>
        <time>2012-11-14T13:53:43Z</time>
      </trkpt>
      <trkpt lat="45.53478" lon="3.23564">
        <ele>436</ele>
        <time>2012-11-14T13:53:46Z</time>
      </trkpt>
      <trkpt lat="45.53496" lon="3.23587">
        <ele>433</ele>
        <time>2012-11-14T13:53:49Z</time>
      </trkpt>
      <trkpt lat="45.5352" lon="3.23595">
        <ele>429</ele>
        <time>2012-11-14T13:53:52Z</time>
      </trkpt>
      <trkpt lat="45.53544" lon="3.23577">
        <ele>429</ele>
        <time>2012-11-14T13:53:55Z</time>
      </trkpt>
      <trkpt lat="45.53557" lon="3.23555">
        <ele>428</ele>
        <time>2012-11-14T13:53:57Z</time>
      </trkpt>
      <trkpt lat="45.53568" lon="3.23532">
        <ele>428</ele>
        <time>2012-11-14T13:53:59Z</time>
      </trkpt>
      <trkpt lat="45.53582" lon="3.23505">
        <ele>427</ele>
        <time>2012-11-14T13:54:02Z</time>
      </trkpt>
      <trkpt lat="45.53603" lon="3.23519">
        <ele>420</ele>
        <time>2012-11-14T13:54:06Z</time>
      </trkpt>
      <trkpt lat="45.53613" lon="3.23552">
        <ele>419</ele>
        <time>2012-11-14T13:54:09Z</time>
      </trkpt>
      <trkpt lat="45.53623" lon="3.23583">
        <ele>418</ele>
        <time>2012-11-14T13:54:11Z</time>
      </trkpt>
      <trkpt lat="45.53631" lon="3.23613">
        <ele>415</ele>
        <time>2012-11-14T13:54:13Z</time>
      </trkpt>
      <trkpt lat="45.53642" lon="3.2364">
        <ele>413</ele>
        <time>2012-11-14T13:54:15Z</time>
      </trkpt>
      <trkpt lat="45.53652" lon="3.23669">
        <ele>410</ele>
        <time>2012-11-14T13:54:17Z</time>
      </trkpt>
      <trkpt lat="45.53661" lon="3.23703">
        <ele>410</ele>
        <time>2012-11-14T13:54:19Z</time>
      </trkpt>
      <trkpt lat="45.53671" lon="3.23736">
        <ele>403</ele>
        <time>2012-11-14T13:54:21Z</time>
      </trkpt>
      <trkpt lat="45.53684" lon="3.23769">
        <ele>402</ele>
        <time>2012-11-14T13:54:23Z</time>
      </trkpt>
      <trkpt lat="45.53692" lon="3.23801">
        <ele>401</ele>
        <time>2012-11-14T13:54:25Z</time>
      </trkpt>
      <trkpt lat="45.53703" lon="3.23833">
        <ele>401</ele>
        <time>2012-11-14T13:54:27Z</time>
      </trkpt>
      <trkpt lat="45.53711" lon="3.23863">
        <ele>400</ele>
        <time>2012-11-14T13:54:29Z</time>
      </trkpt>
      <trkpt lat="45.53721" lon="3.23897">
        <ele>399</ele>
        <time>2012-11-14T13:54:31Z</time>
      </trkpt>
      <trkpt lat="45.53731" lon="3.23925">
        <ele>397</ele>
        <time>2012-11-14T13:54:33Z</time>
      </trkpt>
      <trkpt lat="45.53741" lon="3.23953">
        <ele>397</ele>
        <time>2012-11-14T13:54:35Z</time>
      </trkpt>
      <trkpt lat="45.53749" lon="3.23979">
        <ele>397</ele>
        <time>2012-11-14T13:54:37Z</time>
      </trkpt>
      <trkpt lat="45.53756" lon="3.24006">
        <ele>396</ele>
        <time>2012-11-14T13:54:39Z</time>
      </trkpt>
      <trkpt lat="45.53763" lon="3.24031">
        <ele>395</ele>
        <time>2012-11-14T13:54:41Z</time>
      </trkpt>
      <trkpt lat="45.53772" lon="3.24056">
        <ele>396</ele>
        <time>2012-11-14T13:54:43Z</time>
      </trkpt>
      <trkpt lat="45.53779" lon="3.24081">
        <ele>396</ele>
        <time>2012-11-14T13:54:45Z</time>
      </trkpt>
      <trkpt lat="45.53789" lon="3.24116">
        <ele>395</ele>
        <time>2012-11-14T13:54:48Z</time>
      </trkpt>
      <trkpt lat="45.53798" lon="3.2415">
        <ele>395</ele>
        <time>2012-11-14T13:54:51Z</time>
      </trkpt>
      <trkpt lat="45.53807" lon="3.24184">
        <ele>394</ele>
        <time>2012-11-14T13:54:54Z</time>
      </trkpt>
      <trkpt lat="45.53818" lon="3.24218">
        <ele>394</ele>
        <time>2012-11-14T13:54:57Z</time>
      </trkpt>
      <trkpt lat="45.53828" lon="3.24252">
        <ele>394</ele>
        <time>2012-11-14T13:55:00Z</time>
      </trkpt>
      <trkpt lat="45.53838" lon="3.24283">
        <ele>393</ele>
        <time>2012-11-14T13:55:03Z</time>
      </trkpt>
      <trkpt lat="45.53848" lon="3.24315">
        <ele>393</ele>
        <time>2012-11-14T13:55:06Z</time>
      </trkpt>
      <trkpt lat="45.53859" lon="3.24345">
        <ele>393</ele>
        <time>2012-11-14T13:55:09Z</time>
      </trkpt>
      <trkpt lat="45.53867" lon="3.24371">
        <ele>392</ele>
        <time>2012-11-14T13:55:12Z</time>
      </trkpt>
      <trkpt lat="45.53873" lon="3.24395">
        <ele>392</ele>
        <time>2012-11-14T13:55:17Z</time>
      </trkpt>
      <trkpt lat="45.53882" lon="3.24421">
        <ele>392</ele>
        <time>2012-11-14T13:55:34Z</time>
      </trkpt>
      <trkpt lat="45.5389" lon="3.24447">
        <ele>392</ele>
        <time>2012-11-14T13:55:38Z</time>
      </trkpt>
      <trkpt lat="45.53899" lon="3.24476">
        <ele>392</ele>
        <time>2012-11-14T13:55:42Z</time>
      </trkpt>
      <trkpt lat="45.53908" lon="3.24505">
        <ele>392</ele>
        <time>2012-11-14T13:55:46Z</time>
      </trkpt>
      <trkpt lat="45.53918" lon="3.24536">
        <ele>391</ele>
        <time>2012-11-14T13:55:50Z</time>
      </trkpt>
      <trkpt lat="45.53928" lon="3.24568">
        <ele>392</ele>
        <time>2012-11-14T13:55:54Z</time>
      </trkpt>
      <trkpt lat="45.53937" lon="3.24598">
        <ele>393</ele>
        <time>2012-11-14T13:55:58Z</time>
      </trkpt>
      <trkpt lat="45.53947" lon="3.24626">
        <ele>393</ele>
        <time>2012-11-14T13:56:02Z</time>
      </trkpt>
      <trkpt lat="45.53956" lon="3.24654">
        <ele>393</ele>
        <time>2012-11-14T13:56:06Z</time>
      </trkpt>
      <trkpt lat="45.53959" lon="3.24685">
        <ele>394</ele>
        <time>2012-11-14T13:56:10Z</time>
      </trkpt>
      <trkpt lat="45.53958" lon="3.24717">
        <ele>394</ele>
        <time>2012-11-14T13:56:14Z</time>
      </trkpt>
      <trkpt lat="45.53957" lon="3.2475">
        <ele>395</ele>
        <time>2012-11-14T13:56:18Z</time>
      </trkpt>
      <trkpt lat="45.53955" lon="3.2478">
        <ele>395</ele>
        <time>2012-11-14T13:56:22Z</time>
      </trkpt>
      <trkpt lat="45.53962" lon="3.24807">
        <ele>396</ele>
        <time>2012-11-14T13:56:31Z</time>
      </trkpt>
      <trkpt lat="45.53981" lon="3.24815">
        <ele>396</ele>
        <time>2012-11-14T13:56:34Z</time>
      </trkpt>
      <trkpt lat="45.54" lon="3.24827">
        <ele>395</ele>
        <time>2012-11-14T13:56:38Z</time>
      </trkpt>
      <trkpt lat="45.54014" lon="3.24849">
        <ele>395</ele>
        <time>2012-11-14T13:56:41Z</time>
      </trkpt>
      <trkpt lat="45.54026" lon="3.24868">
        <ele>394</ele>
        <time>2012-11-14T13:56:44Z</time>
      </trkpt>
      <trkpt lat="45.54036" lon="3.24897">
        <ele>394</ele>
        <time>2012-11-14T13:56:47Z</time>
      </trkpt>
      <trkpt lat="45.54048" lon="3.24926">
        <ele>393</ele>
        <time>2012-11-14T13:56:50Z</time>
      </trkpt>
      <trkpt lat="45.54064" lon="3.24949">
        <ele>393</ele>
        <time>2012-11-14T13:56:54Z</time>
      </trkpt>
      <trkpt lat="45.54082" lon="3.24968">
        <ele>393</ele>
        <time>2012-11-14T13:56:58Z</time>
      </trkpt>
      <trkpt lat="45.54101" lon="3.24976">
        <ele>391</ele>
        <time>2012-11-14T13:57:03Z</time>
      </trkpt>
      <trkpt lat="45.5412" lon="3.24984">
        <ele>391</ele>
        <time>2012-11-14T13:57:09Z</time>
      </trkpt>
      <trkpt lat="45.54131" lon="3.24962">
        <ele>390</ele>
        <time>2012-11-14T13:57:19Z</time>
      </trkpt>
      <trkpt lat="45.54151" lon="3.24956">
        <ele>390</ele>
        <time>2012-11-14T13:57:26Z</time>
      </trkpt>
      <trkpt lat="45.54163" lon="3.2498">
        <ele>390</ele>
        <time>2012-11-14T13:57:30Z</time>
      </trkpt>
      <trkpt lat="45.54173" lon="3.25003">
        <ele>389</ele>
        <time>2012-11-14T13:57:33Z</time>
      </trkpt>
      <trkpt lat="45.54188" lon="3.25026">
        <ele>387</ele>
        <time>2012-11-14T13:57:36Z</time>
      </trkpt>
      <trkpt lat="45.54201" lon="3.25054">
        <ele>387</ele>
        <time>2012-11-14T13:57:39Z</time>
      </trkpt>
      <trkpt lat="45.5422" lon="3.25064">
        <ele>387</ele>
        <time>2012-11-14T13:57:42Z</time>
      </trkpt>
      <trkpt lat="45.5424" lon="3.25076">
        <ele>386</ele>
        <time>2012-11-14T13:57:45Z</time>
      </trkpt>
      <trkpt lat="45.54258" lon="3.2509">
        <ele>385</ele>
        <time>2012-11-14T13:57:48Z</time>
      </trkpt>
      <trkpt lat="45.54277" lon="3.25104">
        <ele>385</ele>
        <time>2012-11-14T13:57:51Z</time>
      </trkpt>
      <trkpt lat="45.54295" lon="3.25115">
        <ele>385</ele>
        <time>2012-11-14T13:57:54Z</time>
      </trkpt>
      <trkpt lat="45.54311" lon="3.25129">
        <ele>385</ele>
        <time>2012-11-14T13:57:57Z</time>
      </trkpt>
      <trkpt lat="45.54328" lon="3.2514">
        <ele>385</ele>
        <time>2012-11-14T13:58:00Z</time>
      </trkpt>
      <trkpt lat="45.54346" lon="3.25153">
        <ele>387</ele>
        <time>2012-11-14T13:58:03Z</time>
      </trkpt>
      <trkpt lat="45.54367" lon="3.25166">
        <ele>388</ele>
        <time>2012-11-14T13:58:07Z</time>
      </trkpt>
      <trkpt lat="45.54384" lon="3.25179">
        <ele>387</ele>
        <time>2012-11-14T13:58:10Z</time>
      </trkpt>
      <trkpt lat="45.5439" lon="3.25203">
        <ele>387</ele>
        <time>2012-11-14T13:58:13Z</time>
      </trkpt>
      <trkpt lat="45.54391" lon="3.25231">
        <ele>386</ele>
        <time>2012-11-14T13:58:16Z</time>
      </trkpt>
      <trkpt lat="45.54396" lon="3.25259">
        <ele>385</ele>
        <time>2012-11-14T13:58:19Z</time>
      </trkpt>
      <trkpt lat="45.54396" lon="3.25289">
        <ele>385</ele>
        <time>2012-11-14T13:58:22Z</time>
      </trkpt>
      <trkpt lat="45.54399" lon="3.25315">
        <ele>385</ele>
        <time>2012-11-14T13:58:25Z</time>
      </trkpt>
      <trkpt lat="45.54396" lon="3.25348">
        <ele>384</ele>
        <time>2012-11-14T13:58:29Z</time>
      </trkpt>
      <trkpt lat="45.54374" lon="3.25352">
        <ele>383</ele>
        <time>2012-11-14T13:58:32Z</time>
      </trkpt>
      <trkpt lat="45.54352" lon="3.25356">
        <ele>383</ele>
        <time>2012-11-14T13:58:35Z</time>
      </trkpt>
      <trkpt lat="45.54336" lon="3.25375">
        <ele>383</ele>
        <time>2012-11-14T13:58:38Z</time>
      </trkpt>
      <trkpt lat="45.54336" lon="3.25404">
        <ele>382</ele>
        <time>2012-11-14T13:58:41Z</time>
      </trkpt>
      <trkpt lat="45.5434" lon="3.25435">
        <ele>381</ele>
        <time>2012-11-14T13:58:43Z</time>
      </trkpt>
      <trkpt lat="45.54342" lon="3.25463">
        <ele>381</ele>
        <time>2012-11-14T13:58:47Z</time>
      </trkpt>
      <trkpt lat="45.54347" lon="3.25492">
        <ele>381</ele>
        <time>2012-11-14T13:58:50Z</time>
      </trkpt>
      <trkpt lat="45.54347" lon="3.25523">
        <ele>380</ele>
        <time>2012-11-14T13:58:53Z</time>
      </trkpt>
      <trkpt lat="45.54352" lon="3.25548">
        <ele>381</ele>
        <time>2012-11-14T13:58:56Z</time>
      </trkpt>
      <trkpt lat="45.54364" lon="3.25571">
        <ele>381</ele>
        <time>2012-11-14T13:58:59Z</time>
      </trkpt>
      <trkpt lat="45.54372" lon="3.25598">
        <ele>380</ele>
        <time>2012-11-14T13:59:02Z</time>
      </trkpt>
      <trkpt lat="45.54367" lon="3.25624">
        <ele>379</ele>
        <time>2012-11-14T13:59:07Z</time>
      </trkpt>
      <trkpt lat="45.54363" lon="3.25655">
        <ele>379</ele>
        <time>2012-11-14T13:59:12Z</time>
      </trkpt>
      <trkpt lat="45.54373" lon="3.25686">
        <ele>378</ele>
        <time>2012-11-14T13:59:16Z</time>
      </trkpt>
      <trkpt lat="45.54361" lon="3.25709">
        <ele>379</ele>
        <time>2012-11-14T13:59:22Z</time>
      </trkpt>
      <trkpt lat="45.54345" lon="3.25727">
        <ele>379</ele>
        <time>2012-11-14T13:59:26Z</time>
      </trkpt>
      <trkpt lat="45.54339" lon="3.25756">
        <ele>379</ele>
        <time>2012-11-14T13:59:30Z</time>
      </trkpt>
      <trkpt lat="45.54337" lon="3.25783">
        <ele>379</ele>
        <time>2012-11-14T13:59:33Z</time>
      </trkpt>
      <trkpt lat="45.54333" lon="3.25808">
        <ele>381</ele>
        <time>2012-11-14T13:59:36Z</time>
      </trkpt>
      <trkpt lat="45.54329" lon="3.25835">
        <ele>380</ele>
        <time>2012-11-14T13:59:39Z</time>
      </trkpt>
      <trkpt lat="45.54323" lon="3.25862">
        <ele>382</ele>
        <time>2012-11-14T13:59:43Z</time>
      </trkpt>
      <trkpt lat="45.54325" lon="3.25894">
        <ele>381</ele>
        <time>2012-11-14T13:59:47Z</time>
      </trkpt>
      <trkpt lat="45.54325" lon="3.25923">
        <ele>380</ele>
        <time>2012-11-14T13:59:50Z</time>
      </trkpt>
      <trkpt lat="45.54335" lon="3.25946">
        <ele>378</ele>
        <time>2012-11-14T13:59:53Z</time>
      </trkpt>
      <trkpt lat="45.54362" lon="3.25951">
        <ele>378</ele>
        <time>2012-11-14T13:59:58Z</time>
      </trkpt>
      <trkpt lat="45.54382" lon="3.25961">
        <ele>377</ele>
        <time>2012-11-14T14:00:01Z</time>
      </trkpt>
      <trkpt lat="45.54397" lon="3.25979">
        <ele>377</ele>
        <time>2012-11-14T14:00:04Z</time>
      </trkpt>
      <trkpt lat="45.54408" lon="3.26001">
        <ele>377</ele>
        <time>2012-11-14T14:00:07Z</time>
      </trkpt>
      <trkpt lat="45.54422" lon="3.26027">
        <ele>378</ele>
        <time>2012-11-14T14:00:11Z</time>
      </trkpt>
      <trkpt lat="45.54429" lon="3.26059">
        <ele>378</ele>
        <time>2012-11-14T14:00:15Z</time>
      </trkpt>
      <trkpt lat="45.54431" lon="3.2609">
        <ele>377</ele>
        <time>2012-11-14T14:00:18Z</time>
      </trkpt>
      <trkpt lat="45.5443" lon="3.26117">
        <ele>378</ele>
        <time>2012-11-14T14:00:21Z</time>
      </trkpt>
      <trkpt lat="45.54429" lon="3.26145">
        <ele>377</ele>
        <time>2012-11-14T14:00:24Z</time>
      </trkpt>
      <trkpt lat="45.54429" lon="3.26174">
        <ele>376</ele>
        <time>2012-11-14T14:00:27Z</time>
      </trkpt>
      <trkpt lat="45.54429" lon="3.26203">
        <ele>376</ele>
        <time>2012-11-14T14:00:30Z</time>
      </trkpt>
      <trkpt lat="45.54434" lon="3.26228">
        <ele>375</ele>
        <time>2012-11-14T14:00:33Z</time>
      </trkpt>
      <trkpt lat="45.5444" lon="3.26255">
        <ele>374</ele>
        <time>2012-11-14T14:00:37Z</time>
      </trkpt>
      <trkpt lat="45.54443" lon="3.26281">
        <ele>374</ele>
        <time>2012-11-14T14:00:41Z</time>
      </trkpt>
      <trkpt lat="45.54446" lon="3.26307">
        <ele>374</ele>
        <time>2012-11-14T14:00:49Z</time>
      </trkpt>
      <trkpt lat="45.54448" lon="3.26335">
        <ele>375</ele>
        <time>2012-11-14T14:00:59Z</time>
      </trkpt>
      <trkpt lat="45.54443" lon="3.2636">
        <ele>375</ele>
        <time>2012-11-14T14:01:07Z</time>
      </trkpt>
      <trkpt lat="45.54428" lon="3.26376">
        <ele>374</ele>
        <time>2012-11-14T14:01:14Z</time>
      </trkpt>
      <trkpt lat="45.54427" lon="3.26402">
        <ele>374</ele>
        <time>2012-11-14T14:01:20Z</time>
      </trkpt>
      <trkpt lat="45.54437" lon="3.26425">
        <ele>374</ele>
        <time>2012-11-14T14:01:24Z</time>
      </trkpt>
      <trkpt lat="45.54445" lon="3.26453">
        <ele>374</ele>
        <time>2012-11-14T14:01:29Z</time>
      </trkpt>
      <trkpt lat="45.5445" lon="3.26483">
        <ele>374</ele>
        <time>2012-11-14T14:01:35Z</time>
      </trkpt>
      <trkpt lat="45.54453" lon="3.2651">
        <ele>374</ele>
        <time>2012-11-14T14:01:40Z</time>
      </trkpt>
      <trkpt lat="45.54462" lon="3.26537">
        <ele>374</ele>
        <time>2012-11-14T14:01:44Z</time>
      </trkpt>
      <trkpt lat="45.54466" lon="3.26568">
        <ele>374</ele>
        <time>2012-11-14T14:01:48Z</time>
      </trkpt>
      <trkpt lat="45.54471" lon="3.26598">
        <ele>374</ele>
        <time>2012-11-14T14:01:52Z</time>
      </trkpt>
      <trkpt lat="45.54479" lon="3.26629">
        <ele>374</ele>
        <time>2012-11-14T14:01:56Z</time>
      </trkpt>
      <trkpt lat="45.54489" lon="3.26658">
        <ele>375</ele>
        <time>2012-11-14T14:02:00Z</time>
      </trkpt>
      <trkpt lat="45.54496" lon="3.26685">
        <ele>374</ele>
        <time>2012-11-14T14:02:04Z</time>
      </trkpt>
      <trkpt lat="45.54502" lon="3.26711">
        <ele>374</ele>
        <time>2012-11-14T14:02:06Z</time>
      </trkpt>
      <trkpt lat="45.54508" lon="3.26741">
        <ele>374</ele>
        <time>2012-11-14T14:02:11Z</time>
      </trkpt>
      <trkpt lat="45.54505" lon="3.26773">
        <ele>374</ele>
        <time>2012-11-14T14:02:15Z</time>
      </trkpt>
      <trkpt lat="45.54502" lon="3.26805">
        <ele>373</ele>
        <time>2012-11-14T14:02:19Z</time>
      </trkpt>
      <trkpt lat="45.54498" lon="3.26836">
        <ele>373</ele>
        <time>2012-11-14T14:02:22Z</time>
      </trkpt>
      <trkpt lat="45.54487" lon="3.26866">
        <ele>373</ele>
        <time>2012-11-14T14:02:28Z</time>
      </trkpt>
      <trkpt lat="45.54465" lon="3.26867">
        <ele>373</ele>
        <time>2012-11-14T14:02:33Z</time>
      </trkpt>
      <trkpt lat="45.54445" lon="3.2686">
        <ele>373</ele>
        <time>2012-11-14T14:02:37Z</time>
      </trkpt>
      <trkpt lat="45.54423" lon="3.26852">
        <ele>373</ele>
        <time>2012-11-14T14:02:41Z</time>
      </trkpt>
      <trkpt lat="45.54404" lon="3.26846">
        <ele>373</ele>
        <time>2012-11-14T14:02:44Z</time>
      </trkpt>
      <trkpt lat="45.54385" lon="3.26844">
        <ele>373</ele>
        <time>2012-11-14T14:02:49Z</time>
      </trkpt>
      <trkpt lat="45.54366" lon="3.26842">
        <ele>373</ele>
        <time>2012-11-14T14:02:54Z</time>
      </trkpt>
      <trkpt lat="45.5435" lon="3.26853">
        <ele>373</ele>
        <time>2012-11-14T14:02:57Z</time>
      </trkpt>
      <trkpt lat="45.54334" lon="3.26868">
        <ele>373</ele>
        <time>2012-11-14T14:03:00Z</time>
      </trkpt>
      <trkpt lat="45.54319" lon="3.26887">
        <ele>373</ele>
        <time>2012-11-14T14:03:03Z</time>
      </trkpt>
      <trkpt lat="45.54311" lon="3.26918">
        <ele>371</ele>
        <time>2012-11-14T14:03:07Z</time>
      </trkpt>
      <trkpt lat="45.54309" lon="3.26949">
        <ele>371</ele>
        <time>2012-11-14T14:03:11Z</time>
      </trkpt>
      <trkpt lat="45.54309" lon="3.26974">
        <ele>371</ele>
        <time>2012-11-14T14:03:14Z</time>
      </trkpt>
      <trkpt lat="45.54311" lon="3.27006">
        <ele>371</ele>
        <time>2012-11-14T14:03:18Z</time>
      </trkpt>
      <trkpt lat="45.54314" lon="3.27038">
        <ele>371</ele>
        <time>2012-11-14T14:03:22Z</time>
      </trkpt>
      <trkpt lat="45.54315" lon="3.2707">
        <ele>372</ele>
        <time>2012-11-14T14:03:26Z</time>
      </trkpt>
      <trkpt lat="45.54313" lon="3.27101">
        <ele>372</ele>
        <time>2012-11-14T14:03:30Z</time>
      </trkpt>
      <trkpt lat="45.54312" lon="3.27127">
        <ele>371</ele>
        <time>2012-11-14T14:03:34Z</time>
      </trkpt>
      <trkpt lat="45.54315" lon="3.27152">
        <ele>371</ele>
        <time>2012-11-14T14:03:38Z</time>
      </trkpt>
      <trkpt lat="45.54325" lon="3.2718">
        <ele>371</ele>
        <time>2012-11-14T14:03:43Z</time>
      </trkpt>
      <trkpt lat="45.54336" lon="3.27211">
        <ele>370</ele>
        <time>2012-11-14T14:03:47Z</time>
      </trkpt>
      <trkpt lat="45.54345" lon="3.27236">
        <ele>369</ele>
        <time>2012-11-14T14:03:50Z</time>
      </trkpt>
      <trkpt lat="45.54351" lon="3.27264">
        <ele>369</ele>
        <time>2012-11-14T14:03:53Z</time>
      </trkpt>
      <trkpt lat="45.54353" lon="3.27291">
        <ele>369</ele>
        <time>2012-11-14T14:03:56Z</time>
      </trkpt>
      <trkpt lat="45.54356" lon="3.2732">
        <ele>369</ele>
        <time>2012-11-14T14:03:59Z</time>
      </trkpt>
      <trkpt lat="45.54355" lon="3.27355">
        <ele>370</ele>
        <time>2012-11-14T14:04:03Z</time>
      </trkpt>
      <trkpt lat="45.54351" lon="3.27381">
        <ele>370</ele>
        <time>2012-11-14T14:04:06Z</time>
      </trkpt>
      <trkpt lat="45.54343" lon="3.27411">
        <ele>371</ele>
        <time>2012-11-14T14:04:10Z</time>
      </trkpt>
      <trkpt lat="45.54334" lon="3.27443">
        <ele>370</ele>
        <time>2012-11-14T14:04:14Z</time>
      </trkpt>
      <trkpt lat="45.54327" lon="3.27472">
        <ele>370</ele>
        <time>2012-11-14T14:04:18Z</time>
      </trkpt>
      <trkpt lat="45.54322" lon="3.27497">
        <ele>370</ele>
        <time>2012-11-14T14:04:20Z</time>
      </trkpt>
      <trkpt lat="45.54313" lon="3.27526">
        <ele>368</ele>
        <time>2012-11-14T14:04:25Z</time>
      </trkpt>
      <trkpt lat="45.54306" lon="3.2755">
        <ele>368</ele>
        <time>2012-11-14T14:04:28Z</time>
      </trkpt>
      <trkpt lat="45.54297" lon="3.27583">
        <ele>367</ele>
        <time>2012-11-14T14:04:32Z</time>
      </trkpt>
      <trkpt lat="45.5429" lon="3.2761">
        <ele>368</ele>
        <time>2012-11-14T14:04:35Z</time>
      </trkpt>
      <trkpt lat="45.5428" lon="3.27638">
        <ele>368</ele>
        <time>2012-11-14T14:04:38Z</time>
      </trkpt>
      <trkpt lat="45.5427" lon="3.27669">
        <ele>370</ele>
        <time>2012-11-14T14:04:41Z</time>
      </trkpt>
      <trkpt lat="45.5426" lon="3.27702">
        <ele>371</ele>
        <time>2012-11-14T14:04:44Z</time>
      </trkpt>
      <trkpt lat="45.54248" lon="3.27729">
        <ele>371</ele>
        <time>2012-11-14T14:04:47Z</time>
      </trkpt>
      <trkpt lat="45.54237" lon="3.2775">
        <ele>373</ele>
        <time>2012-11-14T14:04:49Z</time>
      </trkpt>
      <trkpt lat="45.54223" lon="3.2778">
        <ele>374</ele>
        <time>2012-11-14T14:04:52Z</time>
      </trkpt>
      <trkpt lat="45.54206" lon="3.27808">
        <ele>375</ele>
        <time>2012-11-14T14:04:55Z</time>
      </trkpt>
      <trkpt lat="45.54188" lon="3.27834">
        <ele>380</ele>
        <time>2012-11-14T14:04:58Z</time>
      </trkpt>
      <trkpt lat="45.54172" lon="3.27857">
        <ele>381</ele>
        <time>2012-11-14T14:05:01Z</time>
      </trkpt>
      <trkpt lat="45.54152" lon="3.27876">
        <ele>375</ele>
        <time>2012-11-14T14:05:04Z</time>
      </trkpt>
      <trkpt lat="45.54135" lon="3.27896">
        <ele>375</ele>
        <time>2012-11-14T14:05:07Z</time>
      </trkpt>
      <trkpt lat="45.54116" lon="3.27912">
        <ele>374</ele>
        <time>2012-11-14T14:05:10Z</time>
      </trkpt>
      <trkpt lat="45.54099" lon="3.2793">
        <ele>373</ele>
        <time>2012-11-14T14:05:13Z</time>
      </trkpt>
      <trkpt lat="45.54079" lon="3.27951">
        <ele>370</ele>
        <time>2012-11-14T14:05:16Z</time>
      </trkpt>
      <trkpt lat="45.54056" lon="3.2797">
        <ele>370</ele>
        <time>2012-11-14T14:05:19Z</time>
      </trkpt>
      <trkpt lat="45.54038" lon="3.27986">
        <ele>370</ele>
        <time>2012-11-14T14:05:22Z</time>
      </trkpt>
      <trkpt lat="45.5402" lon="3.28006">
        <ele>370</ele>
        <time>2012-11-14T14:05:25Z</time>
      </trkpt>
      <trkpt lat="45.53999" lon="3.28027">
        <ele>369</ele>
        <time>2012-11-14T14:05:28Z</time>
      </trkpt>
      <trkpt lat="45.53986" lon="3.28053">
        <ele>369</ele>
        <time>2012-11-14T14:05:31Z</time>
      </trkpt>
      <trkpt lat="45.53985" lon="3.28083">
        <ele>369</ele>
        <time>2012-11-14T14:05:34Z</time>
      </trkpt>
      <trkpt lat="45.53988" lon="3.28112">
        <ele>368</ele>
        <time>2012-11-14T14:05:37Z</time>
      </trkpt>
      <trkpt lat="45.5399" lon="3.28143">
        <ele>368</ele>
        <time>2012-11-14T14:05:40Z</time>
      </trkpt>
      <trkpt lat="45.53992" lon="3.28173">
        <ele>368</ele>
        <time>2012-11-14T14:05:43Z</time>
      </trkpt>
      <trkpt lat="45.53997" lon="3.28202">
        <ele>368</ele>
        <time>2012-11-14T14:05:46Z</time>
      </trkpt>
      <trkpt lat="45.53998" lon="3.28228">
        <ele>368</ele>
        <time>2012-11-14T14:05:49Z</time>
      </trkpt>
      <trkpt lat="45.53993" lon="3.28254">
        <ele>368</ele>
        <time>2012-11-14T14:05:52Z</time>
      </trkpt>
      <trkpt lat="45.53986" lon="3.28278">
        <ele>369</ele>
        <time>2012-11-14T14:05:55Z</time>
      </trkpt>
      <trkpt lat="45.53975" lon="3.28308">
        <ele>370</ele>
        <time>2012-11-14T14:05:59Z</time>
      </trkpt>
      <trkpt lat="45.53969" lon="3.28333">
        <ele>370</ele>
        <time>2012-11-14T14:06:02Z</time>
      </trkpt>
      <trkpt lat="45.53962" lon="3.28357">
        <ele>373</ele>
        <time>2012-11-14T14:06:05Z</time>
      </trkpt>
      <trkpt lat="45.53957" lon="3.28383">
        <ele>373</ele>
        <time>2012-11-14T14:06:08Z</time>
      </trkpt>
      <trkpt lat="45.53946" lon="3.28404">
        <ele>373</ele>
        <time>2012-11-14T14:06:11Z</time>
      </trkpt>
      <trkpt lat="45.53934" lon="3.28423">
        <ele>375</ele>
        <time>2012-11-14T14:06:14Z</time>
      </trkpt>
      <trkpt lat="45.53916" lon="3.28445">
        <ele>373</ele>
        <time>2012-11-14T14:06:18Z</time>
      </trkpt>
      <trkpt lat="45.53899" lon="3.2846">
        <ele>373</ele>
        <time>2012-11-14T14:06:21Z</time>
      </trkpt>
      <trkpt lat="45.53882" lon="3.28472">
        <ele>373</ele>
        <time>2012-11-14T14:06:24Z</time>
      </trkpt>
      <trkpt lat="45.53861" lon="3.28483">
        <ele>372</ele>
        <time>2012-11-14T14:06:28Z</time>
      </trkpt>
      <trkpt lat="45.53846" lon="3.28501">
        <ele>372</ele>
        <time>2012-11-14T14:06:31Z</time>
      </trkpt>
      <trkpt lat="45.5383" lon="3.28525">
        <ele>370</ele>
        <time>2012-11-14T14:06:35Z</time>
      </trkpt>
      <trkpt lat="45.53812" lon="3.28544">
        <ele>370</ele>
        <time>2012-11-14T14:06:39Z</time>
      </trkpt>
      <trkpt lat="45.53799" lon="3.28563">
        <ele>370</ele>
        <time>2012-11-14T14:06:42Z</time>
      </trkpt>
      <trkpt lat="45.53786" lon="3.28588">
        <ele>371</ele>
        <time>2012-11-14T14:06:46Z</time>
      </trkpt>
      <trkpt lat="45.53775" lon="3.28616">
        <ele>371</ele>
        <time>2012-11-14T14:06:50Z</time>
      </trkpt>
      <trkpt lat="45.53763" lon="3.28645">
        <ele>372</ele>
        <time>2012-11-14T14:06:54Z</time>
      </trkpt>
      <trkpt lat="45.53757" lon="3.28672">
        <ele>373</ele>
        <time>2012-11-14T14:06:58Z</time>
      </trkpt>
      <trkpt lat="45.53752" lon="3.28699">
        <ele>372</ele>
        <time>2012-11-14T14:07:02Z</time>
      </trkpt>
      <trkpt lat="45.53745" lon="3.28724">
        <ele>371</ele>
        <time>2012-11-14T14:07:05Z</time>
      </trkpt>
      <trkpt lat="45.53738" lon="3.28755">
        <ele>371</ele>
        <time>2012-11-14T14:07:09Z</time>
      </trkpt>
      <trkpt lat="45.5373" lon="3.28781">
        <ele>371</ele>
        <time>2012-11-14T14:07:13Z</time>
      </trkpt>
      <trkpt lat="45.53725" lon="3.28811">
        <ele>371</ele>
        <time>2012-11-14T14:07:17Z</time>
      </trkpt>
      <trkpt lat="45.53723" lon="3.2884">
        <ele>373</ele>
        <time>2012-11-14T14:07:21Z</time>
      </trkpt>
      <trkpt lat="45.53726" lon="3.28869">
        <ele>373</ele>
        <time>2012-11-14T14:07:25Z</time>
      </trkpt>
      <trkpt lat="45.53727" lon="3.28901">
        <ele>374</ele>
        <time>2012-11-14T14:07:30Z</time>
      </trkpt>
      <trkpt lat="45.53726" lon="3.28927">
        <ele>376</ele>
        <time>2012-11-14T14:07:34Z</time>
      </trkpt>
      <trkpt lat="45.53715" lon="3.28953">
        <ele>376</ele>
        <time>2012-11-14T14:07:39Z</time>
      </trkpt>
      <trkpt lat="45.53695" lon="3.28957">
        <ele>375</ele>
        <time>2012-11-14T14:07:43Z</time>
      </trkpt>
      <trkpt lat="45.53677" lon="3.28958">
        <ele>375</ele>
        <time>2012-11-14T14:09:07Z</time>
      </trkpt>
      <trkpt lat="45.53657" lon="3.28955">
        <ele>373</ele>
        <time>2012-11-14T14:09:17Z</time>
      </trkpt>
      <trkpt lat="45.53636" lon="3.28954">
        <ele>373</ele>
        <time>2012-11-14T14:09:24Z</time>
      </trkpt>
      <trkpt lat="45.53615" lon="3.28953">
        <ele>373</ele>
        <time>2012-11-14T14:09:29Z</time>
      </trkpt>
      <trkpt lat="45.53597" lon="3.28954">
        <ele>372</ele>
        <time>2012-11-14T14:09:33Z</time>
      </trkpt>
      <trkpt lat="45.53578" lon="3.28954">
        <ele>372</ele>
        <time>2012-11-14T14:09:37Z</time>
      </trkpt>
      <trkpt lat="45.53559" lon="3.28957">
        <ele>372</ele>
        <time>2012-11-14T14:09:41Z</time>
      </trkpt>
      <trkpt lat="45.53541" lon="3.2896">
        <ele>372</ele>
        <time>2012-11-14T14:09:45Z</time>
      </trkpt>
      <trkpt lat="45.53522" lon="3.28964">
        <ele>372</ele>
        <time>2012-11-14T14:09:49Z</time>
      </trkpt>
      <trkpt lat="45.53507" lon="3.2898">
        <ele>373</ele>
        <time>2012-11-14T14:09:53Z</time>
      </trkpt>
      <trkpt lat="45.53496" lon="3.29002">
        <ele>373</ele>
        <time>2012-11-14T14:09:57Z</time>
      </trkpt>
      <trkpt lat="45.53481" lon="3.29026">
        <ele>374</ele>
        <time>2012-11-14T14:10:02Z</time>
      </trkpt>
      <trkpt lat="45.53478" lon="3.29053">
        <ele>374</ele>
        <time>2012-11-14T14:10:05Z</time>
      </trkpt>
      <trkpt lat="45.53484" lon="3.29083">
        <ele>374</ele>
        <time>2012-11-14T14:10:08Z</time>
      </trkpt>
      <trkpt lat="45.53497" lon="3.29105">
        <ele>374</ele>
        <time>2012-11-14T14:10:12Z</time>
      </trkpt>
      <trkpt lat="45.53494" lon="3.29139">
        <ele>374</ele>
        <time>2012-11-14T14:10:16Z</time>
      </trkpt>
      <trkpt lat="45.5349" lon="3.29164">
        <ele>374</ele>
        <time>2012-11-14T14:10:19Z</time>
      </trkpt>
      <trkpt lat="45.53487" lon="3.2919">
        <ele>375</ele>
        <time>2012-11-14T14:10:22Z</time>
      </trkpt>
      <trkpt lat="45.53484" lon="3.29216">
        <ele>375</ele>
        <time>2012-11-14T14:10:25Z</time>
      </trkpt>
      <trkpt lat="45.53478" lon="3.29241">
        <ele>375</ele>
        <time>2012-11-14T14:10:28Z</time>
      </trkpt>
      <trkpt lat="45.53471" lon="3.29264">
        <ele>377</ele>
        <time>2012-11-14T14:10:31Z</time>
      </trkpt>
      <trkpt lat="45.53462" lon="3.2929">
        <ele>377</ele>
        <time>2012-11-14T14:10:35Z</time>
      </trkpt>
      <trkpt lat="45.53464" lon="3.29316">
        <ele>377</ele>
        <time>2012-11-14T14:10:42Z</time>
      </trkpt>
      <trkpt lat="45.53483" lon="3.29332">
        <ele>377</ele>
        <time>2012-11-14T14:10:47Z</time>
      </trkpt>
      <trkpt lat="45.53499" lon="3.29351">
        <ele>377</ele>
        <time>2012-11-14T14:10:51Z</time>
      </trkpt>
      <trkpt lat="45.53517" lon="3.29373">
        <ele>374</ele>
        <time>2012-11-14T14:10:55Z</time>
      </trkpt>
      <trkpt lat="45.53527" lon="3.29395">
        <ele>374</ele>
        <time>2012-11-14T14:10:58Z</time>
      </trkpt>
      <trkpt lat="45.5353" lon="3.29424">
        <ele>373</ele>
        <time>2012-11-14T14:11:01Z</time>
      </trkpt>
      <trkpt lat="45.53526" lon="3.29454">
        <ele>373</ele>
        <time>2012-11-14T14:11:04Z</time>
      </trkpt>
      <trkpt lat="45.53521" lon="3.29484">
        <ele>372</ele>
        <time>2012-11-14T14:11:07Z</time>
      </trkpt>
      <trkpt lat="45.53517" lon="3.29513">
        <ele>372</ele>
        <time>2012-11-14T14:11:10Z</time>
      </trkpt>
      <trkpt lat="45.53512" lon="3.29542">
        <ele>372</ele>
        <time>2012-11-14T14:11:13Z</time>
      </trkpt>
      <trkpt lat="45.53507" lon="3.29571">
        <ele>372</ele>
        <time>2012-11-14T14:11:15Z</time>
      </trkpt>
      <trkpt lat="45.53504" lon="3.29598">
        <ele>372</ele>
        <time>2012-11-14T14:11:19Z</time>
      </trkpt>
      <trkpt lat="45.535" lon="3.29627">
        <ele>372</ele>
        <time>2012-11-14T14:11:22Z</time>
      </trkpt>
      <trkpt lat="45.53498" lon="3.29655">
        <ele>373</ele>
        <time>2012-11-14T14:11:24Z</time>
      </trkpt>
      <trkpt lat="45.53493" lon="3.29683">
        <ele>373</ele>
        <time>2012-11-14T14:11:28Z</time>
      </trkpt>
      <trkpt lat="45.53489" lon="3.29711">
        <ele>373</ele>
        <time>2012-11-14T14:11:31Z</time>
      </trkpt>
      <trkpt lat="45.53486" lon="3.29741">
        <ele>374</ele>
        <time>2012-11-14T14:11:34Z</time>
      </trkpt>
      <trkpt lat="45.53486" lon="3.29771">
        <ele>374</ele>
        <time>2012-11-14T14:11:37Z</time>
      </trkpt>
      <trkpt lat="45.53487" lon="3.29801">
        <ele>374</ele>
        <time>2012-11-14T14:11:40Z</time>
      </trkpt>
      <trkpt lat="45.53491" lon="3.2983">
        <ele>375</ele>
        <time>2012-11-14T14:11:43Z</time>
      </trkpt>
      <trkpt lat="45.53494" lon="3.29858">
        <ele>374</ele>
        <time>2012-11-14T14:11:46Z</time>
      </trkpt>
      <trkpt lat="45.53497" lon="3.29888">
        <ele>373</ele>
        <time>2012-11-14T14:11:49Z</time>
      </trkpt>
      <trkpt lat="45.53498" lon="3.29916">
        <ele>373</ele>
        <time>2012-11-14T14:11:52Z</time>
      </trkpt>
      <trkpt lat="45.53502" lon="3.29943">
        <ele>374</ele>
        <time>2012-11-14T14:11:55Z</time>
      </trkpt>
      <trkpt lat="45.53505" lon="3.29971">
        <ele>374</ele>
        <time>2012-11-14T14:11:58Z</time>
      </trkpt>
      <trkpt lat="45.53506" lon="3.29999">
        <ele>373</ele>
        <time>2012-11-14T14:12:01Z</time>
      </trkpt>
      <trkpt lat="45.53509" lon="3.30026">
        <ele>374</ele>
        <time>2012-11-14T14:12:04Z</time>
      </trkpt>
      <trkpt lat="45.53512" lon="3.30052">
        <ele>374</ele>
        <time>2012-11-14T14:12:07Z</time>
      </trkpt>
      <trkpt lat="45.53514" lon="3.30079">
        <ele>373</ele>
        <time>2012-11-14T14:12:10Z</time>
      </trkpt>
      <trkpt lat="45.53517" lon="3.3011">
        <ele>374</ele>
        <time>2012-11-14T14:12:14Z</time>
      </trkpt>
      <trkpt lat="45.53521" lon="3.3014">
        <ele>374</ele>
        <time>2012-11-14T14:12:17Z</time>
      </trkpt>
      <trkpt lat="45.53525" lon="3.30169">
        <ele>375</ele>
        <time>2012-11-14T14:12:22Z</time>
      </trkpt>
      <trkpt lat="45.53529" lon="3.30198">
        <ele>375</ele>
        <time>2012-11-14T14:12:26Z</time>
      </trkpt>
      <trkpt lat="45.53533" lon="3.30227">
        <ele>375</ele>
        <time>2012-11-14T14:12:30Z</time>
      </trkpt>
      <trkpt lat="45.53537" lon="3.30257">
        <ele>376</ele>
        <time>2012-11-14T14:12:34Z</time>
      </trkpt>
      <trkpt lat="45.53542" lon="3.30288">
        <ele>376</ele>
        <time>2012-11-14T14:12:38Z</time>
      </trkpt>
      <trkpt lat="45.53546" lon="3.3032">
        <ele>376</ele>
        <time>2012-11-14T14:12:42Z</time>
      </trkpt>
      <trkpt lat="45.53551" lon="3.30351">
        <ele>376</ele>
        <time>2012-11-14T14:12:46Z</time>
      </trkpt>
      <trkpt lat="45.53556" lon="3.30383">
        <ele>377</ele>
        <time>2012-11-14T14:12:50Z</time>
      </trkpt>
      <trkpt lat="45.53562" lon="3.30413">
        <ele>377</ele>
        <time>2012-11-14T14:12:54Z</time>
      </trkpt>
      <trkpt lat="45.53567" lon="3.30443">
        <ele>377</ele>
        <time>2012-11-14T14:12:58Z</time>
      </trkpt>
      <trkpt lat="45.53573" lon="3.30473">
        <ele>377</ele>
        <time>2012-11-14T14:13:02Z</time>
      </trkpt>
      <trkpt lat="45.53579" lon="3.30504">
        <ele>377</ele>
        <time>2012-11-14T14:13:06Z</time>
      </trkpt>
      <trkpt lat="45.5357" lon="3.30527">
        <ele>377</ele>
        <time>2012-11-14T14:13:13Z</time>
      </trkpt>
      <trkpt lat="45.53551" lon="3.30519">
        <ele>377</ele>
        <time>2012-11-14T14:13:18Z</time>
      </trkpt>
      <trkpt lat="45.53532" lon="3.3051">
        <ele>376</ele>
        <time>2012-11-14T14:13:22Z</time>
      </trkpt>
      <trkpt lat="45.53511" lon="3.30501">
        <ele>376</ele>
        <time>2012-11-14T14:13:26Z</time>
      </trkpt>
      <trkpt lat="45.53489" lon="3.30492">
        <ele>376</ele>
        <time>2012-11-14T14:13:30Z</time>
      </trkpt>
      <trkpt lat="45.53471" lon="3.30484">
        <ele>376</ele>
        <time>2012-11-14T14:13:33Z</time>
      </trkpt>
      <trkpt lat="45.53449" lon="3.30474">
        <ele>377</ele>
        <time>2012-11-14T14:13:37Z</time>
      </trkpt>
      <trkpt lat="45.53427" lon="3.30465">
        <ele>377</ele>
        <time>2012-11-14T14:13:41Z</time>
      </trkpt>
      <trkpt lat="45.53406" lon="3.30457">
        <ele>376</ele>
        <time>2012-11-14T14:13:45Z</time>
      </trkpt>
      <trkpt lat="45.53386" lon="3.30446">
        <ele>376</ele>
        <time>2012-11-14T14:13:49Z</time>
      </trkpt>
      <trkpt lat="45.53364" lon="3.30436">
        <ele>376</ele>
        <time>2012-11-14T14:13:53Z</time>
      </trkpt>
      <trkpt lat="45.53345" lon="3.30429">
        <ele>376</ele>
        <time>2012-11-14T14:13:56Z</time>
      </trkpt>
      <trkpt lat="45.53328" lon="3.3042">
        <ele>376</ele>
        <time>2012-11-14T14:13:59Z</time>
      </trkpt>
      <trkpt lat="45.53311" lon="3.3041">
        <ele>376</ele>
        <time>2012-11-14T14:14:02Z</time>
      </trkpt>
      <trkpt lat="45.53292" lon="3.30403">
        <ele>376</ele>
        <time>2012-11-14T14:14:06Z</time>
      </trkpt>
      <trkpt lat="45.53273" lon="3.30416">
        <ele>376</ele>
        <time>2012-11-14T14:14:10Z</time>
      </trkpt>
      <trkpt lat="45.53252" lon="3.30425">
        <ele>376</ele>
        <time>2012-11-14T14:14:14Z</time>
      </trkpt>
      <trkpt lat="45.5323" lon="3.30432">
        <ele>377</ele>
        <time>2012-11-14T14:14:18Z</time>
      </trkpt>
      <trkpt lat="45.53208" lon="3.3044">
        <ele>377</ele>
        <time>2012-11-14T14:14:22Z</time>
      </trkpt>
      <trkpt lat="45.53186" lon="3.30447">
        <ele>377</ele>
        <time>2012-11-14T14:14:26Z</time>
      </trkpt>
      <trkpt lat="45.53164" lon="3.30457">
        <ele>378</ele>
        <time>2012-11-14T14:14:30Z</time>
      </trkpt>
      <trkpt lat="45.53146" lon="3.30466">
        <ele>379</ele>
        <time>2012-11-14T14:14:33Z</time>
      </trkpt>
      <trkpt lat="45.53129" lon="3.30478">
        <ele>379</ele>
        <time>2012-11-14T14:14:36Z</time>
      </trkpt>
      <trkpt lat="45.53109" lon="3.30485">
        <ele>379</ele>
        <time>2012-11-14T14:14:39Z</time>
      </trkpt>
      <trkpt lat="45.53088" lon="3.30485">
        <ele>379</ele>
        <time>2012-11-14T14:14:42Z</time>
      </trkpt>
      <trkpt lat="45.5307" lon="3.30468">
        <ele>378</ele>
        <time>2012-11-14T14:14:45Z</time>
      </trkpt>
      <trkpt lat="45.53056" lon="3.30447">
        <ele>378</ele>
        <time>2012-11-14T14:14:48Z</time>
      </trkpt>
      <trkpt lat="45.53043" lon="3.30427">
        <ele>378</ele>
        <time>2012-11-14T14:14:51Z</time>
      </trkpt>
      <trkpt lat="45.5303" lon="3.30407">
        <ele>377</ele>
        <time>2012-11-14T14:14:54Z</time>
      </trkpt>
      <trkpt lat="45.53011" lon="3.30396">
        <ele>378</ele>
        <time>2012-11-14T14:14:57Z</time>
      </trkpt>
      <trkpt lat="45.52994" lon="3.30375">
        <ele>378</ele>
        <time>2012-11-14T14:15:00Z</time>
      </trkpt>
      <trkpt lat="45.52978" lon="3.30358">
        <ele>377</ele>
        <time>2012-11-14T14:15:03Z</time>
      </trkpt>
      <trkpt lat="45.52957" lon="3.30361">
        <ele>377</ele>
        <time>2012-11-14T14:15:06Z</time>
      </trkpt>
      <trkpt lat="45.52941" lon="3.30376">
        <ele>377</ele>
        <time>2012-11-14T14:15:09Z</time>
      </trkpt>
      <trkpt lat="45.52925" lon="3.30395">
        <ele>377</ele>
        <time>2012-11-14T14:15:12Z</time>
      </trkpt>
      <trkpt lat="45.52909" lon="3.3041">
        <ele>377</ele>
        <time>2012-11-14T14:15:15Z</time>
      </trkpt>
      <trkpt lat="45.52888" lon="3.30414">
        <ele>376</ele>
        <time>2012-11-14T14:15:19Z</time>
      </trkpt>
      <trkpt lat="45.52868" lon="3.30418">
        <ele>377</ele>
        <time>2012-11-14T14:15:22Z</time>
      </trkpt>
      <trkpt lat="45.52851" lon="3.30444">
        <ele>377</ele>
        <time>2012-11-14T14:15:26Z</time>
      </trkpt>
      <trkpt lat="45.52849" lon="3.30473">
        <ele>377</ele>
        <time>2012-11-14T14:15:29Z</time>
      </trkpt>
      <trkpt lat="45.52847" lon="3.305">
        <ele>378</ele>
        <time>2012-11-14T14:15:32Z</time>
      </trkpt>
      <trkpt lat="45.52836" lon="3.30531">
        <ele>377</ele>
        <time>2012-11-14T14:15:36Z</time>
      </trkpt>
      <trkpt lat="45.52816" lon="3.30538">
        <ele>378</ele>
        <time>2012-11-14T14:15:39Z</time>
      </trkpt>
      <trkpt lat="45.52797" lon="3.30537">
        <ele>378</ele>
        <time>2012-11-14T14:15:42Z</time>
      </trkpt>
      <trkpt lat="45.52779" lon="3.30529">
        <ele>378</ele>
        <time>2012-11-14T14:15:45Z</time>
      </trkpt>
      <trkpt lat="45.52761" lon="3.30526">
        <ele>378</ele>
        <time>2012-11-14T14:15:48Z</time>
      </trkpt>
      <trkpt lat="45.52739" lon="3.30524">
        <ele>380</ele>
        <time>2012-11-14T14:15:52Z</time>
      </trkpt>
      <trkpt lat="45.52718" lon="3.30519">
        <ele>380</ele>
        <time>2012-11-14T14:15:57Z</time>
      </trkpt>
      <trkpt lat="45.52697" lon="3.30523">
        <ele>381</ele>
        <time>2012-11-14T14:16:01Z</time>
      </trkpt>
      <trkpt lat="45.52679" lon="3.30524">
        <ele>382</ele>
        <time>2012-11-14T14:16:05Z</time>
      </trkpt>
      <trkpt lat="45.52661" lon="3.30532">
        <ele>382</ele>
        <time>2012-11-14T14:16:08Z</time>
      </trkpt>
      <trkpt lat="45.52641" lon="3.3055">
        <ele>382</ele>
        <time>2012-11-14T14:16:12Z</time>
      </trkpt>
      <trkpt lat="45.52621" lon="3.30567">
        <ele>382</ele>
        <time>2012-11-14T14:16:15Z</time>
      </trkpt>
      <trkpt lat="45.526" lon="3.30589">
        <ele>382</ele>
        <time>2012-11-14T14:16:20Z</time>
      </trkpt>
      <trkpt lat="45.52582" lon="3.30595">
        <ele>381</ele>
        <time>2012-11-14T14:16:23Z</time>
      </trkpt>
      <trkpt lat="45.52563" lon="3.30596">
        <ele>380</ele>
        <time>2012-11-14T14:16:27Z</time>
      </trkpt>
      <trkpt lat="45.52544" lon="3.306">
        <ele>380</ele>
        <time>2012-11-14T14:16:30Z</time>
      </trkpt>
      <trkpt lat="45.5252" lon="3.30601">
        <ele>379</ele>
        <time>2012-11-14T14:16:34Z</time>
      </trkpt>
      <trkpt lat="45.525" lon="3.30606">
        <ele>378</ele>
        <time>2012-11-14T14:16:38Z</time>
      </trkpt>
      <trkpt lat="45.52477" lon="3.30611">
        <ele>378</ele>
        <time>2012-11-14T14:16:42Z</time>
      </trkpt>
      <trkpt lat="45.52455" lon="3.30612">
        <ele>378</ele>
        <time>2012-11-14T14:16:46Z</time>
      </trkpt>
      <trkpt lat="45.52435" lon="3.30602">
        <ele>378</ele>
        <time>2012-11-14T14:16:50Z</time>
      </trkpt>
      <trkpt lat="45.52415" lon="3.30588">
        <ele>377</ele>
        <time>2012-11-14T14:16:54Z</time>
      </trkpt>
      <trkpt lat="45.52395" lon="3.30577">
        <ele>377</ele>
        <time>2012-11-14T14:16:58Z</time>
      </trkpt>
      <trkpt lat="45.52376" lon="3.30575">
        <ele>377</ele>
        <time>2012-11-14T14:17:01Z</time>
      </trkpt>
      <trkpt lat="45.52357" lon="3.30575">
        <ele>377</ele>
        <time>2012-11-14T14:17:04Z</time>
      </trkpt>
      <trkpt lat="45.52339" lon="3.30571">
        <ele>377</ele>
        <time>2012-11-14T14:17:07Z</time>
      </trkpt>
      <trkpt lat="45.52318" lon="3.3056">
        <ele>376</ele>
        <time>2012-11-14T14:17:11Z</time>
      </trkpt>
      <trkpt lat="45.52295" lon="3.30555">
        <ele>376</ele>
        <time>2012-11-14T14:17:15Z</time>
      </trkpt>
      <trkpt lat="45.52273" lon="3.30555">
        <ele>376</ele>
        <time>2012-11-14T14:17:19Z</time>
      </trkpt>
      <trkpt lat="45.52249" lon="3.30555">
        <ele>376</ele>
        <time>2012-11-14T14:17:23Z</time>
      </trkpt>
      <trkpt lat="45.52226" lon="3.30557">
        <ele>377</ele>
        <time>2012-11-14T14:17:27Z</time>
      </trkpt>
      <trkpt lat="45.52203" lon="3.30563">
        <ele>377</ele>
        <time>2012-11-14T14:17:31Z</time>
      </trkpt>
      <trkpt lat="45.5218" lon="3.30569">
        <ele>377</ele>
        <time>2012-11-14T14:17:35Z</time>
      </trkpt>
      <trkpt lat="45.52159" lon="3.3057">
        <ele>378</ele>
        <time>2012-11-14T14:17:39Z</time>
      </trkpt>
      <trkpt lat="45.52138" lon="3.30572">
        <ele>378</ele>
        <time>2012-11-14T14:17:43Z</time>
      </trkpt>
      <trkpt lat="45.52118" lon="3.30573">
        <ele>378</ele>
        <time>2012-11-14T14:17:47Z</time>
      </trkpt>
      <trkpt lat="45.52097" lon="3.30576">
        <ele>379</ele>
        <time>2012-11-14T14:17:51Z</time>
      </trkpt>
      <trkpt lat="45.52078" lon="3.30578">
        <ele>379</ele>
        <time>2012-11-14T14:17:55Z</time>
      </trkpt>
      <trkpt lat="45.52055" lon="3.30579">
        <ele>380</ele>
        <time>2012-11-14T14:18:00Z</time>
      </trkpt>
      <trkpt lat="45.52036" lon="3.30571">
        <ele>380</ele>
        <time>2012-11-14T14:18:04Z</time>
      </trkpt>
      <trkpt lat="45.52016" lon="3.30562">
        <ele>380</ele>
        <time>2012-11-14T14:18:09Z</time>
      </trkpt>
      <trkpt lat="45.51995" lon="3.30556">
        <ele>381</ele>
        <time>2012-11-14T14:18:14Z</time>
      </trkpt>
      <trkpt lat="45.51974" lon="3.30547">
        <ele>382</ele>
        <time>2012-11-14T14:18:19Z</time>
      </trkpt>
      <trkpt lat="45.51956" lon="3.30544">
        <ele>383</ele>
        <time>2012-11-14T14:18:23Z</time>
      </trkpt>
      <trkpt lat="45.51938" lon="3.30538">
        <ele>383</ele>
        <time>2012-11-14T14:18:27Z</time>
      </trkpt>
      <trkpt lat="45.51916" lon="3.30531">
        <ele>385</ele>
        <time>2012-11-14T14:18:32Z</time>
      </trkpt>
      <trkpt lat="45.51896" lon="3.30526">
        <ele>385</ele>
        <time>2012-11-14T14:18:37Z</time>
      </trkpt>
      <trkpt lat="45.51874" lon="3.30524">
        <ele>385</ele>
        <time>2012-11-14T14:18:42Z</time>
      </trkpt>
      <trkpt lat="45.51854" lon="3.3052">
        <ele>385</ele>
        <time>2012-11-14T14:18:47Z</time>
      </trkpt>
      <trkpt lat="45.51834" lon="3.30518">
        <ele>386</ele>
        <time>2012-11-14T14:18:52Z</time>
      </trkpt>
      <trkpt lat="45.51812" lon="3.30515">
        <ele>385</ele>
        <time>2012-11-14T14:18:57Z</time>
      </trkpt>
      <trkpt lat="45.51793" lon="3.30508">
        <ele>385</ele>
        <time>2012-11-14T14:19:01Z</time>
      </trkpt>
      <trkpt lat="45.51772" lon="3.30505">
        <ele>385</ele>
        <time>2012-11-14T14:19:05Z</time>
      </trkpt>
      <trkpt lat="45.51752" lon="3.30499">
        <ele>386</ele>
        <time>2012-11-14T14:19:09Z</time>
      </trkpt>
      <trkpt lat="45.51734" lon="3.30495">
        <ele>387</ele>
        <time>2012-11-14T14:19:12Z</time>
      </trkpt>
      <trkpt lat="45.51713" lon="3.30488">
        <ele>387</ele>
        <time>2012-11-14T14:19:16Z</time>
      </trkpt>
      <trkpt lat="45.5169" lon="3.30487">
        <ele>386</ele>
        <time>2012-11-14T14:19:20Z</time>
      </trkpt>
      <trkpt lat="45.51666" lon="3.30491">
        <ele>384</ele>
        <time>2012-11-14T14:19:24Z</time>
      </trkpt>
      <trkpt lat="45.51647" lon="3.30493">
        <ele>384</ele>
        <time>2012-11-14T14:19:27Z</time>
      </trkpt>
      <trkpt lat="45.51623" lon="3.30493">
        <ele>385</ele>
        <time>2012-11-14T14:19:31Z</time>
      </trkpt>
      <trkpt lat="45.51605" lon="3.30492">
        <ele>385</ele>
        <time>2012-11-14T14:19:34Z</time>
      </trkpt>
      <trkpt lat="45.51582" lon="3.30488">
        <ele>384</ele>
        <time>2012-11-14T14:19:38Z</time>
      </trkpt>
      <trkpt lat="45.51559" lon="3.30484">
        <ele>384</ele>
        <time>2012-11-14T14:19:42Z</time>
      </trkpt>
      <trkpt lat="45.51537" lon="3.30478">
        <ele>384</ele>
        <time>2012-11-14T14:19:46Z</time>
      </trkpt>
      <trkpt lat="45.51518" lon="3.30474">
        <ele>384</ele>
        <time>2012-11-14T14:19:50Z</time>
      </trkpt>
      <trkpt lat="45.51495" lon="3.30469">
        <ele>384</ele>
        <time>2012-11-14T14:19:55Z</time>
      </trkpt>
      <trkpt lat="45.51475" lon="3.30463">
        <ele>384</ele>
        <time>2012-11-14T14:19:59Z</time>
      </trkpt>
      <trkpt lat="45.51453" lon="3.30457">
        <ele>384</ele>
        <time>2012-11-14T14:20:03Z</time>
      </trkpt>
      <trkpt lat="45.51432" lon="3.30451">
        <ele>384</ele>
        <time>2012-11-14T14:20:07Z</time>
      </trkpt>
      <trkpt lat="45.51413" lon="3.30448">
        <ele>384</ele>
        <time>2012-11-14T14:20:11Z</time>
      </trkpt>
      <trkpt lat="45.5139" lon="3.30444">
        <ele>384</ele>
        <time>2012-11-14T14:20:15Z</time>
      </trkpt>
      <trkpt lat="45.51369" lon="3.30438">
        <ele>385</ele>
        <time>2012-11-14T14:20:19Z</time>
      </trkpt>
      <trkpt lat="45.51347" lon="3.30433">
        <ele>385</ele>
        <time>2012-11-14T14:20:23Z</time>
      </trkpt>
      <trkpt lat="45.51326" lon="3.30426">
        <ele>385</ele>
        <time>2012-11-14T14:20:27Z</time>
      </trkpt>
      <trkpt lat="45.51303" lon="3.3042">
        <ele>385</ele>
        <time>2012-11-14T14:20:31Z</time>
      </trkpt>
      <trkpt lat="45.51281" lon="3.30413">
        <ele>386</ele>
        <time>2012-11-14T14:20:35Z</time>
      </trkpt>
      <trkpt lat="45.51263" lon="3.30408">
        <ele>386</ele>
        <time>2012-11-14T14:20:38Z</time>
      </trkpt>
      <trkpt lat="45.51241" lon="3.30402">
        <ele>386</ele>
        <time>2012-11-14T14:20:42Z</time>
      </trkpt>
      <trkpt lat="45.51219" lon="3.30396">
        <ele>386</ele>
        <time>2012-11-14T14:20:46Z</time>
      </trkpt>
      <trkpt lat="45.51197" lon="3.30388">
        <ele>386</ele>
        <time>2012-11-14T14:20:50Z</time>
      </trkpt>
      <trkpt lat="45.51177" lon="3.3038">
        <ele>386</ele>
        <time>2012-11-14T14:20:54Z</time>
      </trkpt>
      <trkpt lat="45.51158" lon="3.30367">
        <ele>386</ele>
        <time>2012-11-14T14:20:58Z</time>
      </trkpt>
      <trkpt lat="45.51139" lon="3.30365">
        <ele>386</ele>
        <time>2012-11-14T14:21:02Z</time>
      </trkpt>
      <trkpt lat="45.51118" lon="3.30358">
        <ele>387</ele>
        <time>2012-11-14T14:21:06Z</time>
      </trkpt>
      <trkpt lat="45.51099" lon="3.30351">
        <ele>387</ele>
        <time>2012-11-14T14:21:10Z</time>
      </trkpt>
      <trkpt lat="45.51078" lon="3.30345">
        <ele>388</ele>
        <time>2012-11-14T14:21:14Z</time>
      </trkpt>
      <trkpt lat="45.51055" lon="3.3034">
        <ele>388</ele>
        <time>2012-11-14T14:21:18Z</time>
      </trkpt>
      <trkpt lat="45.51033" lon="3.30336">
        <ele>389</ele>
        <time>2012-11-14T14:21:22Z</time>
      </trkpt>
      <trkpt lat="45.51011" lon="3.30333">
        <ele>389</ele>
        <time>2012-11-14T14:21:26Z</time>
      </trkpt>
      <trkpt lat="45.5099" lon="3.30326">
        <ele>391</ele>
        <time>2012-11-14T14:21:30Z</time>
      </trkpt>
      <trkpt lat="45.5097" lon="3.30325">
        <ele>392</ele>
        <time>2012-11-14T14:21:34Z</time>
      </trkpt>
      <trkpt lat="45.50949" lon="3.30337">
        <ele>392</ele>
        <time>2012-11-14T14:21:38Z</time>
      </trkpt>
      <trkpt lat="45.50932" lon="3.30324">
        <ele>393</ele>
        <time>2012-11-14T14:21:44Z</time>
      </trkpt>
      <trkpt lat="45.50918" lon="3.30302">
        <ele>393</ele>
        <time>2012-11-14T14:21:50Z</time>
      </trkpt>
      <trkpt lat="45.50904" lon="3.30327">
        <ele>395</ele>
        <time>2012-11-14T14:21:56Z</time>
      </trkpt>
      <trkpt lat="45.50889" lon="3.30345">
        <ele>395</ele>
        <time>2012-11-14T14:22:00Z</time>
      </trkpt>
      <trkpt lat="45.50874" lon="3.30366">
        <ele>395</ele>
        <time>2012-11-14T14:22:04Z</time>
      </trkpt>
      <trkpt lat="45.50868" lon="3.30395">
        <ele>395</ele>
        <time>2012-11-14T14:22:09Z</time>
      </trkpt>
      <trkpt lat="45.50854" lon="3.30419">
        <ele>394</ele>
        <time>2012-11-14T14:22:14Z</time>
      </trkpt>
      <trkpt lat="45.50837" lon="3.30438">
        <ele>394</ele>
        <time>2012-11-14T14:22:18Z</time>
      </trkpt>
      <trkpt lat="45.50824" lon="3.30456">
        <ele>395</ele>
        <time>2012-11-14T14:22:21Z</time>
      </trkpt>
      <trkpt lat="45.50808" lon="3.30468">
        <ele>395</ele>
        <time>2012-11-14T14:22:24Z</time>
      </trkpt>
      <trkpt lat="45.50788" lon="3.30484">
        <ele>395</ele>
        <time>2012-11-14T14:22:28Z</time>
      </trkpt>
      <trkpt lat="45.50772" lon="3.30505">
        <ele>394</ele>
        <time>2012-11-14T14:22:32Z</time>
      </trkpt>
      <trkpt lat="45.50754" lon="3.30521">
        <ele>394</ele>
        <time>2012-11-14T14:22:36Z</time>
      </trkpt>
      <trkpt lat="45.50737" lon="3.30543">
        <ele>396</ele>
        <time>2012-11-14T14:22:40Z</time>
      </trkpt>
      <trkpt lat="45.50722" lon="3.30563">
        <ele>396</ele>
        <time>2012-11-14T14:22:44Z</time>
      </trkpt>
      <trkpt lat="45.50705" lon="3.30578">
        <ele>396</ele>
        <time>2012-11-14T14:22:48Z</time>
      </trkpt>
      <trkpt lat="45.50691" lon="3.30601">
        <ele>395</ele>
        <time>2012-11-14T14:22:54Z</time>
      </trkpt>
      <trkpt lat="45.50675" lon="3.30621">
        <ele>395</ele>
        <time>2012-11-14T14:22:58Z</time>
      </trkpt>
      <trkpt lat="45.50661" lon="3.30638">
        <ele>397</ele>
        <time>2012-11-14T14:23:02Z</time>
      </trkpt>
      <trkpt lat="45.50645" lon="3.30654">
        <ele>397</ele>
        <time>2012-11-14T14:23:05Z</time>
      </trkpt>
      <trkpt lat="45.50625" lon="3.30662">
        <ele>397</ele>
        <time>2012-11-14T14:23:11Z</time>
      </trkpt>
      <trkpt lat="45.50605" lon="3.3067">
        <ele>397</ele>
        <time>2012-11-14T14:23:15Z</time>
      </trkpt>
      <trkpt lat="45.50579" lon="3.30679">
        <ele>398</ele>
        <time>2012-11-14T14:23:20Z</time>
      </trkpt>
      <trkpt lat="45.50558" lon="3.30687">
        <ele>397</ele>
        <time>2012-11-14T14:23:24Z</time>
      </trkpt>
      <trkpt lat="45.50539" lon="3.30697">
        <ele>396</ele>
        <time>2012-11-14T14:23:28Z</time>
      </trkpt>
      <trkpt lat="45.50519" lon="3.30704">
        <ele>396</ele>
        <time>2012-11-14T14:23:33Z</time>
      </trkpt>
      <trkpt lat="45.50497" lon="3.3071">
        <ele>396</ele>
        <time>2012-11-14T14:23:38Z</time>
      </trkpt>
      <trkpt lat="45.50477" lon="3.30721">
        <ele>396</ele>
        <time>2012-11-14T14:23:43Z</time>
      </trkpt>
      <trkpt lat="45.50458" lon="3.30728">
        <ele>396</ele>
        <time>2012-11-14T14:23:50Z</time>
      </trkpt>
      <trkpt lat="45.50441" lon="3.30741">
        <ele>396</ele>
        <time>2012-11-14T14:23:55Z</time>
      </trkpt>
      <trkpt lat="45.50424" lon="3.30751">
        <ele>396</ele>
        <time>2012-11-14T14:24:01Z</time>
      </trkpt>
      <trkpt lat="45.50403" lon="3.30754">
        <ele>397</ele>
        <time>2012-11-14T14:24:07Z</time>
      </trkpt>
      <trkpt lat="45.50382" lon="3.30763">
        <ele>396</ele>
        <time>2012-11-14T14:24:12Z</time>
      </trkpt>
      <trkpt lat="45.50361" lon="3.30768">
        <ele>397</ele>
        <time>2012-11-14T14:24:17Z</time>
      </trkpt>
      <trkpt lat="45.50341" lon="3.30774">
        <ele>397</ele>
        <time>2012-11-14T14:24:22Z</time>
      </trkpt>
      <trkpt lat="45.5032" lon="3.30777">
        <ele>397</ele>
        <time>2012-11-14T14:24:27Z</time>
      </trkpt>
      <trkpt lat="45.50301" lon="3.30775">
        <ele>397</ele>
        <time>2012-11-14T14:24:31Z</time>
      </trkpt>
      <trkpt lat="45.5028" lon="3.30773">
        <ele>398</ele>
        <time>2012-11-14T14:24:36Z</time>
      </trkpt>
      <trkpt lat="45.50261" lon="3.30769">
        <ele>398</ele>
        <time>2012-11-14T14:24:42Z</time>
      </trkpt>
      <trkpt lat="45.5024" lon="3.30768">
        <ele>399</ele>
        <time>2012-11-14T14:24:47Z</time>
      </trkpt>
      <trkpt lat="45.50218" lon="3.30769">
        <ele>399</ele>
        <time>2012-11-14T14:24:52Z</time>
      </trkpt>
      <trkpt lat="45.50205" lon="3.3075">
        <ele>401</ele>
        <time>2012-11-14T14:24:58Z</time>
      </trkpt>
      <trkpt lat="45.50197" lon="3.30723">
        <ele>401</ele>
        <time>2012-11-14T14:25:03Z</time>
      </trkpt>
      <trkpt lat="45.5019" lon="3.30694">
        <ele>401</ele>
        <time>2012-11-14T14:25:08Z</time>
      </trkpt>
      <trkpt lat="45.50181" lon="3.30662">
        <ele>402</ele>
        <time>2012-11-14T14:25:13Z</time>
      </trkpt>
      <trkpt lat="45.50172" lon="3.30638">
        <ele>402</ele>
        <time>2012-11-14T14:25:18Z</time>
      </trkpt>
      <trkpt lat="45.50166" lon="3.30611">
        <ele>402</ele>
        <time>2012-11-14T14:25:22Z</time>
      </trkpt>
      <trkpt lat="45.50159" lon="3.30586">
        <ele>402</ele>
        <time>2012-11-14T14:25:27Z</time>
      </trkpt>
      <trkpt lat="45.50153" lon="3.3056">
        <ele>404</ele>
        <time>2012-11-14T14:25:32Z</time>
      </trkpt>
      <trkpt lat="45.50147" lon="3.30535">
        <ele>406</ele>
        <time>2012-11-14T14:25:39Z</time>
      </trkpt>
      <trkpt lat="45.50133" lon="3.30516">
        <ele>406</ele>
        <time>2012-11-14T14:25:46Z</time>
      </trkpt>
      <trkpt lat="45.50118" lon="3.305">
        <ele>406</ele>
        <time>2012-11-14T14:25:53Z</time>
      </trkpt>
      <trkpt lat="45.50107" lon="3.30475">
        <ele>411</ele>
        <time>2012-11-14T14:26:00Z</time>
      </trkpt>
      <trkpt lat="45.50092" lon="3.30459">
        <ele>412</ele>
        <time>2012-11-14T14:26:07Z</time>
      </trkpt>
      <trkpt lat="45.50077" lon="3.30442">
        <ele>413</ele>
        <time>2012-11-14T14:26:17Z</time>
      </trkpt>
      <trkpt lat="45.50062" lon="3.30423">
        <ele>413</ele>
        <time>2012-11-14T14:26:28Z</time>
      </trkpt>
      <trkpt lat="45.50046" lon="3.30406">
        <ele>417</ele>
        <time>2012-11-14T14:26:38Z</time>
      </trkpt>
      <trkpt lat="45.50029" lon="3.30393">
        <ele>417</ele>
        <time>2012-11-14T14:26:47Z</time>
      </trkpt>
      <trkpt lat="45.50009" lon="3.30388">
        <ele>417</ele>
        <time>2012-11-14T14:26:54Z</time>
      </trkpt>
      <trkpt lat="45.4999" lon="3.30388">
        <ele>419</ele>
        <time>2012-11-14T14:27:02Z</time>
      </trkpt>
      <trkpt lat="45.49971" lon="3.30389">
        <ele>420</ele>
        <time>2012-11-14T14:27:10Z</time>
      </trkpt>
      <trkpt lat="45.49953" lon="3.30391">
        <ele>420</ele>
        <time>2012-11-14T14:27:17Z</time>
      </trkpt>
      <trkpt lat="45.49935" lon="3.30389">
        <ele>421</ele>
        <time>2012-11-14T14:27:24Z</time>
      </trkpt>
      <trkpt lat="45.49915" lon="3.30383">
        <ele>424</ele>
        <time>2012-11-14T14:27:30Z</time>
      </trkpt>
      <trkpt lat="45.49897" lon="3.30377">
        <ele>424</ele>
        <time>2012-11-14T14:27:38Z</time>
      </trkpt>
      <trkpt lat="45.49879" lon="3.30368">
        <ele>425</ele>
        <time>2012-11-14T14:27:45Z</time>
      </trkpt>
      <trkpt lat="45.4986" lon="3.30359">
        <ele>425</ele>
        <time>2012-11-14T14:27:50Z</time>
      </trkpt>
      <trkpt lat="45.49841" lon="3.30349">
        <ele>425</ele>
        <time>2012-11-14T14:27:55Z</time>
      </trkpt>
      <trkpt lat="45.49822" lon="3.30338">
        <ele>427</ele>
        <time>2012-11-14T14:28:01Z</time>
      </trkpt>
      <trkpt lat="45.49803" lon="3.30327">
        <ele>426</ele>
        <time>2012-11-14T14:28:06Z</time>
      </trkpt>
      <trkpt lat="45.49783" lon="3.30315">
        <ele>426</ele>
        <time>2012-11-14T14:28:11Z</time>
      </trkpt>
      <trkpt lat="45.49764" lon="3.30305">
        <ele>426</ele>
        <time>2012-11-14T14:28:16Z</time>
      </trkpt>
      <trkpt lat="45.49746" lon="3.30296">
        <ele>428</ele>
        <time>2012-11-14T14:28:21Z</time>
      </trkpt>
      <trkpt lat="45.49728" lon="3.3029">
        <ele>428</ele>
        <time>2012-11-14T14:28:26Z</time>
      </trkpt>
      <trkpt lat="45.49709" lon="3.30283">
        <ele>429</ele>
        <time>2012-11-14T14:28:30Z</time>
      </trkpt>
      <trkpt lat="45.49692" lon="3.30273">
        <ele>429</ele>
        <time>2012-11-14T14:28:36Z</time>
      </trkpt>
      <trkpt lat="45.49673" lon="3.30265">
        <ele>430</ele>
        <time>2012-11-14T14:28:41Z</time>
      </trkpt>
      <trkpt lat="45.49656" lon="3.30254">
        <ele>432</ele>
        <time>2012-11-14T14:28:46Z</time>
      </trkpt>
      <trkpt lat="45.49636" lon="3.30244">
        <ele>432</ele>
        <time>2012-11-14T14:28:52Z</time>
      </trkpt>
      <trkpt lat="45.49617" lon="3.30236">
        <ele>433</ele>
        <time>2012-11-14T14:28:57Z</time>
      </trkpt>
      <trkpt lat="45.496" lon="3.30226">
        <ele>433</ele>
        <time>2012-11-14T14:29:02Z</time>
      </trkpt>
      <trkpt lat="45.49584" lon="3.30214">
        <ele>433</ele>
        <time>2012-11-14T14:29:08Z</time>
      </trkpt>
      <trkpt lat="45.49586" lon="3.30185">
        <ele>433</ele>
        <time>2012-11-14T14:29:14Z</time>
      </trkpt>
      <trkpt lat="45.49589" lon="3.30154">
        <ele>433</ele>
        <time>2012-11-14T14:29:18Z</time>
      </trkpt>
      <trkpt lat="45.49592" lon="3.30128">
        <ele>431</ele>
        <time>2012-11-14T14:29:21Z</time>
      </trkpt>
      <trkpt lat="45.49602" lon="3.30098">
        <ele>431</ele>
        <time>2012-11-14T14:29:25Z</time>
      </trkpt>
      <trkpt lat="45.49613" lon="3.30072">
        <ele>432</ele>
        <time>2012-11-14T14:29:29Z</time>
      </trkpt>
      <trkpt lat="45.49625" lon="3.30049">
        <ele>433</ele>
        <time>2012-11-14T14:29:33Z</time>
      </trkpt>
      <trkpt lat="45.49638" lon="3.30028">
        <ele>434</ele>
        <time>2012-11-14T14:29:37Z</time>
      </trkpt>
      <trkpt lat="45.49656" lon="3.30009">
        <ele>435</ele>
        <time>2012-11-14T14:29:42Z</time>
      </trkpt>
      <trkpt lat="45.49671" lon="3.29996">
        <ele>438</ele>
        <time>2012-11-14T14:29:47Z</time>
      </trkpt>
      <trkpt lat="45.49688" lon="3.29981">
        <ele>439</ele>
        <time>2012-11-14T14:29:53Z</time>
      </trkpt>
      <trkpt lat="45.49706" lon="3.29967">
        <ele>440</ele>
        <time>2012-11-14T14:30:00Z</time>
      </trkpt>
      <trkpt lat="45.49723" lon="3.29951">
        <ele>440</ele>
        <time>2012-11-14T14:30:07Z</time>
      </trkpt>
      <trkpt lat="45.49737" lon="3.29936">
        <ele>441</ele>
        <time>2012-11-14T14:30:14Z</time>
      </trkpt>
      <trkpt lat="45.49754" lon="3.2992">
        <ele>442</ele>
        <time>2012-11-14T14:30:22Z</time>
      </trkpt>
      <trkpt lat="45.4977" lon="3.29902">
        <ele>445</ele>
        <time>2012-11-14T14:30:29Z</time>
      </trkpt>
      <trkpt lat="45.49784" lon="3.29885">
        <ele>446</ele>
        <time>2012-11-14T14:30:37Z</time>
      </trkpt>
      <trkpt lat="45.49797" lon="3.29865">
        <ele>446</ele>
        <time>2012-11-14T14:30:46Z</time>
      </trkpt>
      <trkpt lat="45.4981" lon="3.29845">
        <ele>447</ele>
        <time>2012-11-14T14:30:56Z</time>
      </trkpt>
      <trkpt lat="45.4982" lon="3.29823">
        <ele>451</ele>
        <time>2012-11-14T14:31:07Z</time>
      </trkpt>
      <trkpt lat="45.49832" lon="3.29802">
        <ele>452</ele>
        <time>2012-11-14T14:31:16Z</time>
      </trkpt>
      <trkpt lat="45.49842" lon="3.2978">
        <ele>452</ele>
        <time>2012-11-14T14:31:25Z</time>
      </trkpt>
      <trkpt lat="45.49855" lon="3.2976">
        <ele>453</ele>
        <time>2012-11-14T14:31:34Z</time>
      </trkpt>
      <trkpt lat="45.49866" lon="3.29737">
        <ele>454</ele>
        <time>2012-11-14T14:31:42Z</time>
      </trkpt>
      <trkpt lat="45.49874" lon="3.29714">
        <ele>455</ele>
        <time>2012-11-14T14:31:49Z</time>
      </trkpt>
      <trkpt lat="45.4988" lon="3.29687">
        <ele>455</ele>
        <time>2012-11-14T14:31:55Z</time>
      </trkpt>
      <trkpt lat="45.49886" lon="3.2966">
        <ele>457</ele>
        <time>2012-11-14T14:32:01Z</time>
      </trkpt>
      <trkpt lat="45.49892" lon="3.29633">
        <ele>458</ele>
        <time>2012-11-14T14:32:07Z</time>
      </trkpt>
      <trkpt lat="45.49897" lon="3.29607">
        <ele>458</ele>
        <time>2012-11-14T14:32:13Z</time>
      </trkpt>
      <trkpt lat="45.49882" lon="3.29591">
        <ele>459</ele>
        <time>2012-11-14T14:32:19Z</time>
      </trkpt>
      <trkpt lat="45.49864" lon="3.29577">
        <ele>461</ele>
        <time>2012-11-14T14:32:25Z</time>
      </trkpt>
      <trkpt lat="45.49853" lon="3.29553">
        <ele>462</ele>
        <time>2012-11-14T14:32:32Z</time>
      </trkpt>
      <trkpt lat="45.49841" lon="3.29531">
        <ele>463</ele>
        <time>2012-11-14T14:32:38Z</time>
      </trkpt>
      <trkpt lat="45.49828" lon="3.29507">
        <ele>466</ele>
        <time>2012-11-14T14:32:45Z</time>
      </trkpt>
      <trkpt lat="45.49815" lon="3.29486">
        <ele>467</ele>
        <time>2012-11-14T14:32:52Z</time>
      </trkpt>
      <trkpt lat="45.49802" lon="3.29466">
        <ele>467</ele>
        <time>2012-11-14T14:32:59Z</time>
      </trkpt>
      <trkpt lat="45.49789" lon="3.29448">
        <ele>467</ele>
        <time>2012-11-14T14:33:06Z</time>
      </trkpt>
      <trkpt lat="45.49774" lon="3.29427">
        <ele>468</ele>
        <time>2012-11-14T14:33:13Z</time>
      </trkpt>
      <trkpt lat="45.4976" lon="3.29406">
        <ele>468</ele>
        <time>2012-11-14T14:33:20Z</time>
      </trkpt>
      <trkpt lat="45.49748" lon="3.29387">
        <ele>470</ele>
        <time>2012-11-14T14:33:26Z</time>
      </trkpt>
      <trkpt lat="45.49734" lon="3.29364">
        <ele>471</ele>
        <time>2012-11-14T14:33:32Z</time>
      </trkpt>
      <trkpt lat="45.4972" lon="3.29344">
        <ele>471</ele>
        <time>2012-11-14T14:33:38Z</time>
      </trkpt>
      <trkpt lat="45.49705" lon="3.29324">
        <ele>470</ele>
        <time>2012-11-14T14:33:44Z</time>
      </trkpt>
      <trkpt lat="45.4969" lon="3.29303">
        <ele>470</ele>
        <time>2012-11-14T14:33:50Z</time>
      </trkpt>
      <trkpt lat="45.49675" lon="3.29282">
        <ele>470</ele>
        <time>2012-11-14T14:33:56Z</time>
      </trkpt>
      <trkpt lat="45.49661" lon="3.2926">
        <ele>471</ele>
        <time>2012-11-14T14:34:02Z</time>
      </trkpt>
      <trkpt lat="45.49648" lon="3.29241">
        <ele>469</ele>
        <time>2012-11-14T14:34:07Z</time>
      </trkpt>
      <trkpt lat="45.49632" lon="3.29228">
        <ele>469</ele>
        <time>2012-11-14T14:34:12Z</time>
      </trkpt>
      <trkpt lat="45.49614" lon="3.29222">
        <ele>469</ele>
        <time>2012-11-14T14:34:17Z</time>
      </trkpt>
      <trkpt lat="45.49596" lon="3.29218">
        <ele>469</ele>
        <time>2012-11-14T14:34:22Z</time>
      </trkpt>
      <trkpt lat="45.49578" lon="3.29214">
        <ele>471</ele>
        <time>2012-11-14T14:34:27Z</time>
      </trkpt>
      <trkpt lat="45.49556" lon="3.29213">
        <ele>471</ele>
        <time>2012-11-14T14:34:33Z</time>
      </trkpt>
      <trkpt lat="45.49538" lon="3.29211">
        <ele>471</ele>
        <time>2012-11-14T14:34:38Z</time>
      </trkpt>
      <trkpt lat="45.49517" lon="3.29207">
        <ele>471</ele>
        <time>2012-11-14T14:34:43Z</time>
      </trkpt>
      <trkpt lat="45.49499" lon="3.29206">
        <ele>471</ele>
        <time>2012-11-14T14:34:47Z</time>
      </trkpt>
      <trkpt lat="45.49476" lon="3.29205">
        <ele>470</ele>
        <time>2012-11-14T14:34:52Z</time>
      </trkpt>
      <trkpt lat="45.49457" lon="3.29205">
        <ele>470</ele>
        <time>2012-11-14T14:34:56Z</time>
      </trkpt>
      <trkpt lat="45.49434" lon="3.29203">
        <ele>470</ele>
        <time>2012-11-14T14:35:01Z</time>
      </trkpt>
      <trkpt lat="45.49414" lon="3.29201">
        <ele>469</ele>
        <time>2012-11-14T14:35:05Z</time>
      </trkpt>
      <trkpt lat="45.4939" lon="3.29199">
        <ele>469</ele>
        <time>2012-11-14T14:35:09Z</time>
      </trkpt>
      <trkpt lat="45.49372" lon="3.29196">
        <ele>468</ele>
        <time>2012-11-14T14:35:12Z</time>
      </trkpt>
      <trkpt lat="45.49354" lon="3.29192">
        <ele>468</ele>
        <time>2012-11-14T14:35:15Z</time>
      </trkpt>
      <trkpt lat="45.49335" lon="3.29187">
        <ele>468</ele>
        <time>2012-11-14T14:35:18Z</time>
      </trkpt>
      <trkpt lat="45.49316" lon="3.29183">
        <ele>466</ele>
        <time>2012-11-14T14:35:21Z</time>
      </trkpt>
      <trkpt lat="45.49293" lon="3.29175">
        <ele>465</ele>
        <time>2012-11-14T14:35:24Z</time>
      </trkpt>
      <trkpt lat="45.49269" lon="3.29165">
        <ele>463</ele>
        <time>2012-11-14T14:35:27Z</time>
      </trkpt>
      <trkpt lat="45.49251" lon="3.2916">
        <ele>462</ele>
        <time>2012-11-14T14:35:29Z</time>
      </trkpt>
      <trkpt lat="45.49231" lon="3.29156">
        <ele>459</ele>
        <time>2012-11-14T14:35:31Z</time>
      </trkpt>
      <trkpt lat="45.49211" lon="3.29147">
        <ele>458</ele>
        <time>2012-11-14T14:35:33Z</time>
      </trkpt>
      <trkpt lat="45.49191" lon="3.29136">
        <ele>457</ele>
        <time>2012-11-14T14:35:35Z</time>
      </trkpt>
      <trkpt lat="45.49171" lon="3.29124">
        <ele>456</ele>
        <time>2012-11-14T14:35:37Z</time>
      </trkpt>
      <trkpt lat="45.49151" lon="3.29113">
        <ele>451</ele>
        <time>2012-11-14T14:35:39Z</time>
      </trkpt>
      <trkpt lat="45.49132" lon="3.29103">
        <ele>451</ele>
        <time>2012-11-14T14:35:41Z</time>
      </trkpt>
      <trkpt lat="45.49113" lon="3.29092">
        <ele>450</ele>
        <time>2012-11-14T14:35:43Z</time>
      </trkpt>
      <trkpt lat="45.49093" lon="3.29081">
        <ele>448</ele>
        <time>2012-11-14T14:35:45Z</time>
      </trkpt>
      <trkpt lat="45.49069" lon="3.29066">
        <ele>446</ele>
        <time>2012-11-14T14:35:48Z</time>
      </trkpt>
      <trkpt lat="45.49047" lon="3.29051">
        <ele>445</ele>
        <time>2012-11-14T14:35:51Z</time>
      </trkpt>
      <trkpt lat="45.49027" lon="3.29038">
        <ele>445</ele>
        <time>2012-11-14T14:35:54Z</time>
      </trkpt>
      <trkpt lat="45.49008" lon="3.29027">
        <ele>444</ele>
        <time>2012-11-14T14:35:57Z</time>
      </trkpt>
      <trkpt lat="45.48989" lon="3.29016">
        <ele>444</ele>
        <time>2012-11-14T14:36:00Z</time>
      </trkpt>
      <trkpt lat="45.4897" lon="3.29005">
        <ele>444</ele>
        <time>2012-11-14T14:36:03Z</time>
      </trkpt>
      <trkpt lat="45.48953" lon="3.28997">
        <ele>443</ele>
        <time>2012-11-14T14:36:06Z</time>
      </trkpt>
      <trkpt lat="45.48929" lon="3.28991">
        <ele>444</ele>
        <time>2012-11-14T14:36:10Z</time>
      </trkpt>
      <trkpt lat="45.4891" lon="3.28987">
        <ele>445</ele>
        <time>2012-11-14T14:36:13Z</time>
      </trkpt>
      <trkpt lat="45.48889" lon="3.28985">
        <ele>445</ele>
        <time>2012-11-14T14:36:17Z</time>
      </trkpt>
      <trkpt lat="45.48867" lon="3.28984">
        <ele>446</ele>
        <time>2012-11-14T14:36:21Z</time>
      </trkpt>
      <trkpt lat="45.48846" lon="3.2898">
        <ele>446</ele>
        <time>2012-11-14T14:36:25Z</time>
      </trkpt>
      <trkpt lat="45.48825" lon="3.28971">
        <ele>448</ele>
        <time>2012-11-14T14:36:29Z</time>
      </trkpt>
      <trkpt lat="45.48805" lon="3.28957">
        <ele>448</ele>
        <time>2012-11-14T14:36:33Z</time>
      </trkpt>
      <trkpt lat="45.48785" lon="3.28942">
        <ele>448</ele>
        <time>2012-11-14T14:36:37Z</time>
      </trkpt>
      <trkpt lat="45.48764" lon="3.28927">
        <ele>449</ele>
        <time>2012-11-14T14:36:41Z</time>
      </trkpt>
      <trkpt lat="45.48744" lon="3.2891">
        <ele>449</ele>
        <time>2012-11-14T14:36:45Z</time>
      </trkpt>
      <trkpt lat="45.48728" lon="3.2889">
        <ele>449</ele>
        <time>2012-11-14T14:36:49Z</time>
      </trkpt>
      <trkpt lat="45.4871" lon="3.28877">
        <ele>449</ele>
        <time>2012-11-14T14:36:53Z</time>
      </trkpt>
      <trkpt lat="45.48689" lon="3.28882">
        <ele>449</ele>
        <time>2012-11-14T14:36:57Z</time>
      </trkpt>
      <trkpt lat="45.48666" lon="3.28888">
        <ele>449</ele>
        <time>2012-11-14T14:37:01Z</time>
      </trkpt>
      <trkpt lat="45.48648" lon="3.28893">
        <ele>449</ele>
        <time>2012-11-14T14:37:04Z</time>
      </trkpt>
      <trkpt lat="45.4863" lon="3.28891">
        <ele>448</ele>
        <time>2012-11-14T14:37:07Z</time>
      </trkpt>
      <trkpt lat="45.4862" lon="3.28865">
        <ele>449</ele>
        <time>2012-11-14T14:37:11Z</time>
      </trkpt>
      <trkpt lat="45.48617" lon="3.28833">
        <ele>451</ele>
        <time>2012-11-14T14:37:15Z</time>
      </trkpt>
      <trkpt lat="45.48613" lon="3.28805">
        <ele>452</ele>
        <time>2012-11-14T14:37:19Z</time>
      </trkpt>
      <trkpt lat="45.48613" lon="3.28777">
        <ele>453</ele>
        <time>2012-11-14T14:37:24Z</time>
      </trkpt>
      <trkpt lat="45.48614" lon="3.28748">
        <ele>457</ele>
        <time>2012-11-14T14:37:31Z</time>
      </trkpt>
      <trkpt lat="45.48615" lon="3.28719">
        <ele>457</ele>
        <time>2012-11-14T14:37:37Z</time>
      </trkpt>
      <trkpt lat="45.48615" lon="3.28692">
        <ele>458</ele>
        <time>2012-11-14T14:37:43Z</time>
      </trkpt>
      <trkpt lat="45.48616" lon="3.28664">
        <ele>458</ele>
        <time>2012-11-14T14:37:50Z</time>
      </trkpt>
      <trkpt lat="45.48618" lon="3.28638">
        <ele>458</ele>
        <time>2012-11-14T14:37:56Z</time>
      </trkpt>
      <trkpt lat="45.48618" lon="3.28607">
        <ele>458</ele>
        <time>2012-11-14T14:38:02Z</time>
      </trkpt>
      <trkpt lat="45.48618" lon="3.28576">
        <ele>457</ele>
        <time>2012-11-14T14:38:07Z</time>
      </trkpt>
      <trkpt lat="45.48617" lon="3.28545">
        <ele>457</ele>
        <time>2012-11-14T14:38:12Z</time>
      </trkpt>
      <trkpt lat="45.48619" lon="3.28518">
        <ele>457</ele>
        <time>2012-11-14T14:38:17Z</time>
      </trkpt>
      <trkpt lat="45.4862" lon="3.28487">
        <ele>455</ele>
        <time>2012-11-14T14:38:24Z</time>
      </trkpt>
      <trkpt lat="45.48623" lon="3.28458">
        <ele>455</ele>
        <time>2012-11-14T14:38:28Z</time>
      </trkpt>
      <trkpt lat="45.48624" lon="3.28431">
        <ele>454</ele>
        <time>2012-11-14T14:38:31Z</time>
      </trkpt>
      <trkpt lat="45.48625" lon="3.28402">
        <ele>451</ele>
        <time>2012-11-14T14:38:34Z</time>
      </trkpt>
      <trkpt lat="45.48628" lon="3.28368">
        <ele>450</ele>
        <time>2012-11-14T14:38:37Z</time>
      </trkpt>
      <trkpt lat="45.4863" lon="3.28343">
        <ele>449</ele>
        <time>2012-11-14T14:38:39Z</time>
      </trkpt>
      <trkpt lat="45.48633" lon="3.28313">
        <ele>445</ele>
        <time>2012-11-14T14:38:41Z</time>
      </trkpt>
      <trkpt lat="45.48637" lon="3.28281">
        <ele>443</ele>
        <time>2012-11-14T14:38:43Z</time>
      </trkpt>
      <trkpt lat="45.4864" lon="3.28248">
        <ele>438</ele>
        <time>2012-11-14T14:38:45Z</time>
      </trkpt>
      <trkpt lat="45.48644" lon="3.2821">
        <ele>437</ele>
        <time>2012-11-14T14:38:47Z</time>
      </trkpt>
      <trkpt lat="45.48648" lon="3.28172">
        <ele>434</ele>
        <time>2012-11-14T14:38:49Z</time>
      </trkpt>
      <trkpt lat="45.48652" lon="3.28134">
        <ele>432</ele>
        <time>2012-11-14T14:38:51Z</time>
      </trkpt>
      <trkpt lat="45.48654" lon="3.28095">
        <ele>431</ele>
        <time>2012-11-14T14:38:53Z</time>
      </trkpt>
      <trkpt lat="45.48656" lon="3.28058">
        <ele>428</ele>
        <time>2012-11-14T14:38:55Z</time>
      </trkpt>
      <trkpt lat="45.48657" lon="3.28022">
        <ele>426</ele>
        <time>2012-11-14T14:38:57Z</time>
      </trkpt>
      <trkpt lat="45.48656" lon="3.27985">
        <ele>423</ele>
        <time>2012-11-14T14:38:59Z</time>
      </trkpt>
      <trkpt lat="45.48653" lon="3.27949">
        <ele>421</ele>
        <time>2012-11-14T14:39:01Z</time>
      </trkpt>
      <trkpt lat="45.48648" lon="3.27914">
        <ele>416</ele>
        <time>2012-11-14T14:39:03Z</time>
      </trkpt>
      <trkpt lat="45.48637" lon="3.27889">
        <ele>414</ele>
        <time>2012-11-14T14:39:05Z</time>
      </trkpt>
      <trkpt lat="45.48623" lon="3.27873">
        <ele>413</ele>
        <time>2012-11-14T14:39:07Z</time>
      </trkpt>
      <trkpt lat="45.48603" lon="3.27864">
        <ele>412</ele>
        <time>2012-11-14T14:39:09Z</time>
      </trkpt>
      <trkpt lat="45.48581" lon="3.27864">
        <ele>410</ele>
        <time>2012-11-14T14:39:11Z</time>
      </trkpt>
      <trkpt lat="45.48558" lon="3.27869">
        <ele>411</ele>
        <time>2012-11-14T14:39:13Z</time>
      </trkpt>
      <trkpt lat="45.4854" lon="3.27876">
        <ele>411</ele>
        <time>2012-11-14T14:39:15Z</time>
      </trkpt>
      <trkpt lat="45.48517" lon="3.27867">
        <ele>410</ele>
        <time>2012-11-14T14:39:18Z</time>
      </trkpt>
      <trkpt lat="45.485" lon="3.27857">
        <ele>408</ele>
        <time>2012-11-14T14:39:20Z</time>
      </trkpt>
      <trkpt lat="45.48484" lon="3.27847">
        <ele>408</ele>
        <time>2012-11-14T14:39:22Z</time>
      </trkpt>
      <trkpt lat="45.48465" lon="3.27836">
        <ele>409</ele>
        <time>2012-11-14T14:39:24Z</time>
      </trkpt>
      <trkpt lat="45.4844" lon="3.27821">
        <ele>401</ele>
        <time>2012-11-14T14:39:27Z</time>
      </trkpt>
      <trkpt lat="45.4842" lon="3.27812">
        <ele>402</ele>
        <time>2012-11-14T14:39:29Z</time>
      </trkpt>
      <trkpt lat="45.48397" lon="3.27805">
        <ele>404</ele>
        <time>2012-11-14T14:39:30Z</time>
      </trkpt>
      <trkpt lat="45.48376" lon="3.27796">
        <ele>403</ele>
        <time>2012-11-14T14:39:33Z</time>
      </trkpt>
      <trkpt lat="45.48356" lon="3.27787">
        <ele>403</ele>
        <time>2012-11-14T14:39:35Z</time>
      </trkpt>
      <trkpt lat="45.48337" lon="3.27776">
        <ele>402</ele>
        <time>2012-11-14T14:39:37Z</time>
      </trkpt>
      <trkpt lat="45.48319" lon="3.27763">
        <ele>404</ele>
        <time>2012-11-14T14:39:39Z</time>
      </trkpt>
      <trkpt lat="45.48301" lon="3.27747">
        <ele>397</ele>
        <time>2012-11-14T14:39:41Z</time>
      </trkpt>
      <trkpt lat="45.48284" lon="3.27733">
        <ele>397</ele>
        <time>2012-11-14T14:39:43Z</time>
      </trkpt>
      <trkpt lat="45.48265" lon="3.27715">
        <ele>397</ele>
        <time>2012-11-14T14:39:44Z</time>
      </trkpt>
      <trkpt lat="45.48245" lon="3.27702">
        <ele>398</ele>
        <time>2012-11-14T14:39:47Z</time>
      </trkpt>
      <trkpt lat="45.48232" lon="3.27675">
        <ele>396</ele>
        <time>2012-11-14T14:39:50Z</time>
      </trkpt>
      <trkpt lat="45.48231" lon="3.27643">
        <ele>392</ele>
        <time>2012-11-14T14:39:53Z</time>
      </trkpt>
      <trkpt lat="45.48242" lon="3.27615">
        <ele>391</ele>
        <time>2012-11-14T14:39:56Z</time>
      </trkpt>
      <trkpt lat="45.48244" lon="3.27584">
        <ele>390</ele>
        <time>2012-11-14T14:39:59Z</time>
      </trkpt>
      <trkpt lat="45.48234" lon="3.27561">
        <ele>389</ele>
        <time>2012-11-14T14:40:02Z</time>
      </trkpt>
      <trkpt lat="45.48219" lon="3.2754">
        <ele>388</ele>
        <time>2012-11-14T14:40:06Z</time>
      </trkpt>
      <trkpt lat="45.48204" lon="3.27522">
        <ele>388</ele>
        <time>2012-11-14T14:40:09Z</time>
      </trkpt>
      <trkpt lat="45.48183" lon="3.27509">
        <ele>387</ele>
        <time>2012-11-14T14:40:12Z</time>
      </trkpt>
      <trkpt lat="45.48162" lon="3.27499">
        <ele>386</ele>
        <time>2012-11-14T14:40:16Z</time>
      </trkpt>
      <trkpt lat="45.48144" lon="3.27485">
        <ele>386</ele>
        <time>2012-11-14T14:40:19Z</time>
      </trkpt>
      <trkpt lat="45.48122" lon="3.27477">
        <ele>386</ele>
        <time>2012-11-14T14:40:23Z</time>
      </trkpt>
      <trkpt lat="45.48104" lon="3.27467">
        <ele>386</ele>
        <time>2012-11-14T14:40:26Z</time>
      </trkpt>
      <trkpt lat="45.48089" lon="3.27454">
        <ele>386</ele>
        <time>2012-11-14T14:40:36Z</time>
      </trkpt>
      <trkpt lat="45.48075" lon="3.27433">
        <ele>386</ele>
        <time>2012-11-14T14:42:48Z</time>
      </trkpt>
      <trkpt lat="45.4806" lon="3.27418">
        <ele>386</ele>
        <time>2012-11-14T14:42:53Z</time>
      </trkpt>
      <trkpt lat="45.48043" lon="3.27403">
        <ele>386</ele>
        <time>2012-11-14T14:42:57Z</time>
      </trkpt>
      <trkpt lat="45.48024" lon="3.2739">
        <ele>386</ele>
        <time>2012-11-14T14:43:01Z</time>
      </trkpt>
      <trkpt lat="45.48003" lon="3.27379">
        <ele>386</ele>
        <time>2012-11-14T14:43:05Z</time>
      </trkpt>
      <trkpt lat="45.47984" lon="3.27372">
        <ele>385</ele>
        <time>2012-11-14T14:43:08Z</time>
      </trkpt>
      <trkpt lat="45.47961" lon="3.27364">
        <ele>385</ele>
        <time>2012-11-14T14:43:12Z</time>
      </trkpt>
      <trkpt lat="45.47936" lon="3.27356">
        <ele>385</ele>
        <time>2012-11-14T14:43:16Z</time>
      </trkpt>
      <trkpt lat="45.4792" lon="3.27346">
        <ele>385</ele>
        <time>2012-11-14T14:43:19Z</time>
      </trkpt>
      <trkpt lat="45.47905" lon="3.27331">
        <ele>384</ele>
        <time>2012-11-14T14:43:22Z</time>
      </trkpt>
      <trkpt lat="45.47883" lon="3.27311">
        <ele>385</ele>
        <time>2012-11-14T14:43:26Z</time>
      </trkpt>
      <trkpt lat="45.47864" lon="3.27301">
        <ele>385</ele>
        <time>2012-11-14T14:43:29Z</time>
      </trkpt>
      <trkpt lat="45.47844" lon="3.27291">
        <ele>385</ele>
        <time>2012-11-14T14:43:32Z</time>
      </trkpt>
      <trkpt lat="45.47827" lon="3.27279">
        <ele>385</ele>
        <time>2012-11-14T14:43:35Z</time>
      </trkpt>
      <trkpt lat="45.47807" lon="3.27269">
        <ele>385</ele>
        <time>2012-11-14T14:43:39Z</time>
      </trkpt>
      <trkpt lat="45.47791" lon="3.27258">
        <ele>385</ele>
        <time>2012-11-14T14:43:42Z</time>
      </trkpt>
      <trkpt lat="45.47774" lon="3.27246">
        <ele>385</ele>
        <time>2012-11-14T14:43:45Z</time>
      </trkpt>
      <trkpt lat="45.47756" lon="3.27235">
        <ele>385</ele>
        <time>2012-11-14T14:43:48Z</time>
      </trkpt>
      <trkpt lat="45.47737" lon="3.27228">
        <ele>385</ele>
        <time>2012-11-14T14:43:51Z</time>
      </trkpt>
      <trkpt lat="45.47715" lon="3.27219">
        <ele>386</ele>
        <time>2012-11-14T14:43:54Z</time>
      </trkpt>
      <trkpt lat="45.47696" lon="3.27218">
        <ele>386</ele>
        <time>2012-11-14T14:43:58Z</time>
      </trkpt>
      <trkpt lat="45.47676" lon="3.27218">
        <ele>386</ele>
        <time>2012-11-14T14:44:01Z</time>
      </trkpt>
      <trkpt lat="45.47655" lon="3.27223">
        <ele>387</ele>
        <time>2012-11-14T14:44:04Z</time>
      </trkpt>
      <trkpt lat="45.47635" lon="3.27223">
        <ele>387</ele>
        <time>2012-11-14T14:44:07Z</time>
      </trkpt>
      <trkpt lat="45.47615" lon="3.27222">
        <ele>387</ele>
        <time>2012-11-14T14:44:10Z</time>
      </trkpt>
      <trkpt lat="45.47593" lon="3.27219">
        <ele>387</ele>
        <time>2012-11-14T14:44:13Z</time>
      </trkpt>
      <trkpt lat="45.47574" lon="3.27213">
        <ele>388</ele>
        <time>2012-11-14T14:44:16Z</time>
      </trkpt>
      <trkpt lat="45.47549" lon="3.27211">
        <ele>388</ele>
        <time>2012-11-14T14:44:20Z</time>
      </trkpt>
      <trkpt lat="45.47526" lon="3.27206">
        <ele>388</ele>
        <time>2012-11-14T14:44:24Z</time>
      </trkpt>
      <trkpt lat="45.47508" lon="3.27202">
        <ele>388</ele>
        <time>2012-11-14T14:44:27Z</time>
      </trkpt>
      <trkpt lat="45.47489" lon="3.27197">
        <ele>389</ele>
        <time>2012-11-14T14:44:30Z</time>
      </trkpt>
      <trkpt lat="45.4747" lon="3.27193">
        <ele>390</ele>
        <time>2012-11-14T14:44:33Z</time>
      </trkpt>
      <trkpt lat="45.47448" lon="3.27192">
        <ele>390</ele>
        <time>2012-11-14T14:44:37Z</time>
      </trkpt>
      <trkpt lat="45.47425" lon="3.27191">
        <ele>390</ele>
        <time>2012-11-14T14:44:41Z</time>
      </trkpt>
      <trkpt lat="45.47406" lon="3.27188">
        <ele>390</ele>
        <time>2012-11-14T14:44:44Z</time>
      </trkpt>
      <trkpt lat="45.47387" lon="3.27191">
        <ele>390</ele>
        <time>2012-11-14T14:44:47Z</time>
      </trkpt>
      <trkpt lat="45.47365" lon="3.27197">
        <ele>390</ele>
        <time>2012-11-14T14:44:51Z</time>
      </trkpt>
      <trkpt lat="45.47345" lon="3.27206">
        <ele>390</ele>
        <time>2012-11-14T14:44:54Z</time>
      </trkpt>
      <trkpt lat="45.47328" lon="3.27218">
        <ele>389</ele>
        <time>2012-11-14T14:44:57Z</time>
      </trkpt>
      <trkpt lat="45.47311" lon="3.27229">
        <ele>389</ele>
        <time>2012-11-14T14:45:00Z</time>
      </trkpt>
      <trkpt lat="45.47291" lon="3.2724">
        <ele>389</ele>
        <time>2012-11-14T14:45:03Z</time>
      </trkpt>
      <trkpt lat="45.47272" lon="3.27252">
        <ele>392</ele>
        <time>2012-11-14T14:45:06Z</time>
      </trkpt>
      <trkpt lat="45.47254" lon="3.27266">
        <ele>392</ele>
        <time>2012-11-14T14:45:09Z</time>
      </trkpt>
      <trkpt lat="45.47234" lon="3.27279">
        <ele>390</ele>
        <time>2012-11-14T14:45:12Z</time>
      </trkpt>
      <trkpt lat="45.47212" lon="3.27293">
        <ele>390</ele>
        <time>2012-11-14T14:45:15Z</time>
      </trkpt>
      <trkpt lat="45.4719" lon="3.27306">
        <ele>390</ele>
        <time>2012-11-14T14:45:18Z</time>
      </trkpt>
      <trkpt lat="45.47171" lon="3.27318">
        <ele>389</ele>
        <time>2012-11-14T14:45:21Z</time>
      </trkpt>
      <trkpt lat="45.47155" lon="3.27333">
        <ele>387</ele>
        <time>2012-11-14T14:45:24Z</time>
      </trkpt>
      <trkpt lat="45.47134" lon="3.27348">
        <ele>389</ele>
        <time>2012-11-14T14:45:27Z</time>
      </trkpt>
      <trkpt lat="45.47116" lon="3.27366">
        <ele>389</ele>
        <time>2012-11-14T14:45:30Z</time>
      </trkpt>
      <trkpt lat="45.47099" lon="3.2738">
        <ele>389</ele>
        <time>2012-11-14T14:45:33Z</time>
      </trkpt>
      <trkpt lat="45.47079" lon="3.27396">
        <ele>387</ele>
        <time>2012-11-14T14:45:36Z</time>
      </trkpt>
      <trkpt lat="45.4706" lon="3.27407">
        <ele>387</ele>
        <time>2012-11-14T14:45:39Z</time>
      </trkpt>
      <trkpt lat="45.47038" lon="3.2742">
        <ele>390</ele>
        <time>2012-11-14T14:45:42Z</time>
      </trkpt>
      <trkpt lat="45.47015" lon="3.27431">
        <ele>390</ele>
        <time>2012-11-14T14:45:45Z</time>
      </trkpt>
      <trkpt lat="45.46993" lon="3.27446">
        <ele>389</ele>
        <time>2012-11-14T14:45:48Z</time>
      </trkpt>
      <trkpt lat="45.46973" lon="3.27463">
        <ele>389</ele>
        <time>2012-11-14T14:45:51Z</time>
      </trkpt>
      <trkpt lat="45.46954" lon="3.27483">
        <ele>389</ele>
        <time>2012-11-14T14:45:54Z</time>
      </trkpt>
      <trkpt lat="45.46938" lon="3.27503">
        <ele>389</ele>
        <time>2012-11-14T14:45:57Z</time>
      </trkpt>
      <trkpt lat="45.46923" lon="3.27527">
        <ele>389</ele>
        <time>2012-11-14T14:46:00Z</time>
      </trkpt>
      <trkpt lat="45.46909" lon="3.27549">
        <ele>388</ele>
        <time>2012-11-14T14:46:03Z</time>
      </trkpt>
      <trkpt lat="45.46897" lon="3.27572">
        <ele>388</ele>
        <time>2012-11-14T14:46:06Z</time>
      </trkpt>
      <trkpt lat="45.46887" lon="3.276">
        <ele>387</ele>
        <time>2012-11-14T14:46:09Z</time>
      </trkpt>
      <trkpt lat="45.4688" lon="3.27632">
        <ele>387</ele>
        <time>2012-11-14T14:46:12Z</time>
      </trkpt>
      <trkpt lat="45.46872" lon="3.27659">
        <ele>387</ele>
        <time>2012-11-14T14:46:15Z</time>
      </trkpt>
      <trkpt lat="45.46866" lon="3.27687">
        <ele>386</ele>
        <time>2012-11-14T14:46:18Z</time>
      </trkpt>
      <trkpt lat="45.46864" lon="3.27718">
        <ele>386</ele>
        <time>2012-11-14T14:46:21Z</time>
      </trkpt>
      <trkpt lat="45.46866" lon="3.27745">
        <ele>386</ele>
        <time>2012-11-14T14:46:24Z</time>
      </trkpt>
      <trkpt lat="45.46868" lon="3.27775">
        <ele>387</ele>
        <time>2012-11-14T14:46:27Z</time>
      </trkpt>
      <trkpt lat="45.46869" lon="3.27804">
        <ele>387</ele>
        <time>2012-11-14T14:46:30Z</time>
      </trkpt>
      <trkpt lat="45.46871" lon="3.27832">
        <ele>388</ele>
        <time>2012-11-14T14:46:33Z</time>
      </trkpt>
      <trkpt lat="45.46873" lon="3.27859">
        <ele>388</ele>
        <time>2012-11-14T14:46:36Z</time>
      </trkpt>
      <trkpt lat="45.46876" lon="3.27887">
        <ele>388</ele>
        <time>2012-11-14T14:46:39Z</time>
      </trkpt>
      <trkpt lat="45.46879" lon="3.27913">
        <ele>388</ele>
        <time>2012-11-14T14:46:42Z</time>
      </trkpt>
      <trkpt lat="45.46883" lon="3.27938">
        <ele>389</ele>
        <time>2012-11-14T14:46:45Z</time>
      </trkpt>
      <trkpt lat="45.46886" lon="3.27966">
        <ele>389</ele>
        <time>2012-11-14T14:46:49Z</time>
      </trkpt>
      <trkpt lat="45.46899" lon="3.27988">
        <ele>390</ele>
        <time>2012-11-14T14:46:55Z</time>
      </trkpt>
      <trkpt lat="45.46916" lon="3.2798">
        <ele>390</ele>
        <time>2012-11-14T14:47:01Z</time>
      </trkpt>
      <trkpt lat="45.46925" lon="3.27956">
        <ele>397</ele>
        <time>2012-11-14T14:47:07Z</time>
      </trkpt>
      <trkpt lat="45.46938" lon="3.27937">
        <ele>398</ele>
        <time>2012-11-14T14:47:14Z</time>
      </trkpt>
      <trkpt lat="45.4693" lon="3.27965">
        <ele>398</ele>
        <time>2012-11-14T14:47:28Z</time>
      </trkpt>
      <trkpt lat="45.46918" lon="3.27989">
        <ele>395</ele>
        <time>2012-11-14T14:47:36Z</time>
      </trkpt>
      <trkpt lat="45.46901" lon="3.2801">
        <ele>390</ele>
        <time>2012-11-14T14:47:41Z</time>
      </trkpt>
      <trkpt lat="45.46882" lon="3.28026">
        <ele>389</ele>
        <time>2012-11-14T14:47:45Z</time>
      </trkpt>
      <trkpt lat="45.46863" lon="3.28041">
        <ele>388</ele>
        <time>2012-11-14T14:47:49Z</time>
      </trkpt>
      <trkpt lat="45.46847" lon="3.28055">
        <ele>387</ele>
        <time>2012-11-14T14:47:52Z</time>
      </trkpt>
      <trkpt lat="45.46827" lon="3.28075">
        <ele>386</ele>
        <time>2012-11-14T14:47:56Z</time>
      </trkpt>
      <trkpt lat="45.46812" lon="3.2809">
        <ele>386</ele>
        <time>2012-11-14T14:47:59Z</time>
      </trkpt>
      <trkpt lat="45.46795" lon="3.28103">
        <ele>387</ele>
        <time>2012-11-14T14:48:02Z</time>
      </trkpt>
      <trkpt lat="45.46779" lon="3.2812">
        <ele>388</ele>
        <time>2012-11-14T14:48:05Z</time>
      </trkpt>
      <trkpt lat="45.46759" lon="3.28137">
        <ele>388</ele>
        <time>2012-11-14T14:48:08Z</time>
      </trkpt>
      <trkpt lat="45.46736" lon="3.28147">
        <ele>389</ele>
        <time>2012-11-14T14:48:11Z</time>
      </trkpt>
      <trkpt lat="45.46711" lon="3.2815">
        <ele>388</ele>
        <time>2012-11-14T14:48:14Z</time>
      </trkpt>
      <trkpt lat="45.46686" lon="3.28149">
        <ele>388</ele>
        <time>2012-11-14T14:48:17Z</time>
      </trkpt>
      <trkpt lat="45.46659" lon="3.28146">
        <ele>387</ele>
        <time>2012-11-14T14:48:20Z</time>
      </trkpt>
      <trkpt lat="45.46634" lon="3.28145">
        <ele>386</ele>
        <time>2012-11-14T14:48:23Z</time>
      </trkpt>
      <trkpt lat="45.46608" lon="3.28141">
        <ele>386</ele>
        <time>2012-11-14T14:48:26Z</time>
      </trkpt>
      <trkpt lat="45.46581" lon="3.2814">
        <ele>386</ele>
        <time>2012-11-14T14:48:29Z</time>
      </trkpt>
      <trkpt lat="45.46556" lon="3.28139">
        <ele>386</ele>
        <time>2012-11-14T14:48:32Z</time>
      </trkpt>
      <trkpt lat="45.46531" lon="3.28136">
        <ele>386</ele>
        <time>2012-11-14T14:48:35Z</time>
      </trkpt>
      <trkpt lat="45.46508" lon="3.28135">
        <ele>386</ele>
        <time>2012-11-14T14:48:38Z</time>
      </trkpt>
      <trkpt lat="45.46485" lon="3.28133">
        <ele>386</ele>
        <time>2012-11-14T14:48:41Z</time>
      </trkpt>
      <trkpt lat="45.46463" lon="3.2813">
        <ele>386</ele>
        <time>2012-11-14T14:48:44Z</time>
      </trkpt>
      <trkpt lat="45.46441" lon="3.28128">
        <ele>385</ele>
        <time>2012-11-14T14:48:47Z</time>
      </trkpt>
      <trkpt lat="45.46421" lon="3.28126">
        <ele>385</ele>
        <time>2012-11-14T14:48:50Z</time>
      </trkpt>
      <trkpt lat="45.46403" lon="3.28124">
        <ele>385</ele>
        <time>2012-11-14T14:48:53Z</time>
      </trkpt>
      <trkpt lat="45.46385" lon="3.28114">
        <ele>385</ele>
        <time>2012-11-14T14:48:58Z</time>
      </trkpt>
      <trkpt lat="45.46387" lon="3.28084">
        <ele>385</ele>
        <time>2012-11-14T14:49:03Z</time>
      </trkpt>
      <trkpt lat="45.46385" lon="3.28054">
        <ele>385</ele>
        <time>2012-11-14T14:49:08Z</time>
      </trkpt>
      <trkpt lat="45.46385" lon="3.28023">
        <ele>385</ele>
        <time>2012-11-14T14:49:13Z</time>
      </trkpt>
      <trkpt lat="45.46388" lon="3.27996">
        <ele>385</ele>
        <time>2012-11-14T14:49:18Z</time>
      </trkpt>
      <trkpt lat="45.46387" lon="3.27965">
        <ele>385</ele>
        <time>2012-11-14T14:49:23Z</time>
      </trkpt>
      <trkpt lat="45.46387" lon="3.27934">
        <ele>385</ele>
        <time>2012-11-14T14:49:28Z</time>
      </trkpt>
      <trkpt lat="45.46387" lon="3.27909">
        <ele>386</ele>
        <time>2012-11-14T14:49:32Z</time>
      </trkpt>
      <trkpt lat="45.46386" lon="3.27879">
        <ele>386</ele>
        <time>2012-11-14T14:49:37Z</time>
      </trkpt>
      <trkpt lat="45.46388" lon="3.27853">
        <ele>386</ele>
        <time>2012-11-14T14:49:41Z</time>
      </trkpt>
      <trkpt lat="45.46387" lon="3.27825">
        <ele>386</ele>
        <time>2012-11-14T14:49:46Z</time>
      </trkpt>
      <trkpt lat="45.46389" lon="3.27799">
        <ele>386</ele>
        <time>2012-11-14T14:49:51Z</time>
      </trkpt>
      <trkpt lat="45.46389" lon="3.27769">
        <ele>386</ele>
        <time>2012-11-14T14:49:56Z</time>
      </trkpt>
      <trkpt lat="45.4639" lon="3.27738">
        <ele>386</ele>
        <time>2012-11-14T14:50:01Z</time>
      </trkpt>
      <trkpt lat="45.4639" lon="3.27711">
        <ele>386</ele>
        <time>2012-11-14T14:50:05Z</time>
      </trkpt>
      <trkpt lat="45.46391" lon="3.27685">
        <ele>386</ele>
        <time>2012-11-14T14:50:09Z</time>
      </trkpt>
      <trkpt lat="45.46391" lon="3.27658">
        <ele>385</ele>
        <time>2012-11-14T14:50:13Z</time>
      </trkpt>
      <trkpt lat="45.46387" lon="3.27633">
        <ele>385</ele>
        <time>2012-11-14T14:50:17Z</time>
      </trkpt>
      <trkpt lat="45.46379" lon="3.27607">
        <ele>386</ele>
        <time>2012-11-14T14:50:21Z</time>
      </trkpt>
      <trkpt lat="45.4637" lon="3.27581">
        <ele>386</ele>
        <time>2012-11-14T14:50:25Z</time>
      </trkpt>
      <trkpt lat="45.46358" lon="3.2756">
        <ele>386</ele>
        <time>2012-11-14T14:50:29Z</time>
      </trkpt>
      <trkpt lat="45.46341" lon="3.27542">
        <ele>386</ele>
        <time>2012-11-14T14:50:33Z</time>
      </trkpt>
      <trkpt lat="45.46324" lon="3.27525">
        <ele>386</ele>
        <time>2012-11-14T14:50:37Z</time>
      </trkpt>
      <trkpt lat="45.46305" lon="3.27508">
        <ele>386</ele>
        <time>2012-11-14T14:50:41Z</time>
      </trkpt>
      <trkpt lat="45.46289" lon="3.27492">
        <ele>387</ele>
        <time>2012-11-14T14:50:45Z</time>
      </trkpt>
      <trkpt lat="45.46282" lon="3.27467">
        <ele>387</ele>
        <time>2012-11-14T14:50:50Z</time>
      </trkpt>
      <trkpt lat="45.46283" lon="3.27437">
        <ele>387</ele>
        <time>2012-11-14T14:50:54Z</time>
      </trkpt>
      <trkpt lat="45.46284" lon="3.27406">
        <ele>389</ele>
        <time>2012-11-14T14:50:58Z</time>
      </trkpt>
      <trkpt lat="45.46283" lon="3.27372">
        <ele>389</ele>
        <time>2012-11-14T14:51:02Z</time>
      </trkpt>
      <trkpt lat="45.46284" lon="3.27338">
        <ele>389</ele>
        <time>2012-11-14T14:51:06Z</time>
      </trkpt>
      <trkpt lat="45.46285" lon="3.27304">
        <ele>390</ele>
        <time>2012-11-14T14:51:10Z</time>
      </trkpt>
      <trkpt lat="45.46286" lon="3.27271">
        <ele>390</ele>
        <time>2012-11-14T14:51:14Z</time>
      </trkpt>
      <trkpt lat="45.46288" lon="3.27244">
        <ele>389</ele>
        <time>2012-11-14T14:51:17Z</time>
      </trkpt>
      <trkpt lat="45.46289" lon="3.27211">
        <ele>389</ele>
        <time>2012-11-14T14:51:21Z</time>
      </trkpt>
      <trkpt lat="45.4629" lon="3.27177">
        <ele>389</ele>
        <time>2012-11-14T14:51:25Z</time>
      </trkpt>
      <trkpt lat="45.46297" lon="3.27151">
        <ele>389</ele>
        <time>2012-11-14T14:51:30Z</time>
      </trkpt>
      <trkpt lat="45.4632" lon="3.27153">
        <ele>389</ele>
        <time>2012-11-14T14:51:33Z</time>
      </trkpt>
      <trkpt lat="45.46344" lon="3.27157">
        <ele>388</ele>
        <time>2012-11-14T14:51:38Z</time>
      </trkpt>
      <trkpt lat="45.46362" lon="3.27156">
        <ele>389</ele>
        <time>2012-11-14T14:51:41Z</time>
      </trkpt>
      <trkpt lat="45.46385" lon="3.27156">
        <ele>389</ele>
        <time>2012-11-14T14:51:44Z</time>
      </trkpt>
      <trkpt lat="45.46404" lon="3.27146">
        <ele>389</ele>
        <time>2012-11-14T14:51:49Z</time>
      </trkpt>
      <trkpt lat="45.46413" lon="3.27118">
        <ele>389</ele>
        <time>2012-11-14T14:51:52Z</time>
      </trkpt>
      <trkpt lat="45.46419" lon="3.27089">
        <ele>390</ele>
        <time>2012-11-14T14:51:57Z</time>
      </trkpt>
      <trkpt lat="45.46417" lon="3.27055">
        <ele>389</ele>
        <time>2012-11-14T14:52:01Z</time>
      </trkpt>
      <trkpt lat="45.46409" lon="3.27024">
        <ele>389</ele>
        <time>2012-11-14T14:52:05Z</time>
      </trkpt>
      <trkpt lat="45.46403" lon="3.26999">
        <ele>389</ele>
        <time>2012-11-14T14:52:08Z</time>
      </trkpt>
      <trkpt lat="45.46399" lon="3.26974">
        <ele>390</ele>
        <time>2012-11-14T14:52:11Z</time>
      </trkpt>
      <trkpt lat="45.46391" lon="3.26945">
        <ele>390</ele>
        <time>2012-11-14T14:52:15Z</time>
      </trkpt>
      <trkpt lat="45.46388" lon="3.26913">
        <ele>390</ele>
        <time>2012-11-14T14:52:19Z</time>
      </trkpt>
      <trkpt lat="45.46394" lon="3.26882">
        <ele>390</ele>
        <time>2012-11-14T14:52:23Z</time>
      </trkpt>
      <trkpt lat="45.46399" lon="3.26851">
        <ele>390</ele>
        <time>2012-11-14T14:52:27Z</time>
      </trkpt>
      <trkpt lat="45.46396" lon="3.26822">
        <ele>390</ele>
        <time>2012-11-14T14:52:31Z</time>
      </trkpt>
      <trkpt lat="45.4639" lon="3.26795">
        <ele>390</ele>
        <time>2012-11-14T14:52:35Z</time>
      </trkpt>
      <trkpt lat="45.46386" lon="3.26763">
        <ele>390</ele>
        <time>2012-11-14T14:52:39Z</time>
      </trkpt>
      <trkpt lat="45.46388" lon="3.26732">
        <ele>389</ele>
        <time>2012-11-14T14:52:43Z</time>
      </trkpt>
      <trkpt lat="45.46395" lon="3.26703">
        <ele>389</ele>
        <time>2012-11-14T14:52:47Z</time>
      </trkpt>
      <trkpt lat="45.46398" lon="3.26671">
        <ele>389</ele>
        <time>2012-11-14T14:52:51Z</time>
      </trkpt>
      <trkpt lat="45.46402" lon="3.26645">
        <ele>390</ele>
        <time>2012-11-14T14:52:54Z</time>
      </trkpt>
      <trkpt lat="45.46417" lon="3.26623">
        <ele>389</ele>
        <time>2012-11-14T14:52:58Z</time>
      </trkpt>
      <trkpt lat="45.46436" lon="3.26602">
        <ele>389</ele>
        <time>2012-11-14T14:53:02Z</time>
      </trkpt>
      <trkpt lat="45.46455" lon="3.26595">
        <ele>388</ele>
        <time>2012-11-14T14:53:06Z</time>
      </trkpt>
      <trkpt lat="45.46476" lon="3.26593">
        <ele>388</ele>
        <time>2012-11-14T14:53:10Z</time>
      </trkpt>
      <trkpt lat="45.46497" lon="3.26587">
        <ele>387</ele>
        <time>2012-11-14T14:53:14Z</time>
      </trkpt>
      <trkpt lat="45.46518" lon="3.26577">
        <ele>388</ele>
        <time>2012-11-14T14:53:18Z</time>
      </trkpt>
      <trkpt lat="45.46532" lon="3.26554">
        <ele>388</ele>
        <time>2012-11-14T14:53:22Z</time>
      </trkpt>
      <trkpt lat="45.46536" lon="3.26524">
        <ele>388</ele>
        <time>2012-11-14T14:53:26Z</time>
      </trkpt>
      <trkpt lat="45.4654" lon="3.265">
        <ele>390</ele>
        <time>2012-11-14T14:53:30Z</time>
      </trkpt>
      <trkpt lat="45.46541" lon="3.26471">
        <ele>390</ele>
        <time>2012-11-14T14:53:36Z</time>
      </trkpt>
      <trkpt lat="45.46556" lon="3.26458">
        <ele>390</ele>
        <time>2012-11-14T14:53:44Z</time>
      </trkpt>
      <trkpt lat="45.46575" lon="3.26458">
        <ele>390</ele>
        <time>2012-11-14T14:53:49Z</time>
      </trkpt>
      <trkpt lat="45.46596" lon="3.26455">
        <ele>391</ele>
        <time>2012-11-14T14:53:54Z</time>
      </trkpt>
      <trkpt lat="45.46615" lon="3.26452">
        <ele>391</ele>
        <time>2012-11-14T14:53:57Z</time>
      </trkpt>
      <trkpt lat="45.46635" lon="3.26446">
        <ele>391</ele>
        <time>2012-11-14T14:54:02Z</time>
      </trkpt>
      <trkpt lat="45.46657" lon="3.26441">
        <ele>391</ele>
        <time>2012-11-14T14:54:06Z</time>
      </trkpt>
      <trkpt lat="45.46664" lon="3.26411">
        <ele>392</ele>
        <time>2012-11-14T14:54:10Z</time>
      </trkpt>
      <trkpt lat="45.46667" lon="3.26385">
        <ele>392</ele>
        <time>2012-11-14T14:54:13Z</time>
      </trkpt>
      <trkpt lat="45.46665" lon="3.26356">
        <ele>392</ele>
        <time>2012-11-14T14:54:17Z</time>
      </trkpt>
      <trkpt lat="45.46657" lon="3.26328">
        <ele>392</ele>
        <time>2012-11-14T14:54:21Z</time>
      </trkpt>
      <trkpt lat="45.46648" lon="3.26301">
        <ele>391</ele>
        <time>2012-11-14T14:54:25Z</time>
      </trkpt>
      <trkpt lat="45.46637" lon="3.26274">
        <ele>391</ele>
        <time>2012-11-14T14:54:29Z</time>
      </trkpt>
      <trkpt lat="45.46632" lon="3.26249">
        <ele>391</ele>
        <time>2012-11-14T14:54:34Z</time>
      </trkpt>
      <trkpt lat="45.46645" lon="3.26227">
        <ele>391</ele>
        <time>2012-11-14T14:54:39Z</time>
      </trkpt>
      <trkpt lat="45.46661" lon="3.26207">
        <ele>391</ele>
        <time>2012-11-14T14:54:43Z</time>
      </trkpt>
      <trkpt lat="45.46679" lon="3.26193">
        <ele>392</ele>
        <time>2012-11-14T14:54:47Z</time>
      </trkpt>
      <trkpt lat="45.46699" lon="3.2618">
        <ele>392</ele>
        <time>2012-11-14T14:54:51Z</time>
      </trkpt>
      <trkpt lat="45.46716" lon="3.26171">
        <ele>392</ele>
        <time>2012-11-14T14:54:54Z</time>
      </trkpt>
      <trkpt lat="45.46738" lon="3.26161">
        <ele>392</ele>
        <time>2012-11-14T14:54:58Z</time>
      </trkpt>
      <trkpt lat="45.4676" lon="3.26151">
        <ele>392</ele>
        <time>2012-11-14T14:55:02Z</time>
      </trkpt>
      <trkpt lat="45.46778" lon="3.26143">
        <ele>392</ele>
        <time>2012-11-14T14:55:05Z</time>
      </trkpt>
      <trkpt lat="45.468" lon="3.26134">
        <ele>392</ele>
        <time>2012-11-14T14:55:09Z</time>
      </trkpt>
      <trkpt lat="45.46818" lon="3.26127">
        <ele>392</ele>
        <time>2012-11-14T14:55:12Z</time>
      </trkpt>
      <trkpt lat="45.46841" lon="3.26122">
        <ele>392</ele>
        <time>2012-11-14T14:55:16Z</time>
      </trkpt>
      <trkpt lat="45.4686" lon="3.26116">
        <ele>392</ele>
        <time>2012-11-14T14:55:19Z</time>
      </trkpt>
      <trkpt lat="45.46884" lon="3.26111">
        <ele>392</ele>
        <time>2012-11-14T14:55:23Z</time>
      </trkpt>
      <trkpt lat="45.46901" lon="3.26103">
        <ele>392</ele>
        <time>2012-11-14T14:55:26Z</time>
      </trkpt>
      <trkpt lat="45.46919" lon="3.26097">
        <ele>392</ele>
        <time>2012-11-14T14:55:29Z</time>
      </trkpt>
      <trkpt lat="45.46943" lon="3.26092">
        <ele>392</ele>
        <time>2012-11-14T14:55:33Z</time>
      </trkpt>
      <trkpt lat="45.46961" lon="3.26088">
        <ele>392</ele>
        <time>2012-11-14T14:55:36Z</time>
      </trkpt>
      <trkpt lat="45.46984" lon="3.26077">
        <ele>393</ele>
        <time>2012-11-14T14:55:40Z</time>
      </trkpt>
      <trkpt lat="45.47005" lon="3.26067">
        <ele>393</ele>
        <time>2012-11-14T14:55:44Z</time>
      </trkpt>
      <trkpt lat="45.47025" lon="3.26058">
        <ele>394</ele>
        <time>2012-11-14T14:55:48Z</time>
      </trkpt>
      <trkpt lat="45.47032" lon="3.26031">
        <ele>394</ele>
        <time>2012-11-14T14:55:52Z</time>
      </trkpt>
      <trkpt lat="45.47044" lon="3.26005">
        <ele>395</ele>
        <time>2012-11-14T14:55:56Z</time>
      </trkpt>
      <trkpt lat="45.47062" lon="3.2599">
        <ele>399</ele>
        <time>2012-11-14T14:56:00Z</time>
      </trkpt>
      <trkpt lat="45.47082" lon="3.25981">
        <ele>399</ele>
        <time>2012-11-14T14:56:05Z</time>
      </trkpt>
      <trkpt lat="45.47099" lon="3.25971">
        <ele>399</ele>
        <time>2012-11-14T14:56:10Z</time>
      </trkpt>
      <trkpt lat="45.47102" lon="3.25945">
        <ele>401</ele>
        <time>2012-11-14T14:56:19Z</time>
      </trkpt>
      <trkpt lat="45.47089" lon="3.25923">
        <ele>404</ele>
        <time>2012-11-14T14:56:29Z</time>
      </trkpt>
      <trkpt lat="45.47076" lon="3.25906">
        <ele>407</ele>
        <time>2012-11-14T14:56:40Z</time>
      </trkpt>
      <trkpt lat="45.47071" lon="3.25882">
        <ele>408</ele>
        <time>2012-11-14T14:56:52Z</time>
      </trkpt>
      <trkpt lat="45.47078" lon="3.25857">
        <ele>412</ele>
        <time>2012-11-14T14:57:08Z</time>
      </trkpt>
      <trkpt lat="45.47074" lon="3.25831">
        <ele>418</ele>
        <time>2012-11-14T14:57:25Z</time>
      </trkpt>
      <trkpt lat="45.47069" lon="3.25805">
        <ele>417</ele>
        <time>2012-11-14T14:57:40Z</time>
      </trkpt>
      <trkpt lat="45.47066" lon="3.25778">
        <ele>419</ele>
        <time>2012-11-14T14:57:52Z</time>
      </trkpt>
      <trkpt lat="45.4706" lon="3.25753">
        <ele>420</ele>
        <time>2012-11-14T14:58:05Z</time>
      </trkpt>
      <trkpt lat="45.47053" lon="3.25729">
        <ele>422</ele>
        <time>2012-11-14T14:58:17Z</time>
      </trkpt>
      <trkpt lat="45.47045" lon="3.25705">
        <ele>422</ele>
        <time>2012-11-14T14:58:26Z</time>
      </trkpt>
      <trkpt lat="45.47037" lon="3.25681">
        <ele>422</ele>
        <time>2012-11-14T14:58:33Z</time>
      </trkpt>
      <trkpt lat="45.47027" lon="3.25658">
        <ele>425</ele>
        <time>2012-11-14T14:58:39Z</time>
      </trkpt>
      <trkpt lat="45.47018" lon="3.25634">
        <ele>425</ele>
        <time>2012-11-14T14:58:45Z</time>
      </trkpt>
      <trkpt lat="45.47011" lon="3.25609">
        <ele>426</ele>
        <time>2012-11-14T14:58:50Z</time>
      </trkpt>
      <trkpt lat="45.47004" lon="3.25582">
        <ele>428</ele>
        <time>2012-11-14T14:58:56Z</time>
      </trkpt>
      <trkpt lat="45.46998" lon="3.25554">
        <ele>425</ele>
        <time>2012-11-14T14:59:02Z</time>
      </trkpt>
      <trkpt lat="45.46989" lon="3.25526">
        <ele>427</ele>
        <time>2012-11-14T14:59:07Z</time>
      </trkpt>
      <trkpt lat="45.4698" lon="3.255">
        <ele>428</ele>
        <time>2012-11-14T14:59:13Z</time>
      </trkpt>
      <trkpt lat="45.4697" lon="3.25476">
        <ele>430</ele>
        <time>2012-11-14T14:59:18Z</time>
      </trkpt>
      <trkpt lat="45.4696" lon="3.25452">
        <ele>430</ele>
        <time>2012-11-14T14:59:23Z</time>
      </trkpt>
      <trkpt lat="45.4695" lon="3.25429">
        <ele>429</ele>
        <time>2012-11-14T14:59:28Z</time>
      </trkpt>
      <trkpt lat="45.46937" lon="3.25403">
        <ele>431</ele>
        <time>2012-11-14T14:59:33Z</time>
      </trkpt>
      <trkpt lat="45.46924" lon="3.25378">
        <ele>431</ele>
        <time>2012-11-14T14:59:38Z</time>
      </trkpt>
      <trkpt lat="45.46912" lon="3.25354">
        <ele>427</ele>
        <time>2012-11-14T14:59:43Z</time>
      </trkpt>
      <trkpt lat="45.46902" lon="3.25333">
        <ele>430</ele>
        <time>2012-11-14T14:59:47Z</time>
      </trkpt>
      <trkpt lat="45.4689" lon="3.25305">
        <ele>428</ele>
        <time>2012-11-14T14:59:52Z</time>
      </trkpt>
      <trkpt lat="45.46879" lon="3.25284">
        <ele>428</ele>
        <time>2012-11-14T14:59:56Z</time>
      </trkpt>
      <trkpt lat="45.4687" lon="3.25256">
        <ele>428</ele>
        <time>2012-11-14T15:00:01Z</time>
      </trkpt>
      <trkpt lat="45.46863" lon="3.2523">
        <ele>431</ele>
        <time>2012-11-14T15:00:05Z</time>
      </trkpt>
      <trkpt lat="45.46854" lon="3.25201">
        <ele>432</ele>
        <time>2012-11-14T15:00:10Z</time>
      </trkpt>
      <trkpt lat="45.46855" lon="3.25171">
        <ele>432</ele>
        <time>2012-11-14T15:00:15Z</time>
      </trkpt>
      <trkpt lat="45.46874" lon="3.25162">
        <ele>434</ele>
        <time>2012-11-14T15:00:20Z</time>
      </trkpt>
      <trkpt lat="45.46892" lon="3.25154">
        <ele>435</ele>
        <time>2012-11-14T15:00:24Z</time>
      </trkpt>
      <trkpt lat="45.46911" lon="3.25141">
        <ele>435</ele>
        <time>2012-11-14T15:00:28Z</time>
      </trkpt>
      <trkpt lat="45.46931" lon="3.25128">
        <ele>436</ele>
        <time>2012-11-14T15:00:32Z</time>
      </trkpt>
      <trkpt lat="45.46951" lon="3.25116">
        <ele>435</ele>
        <time>2012-11-14T15:00:36Z</time>
      </trkpt>
      <trkpt lat="45.46969" lon="3.25104">
        <ele>435</ele>
        <time>2012-11-14T15:00:40Z</time>
      </trkpt>
      <trkpt lat="45.46986" lon="3.25094">
        <ele>435</ele>
        <time>2012-11-14T15:00:43Z</time>
      </trkpt>
      <trkpt lat="45.47003" lon="3.25082">
        <ele>434</ele>
        <time>2012-11-14T15:00:46Z</time>
      </trkpt>
      <trkpt lat="45.47022" lon="3.25071">
        <ele>434</ele>
        <time>2012-11-14T15:00:49Z</time>
      </trkpt>
      <trkpt lat="45.47041" lon="3.25059">
        <ele>434</ele>
        <time>2012-11-14T15:00:52Z</time>
      </trkpt>
      <trkpt lat="45.47061" lon="3.25047">
        <ele>434</ele>
        <time>2012-11-14T15:00:55Z</time>
      </trkpt>
      <trkpt lat="45.47077" lon="3.25035">
        <ele>434</ele>
        <time>2012-11-14T15:00:58Z</time>
      </trkpt>
      <trkpt lat="45.47094" lon="3.25024">
        <ele>432</ele>
        <time>2012-11-14T15:01:01Z</time>
      </trkpt>
      <trkpt lat="45.47115" lon="3.25011">
        <ele>432</ele>
        <time>2012-11-14T15:01:05Z</time>
      </trkpt>
      <trkpt lat="45.47131" lon="3.25001">
        <ele>432</ele>
        <time>2012-11-14T15:01:08Z</time>
      </trkpt>
      <trkpt lat="45.47149" lon="3.2499">
        <ele>434</ele>
        <time>2012-11-14T15:01:11Z</time>
      </trkpt>
      <trkpt lat="45.47168" lon="3.24978">
        <ele>434</ele>
        <time>2012-11-14T15:01:14Z</time>
      </trkpt>
      <trkpt lat="45.47187" lon="3.2497">
        <ele>434</ele>
        <time>2012-11-14T15:01:17Z</time>
      </trkpt>
      <trkpt lat="45.47204" lon="3.24959">
        <ele>434</ele>
        <time>2012-11-14T15:01:20Z</time>
      </trkpt>
      <trkpt lat="45.47225" lon="3.24947">
        <ele>434</ele>
        <time>2012-11-14T15:01:24Z</time>
      </trkpt>
      <trkpt lat="45.47244" lon="3.24936">
        <ele>435</ele>
        <time>2012-11-14T15:01:28Z</time>
      </trkpt>
      <trkpt lat="45.4726" lon="3.24924">
        <ele>436</ele>
        <time>2012-11-14T15:01:32Z</time>
      </trkpt>
      <trkpt lat="45.47274" lon="3.24902">
        <ele>439</ele>
        <time>2012-11-14T15:01:37Z</time>
      </trkpt>
      <trkpt lat="45.47284" lon="3.24877">
        <ele>440</ele>
        <time>2012-11-14T15:01:42Z</time>
      </trkpt>
      <trkpt lat="45.47291" lon="3.2485">
        <ele>441</ele>
        <time>2012-11-14T15:01:49Z</time>
      </trkpt>
      <trkpt lat="45.473" lon="3.24825">
        <ele>443</ele>
        <time>2012-11-14T15:01:55Z</time>
      </trkpt>
      <trkpt lat="45.47315" lon="3.24805">
        <ele>443</ele>
        <time>2012-11-14T15:02:03Z</time>
      </trkpt>
      <trkpt lat="45.47333" lon="3.24795">
        <ele>443</ele>
        <time>2012-11-14T15:02:11Z</time>
      </trkpt>
      <trkpt lat="45.47351" lon="3.24787">
        <ele>445</ele>
        <time>2012-11-14T15:02:21Z</time>
      </trkpt>
      <trkpt lat="45.47367" lon="3.24775">
        <ele>445</ele>
        <time>2012-11-14T15:02:34Z</time>
      </trkpt>
      <trkpt lat="45.47383" lon="3.24758">
        <ele>446</ele>
        <time>2012-11-14T15:02:46Z</time>
      </trkpt>
      <trkpt lat="45.47403" lon="3.24747">
        <ele>445</ele>
        <time>2012-11-14T15:02:54Z</time>
      </trkpt>
      <trkpt lat="45.47424" lon="3.24735">
        <ele>445</ele>
        <time>2012-11-14T15:02:59Z</time>
      </trkpt>
      <trkpt lat="45.47448" lon="3.24732">
        <ele>445</ele>
        <time>2012-11-14T15:03:03Z</time>
      </trkpt>
      <trkpt lat="45.47465" lon="3.24724">
        <ele>445</ele>
        <time>2012-11-14T15:03:06Z</time>
      </trkpt>
      <trkpt lat="45.47475" lon="3.24699">
        <ele>444</ele>
        <time>2012-11-14T15:03:09Z</time>
      </trkpt>
      <trkpt lat="45.47475" lon="3.24667">
        <ele>441</ele>
        <time>2012-11-14T15:03:13Z</time>
      </trkpt>
      <trkpt lat="45.47472" lon="3.24633">
        <ele>442</ele>
        <time>2012-11-14T15:03:17Z</time>
      </trkpt>
      <trkpt lat="45.47461" lon="3.2461">
        <ele>442</ele>
        <time>2012-11-14T15:03:21Z</time>
      </trkpt>
      <trkpt lat="45.47442" lon="3.24616">
        <ele>443</ele>
        <time>2012-11-14T15:03:25Z</time>
      </trkpt>
      <trkpt lat="45.47421" lon="3.24623">
        <ele>443</ele>
        <time>2012-11-14T15:03:30Z</time>
      </trkpt>
      <trkpt lat="45.47402" lon="3.24624">
        <ele>447</ele>
        <time>2012-11-14T15:03:36Z</time>
      </trkpt>
      <trkpt lat="45.47381" lon="3.24624">
        <ele>447</ele>
        <time>2012-11-14T15:03:46Z</time>
      </trkpt>
      <trkpt lat="45.47363" lon="3.24625">
        <ele>447</ele>
        <time>2012-11-14T15:03:53Z</time>
      </trkpt>
      <trkpt lat="45.47342" lon="3.24628">
        <ele>447</ele>
        <time>2012-11-14T15:04:01Z</time>
      </trkpt>
      <trkpt lat="45.47324" lon="3.24627">
        <ele>447</ele>
        <time>2012-11-14T15:04:07Z</time>
      </trkpt>
      <trkpt lat="45.47304" lon="3.2464">
        <ele>447</ele>
        <time>2012-11-14T15:04:11Z</time>
      </trkpt>
      <trkpt lat="45.47285" lon="3.24656">
        <ele>446</ele>
        <time>2012-11-14T15:04:14Z</time>
      </trkpt>
      <trkpt lat="45.47262" lon="3.24668">
        <ele>443</ele>
        <time>2012-11-14T15:04:17Z</time>
      </trkpt>
      <trkpt lat="45.47238" lon="3.24678">
        <ele>442</ele>
        <time>2012-11-14T15:04:20Z</time>
      </trkpt>
      <trkpt lat="45.47221" lon="3.24687">
        <ele>441</ele>
        <time>2012-11-14T15:04:22Z</time>
      </trkpt>
      <trkpt lat="45.47202" lon="3.24691">
        <ele>441</ele>
        <time>2012-11-14T15:04:24Z</time>
      </trkpt>
      <trkpt lat="45.47178" lon="3.24679">
        <ele>440</ele>
        <time>2012-11-14T15:04:27Z</time>
      </trkpt>
      <trkpt lat="45.47158" lon="3.24665">
        <ele>440</ele>
        <time>2012-11-14T15:04:30Z</time>
      </trkpt>
      <trkpt lat="45.47142" lon="3.24651">
        <ele>440</ele>
        <time>2012-11-14T15:04:33Z</time>
      </trkpt>
      <trkpt lat="45.47124" lon="3.24637">
        <ele>440</ele>
        <time>2012-11-14T15:04:36Z</time>
      </trkpt>
      <trkpt lat="45.47105" lon="3.24625">
        <ele>440</ele>
        <time>2012-11-14T15:04:39Z</time>
      </trkpt>
      <trkpt lat="45.47086" lon="3.24628">
        <ele>440</ele>
        <time>2012-11-14T15:04:42Z</time>
      </trkpt>
      <trkpt lat="45.47065" lon="3.2462">
        <ele>439</ele>
        <time>2012-11-14T15:04:46Z</time>
      </trkpt>
      <trkpt lat="45.47058" lon="3.24591">
        <ele>439</ele>
        <time>2012-11-14T15:04:50Z</time>
      </trkpt>
      <trkpt lat="45.47049" lon="3.24561">
        <ele>440</ele>
        <time>2012-11-14T15:04:54Z</time>
      </trkpt>
      <trkpt lat="45.47043" lon="3.24536">
        <ele>440</ele>
        <time>2012-11-14T15:04:57Z</time>
      </trkpt>
      <trkpt lat="45.47036" lon="3.24511">
        <ele>440</ele>
        <time>2012-11-14T15:05:00Z</time>
      </trkpt>
      <trkpt lat="45.4703" lon="3.24479">
        <ele>441</ele>
        <time>2012-11-14T15:05:04Z</time>
      </trkpt>
      <trkpt lat="45.47023" lon="3.24447">
        <ele>441</ele>
        <time>2012-11-14T15:05:08Z</time>
      </trkpt>
      <trkpt lat="45.47014" lon="3.24417">
        <ele>441</ele>
        <time>2012-11-14T15:05:12Z</time>
      </trkpt>
      <trkpt lat="45.47006" lon="3.24387">
        <ele>442</ele>
        <time>2012-11-14T15:05:16Z</time>
      </trkpt>
      <trkpt lat="45.46999" lon="3.2436">
        <ele>442</ele>
        <time>2012-11-14T15:05:20Z</time>
      </trkpt>
      <trkpt lat="45.46993" lon="3.24334">
        <ele>443</ele>
        <time>2012-11-14T15:05:24Z</time>
      </trkpt>
      <trkpt lat="45.46987" lon="3.24306">
        <ele>443</ele>
        <time>2012-11-14T15:05:28Z</time>
      </trkpt>
      <trkpt lat="45.4698" lon="3.24279">
        <ele>444</ele>
        <time>2012-11-14T15:05:32Z</time>
      </trkpt>
      <trkpt lat="45.46974" lon="3.24254">
        <ele>444</ele>
        <time>2012-11-14T15:05:36Z</time>
      </trkpt>
      <trkpt lat="45.46968" lon="3.24228">
        <ele>444</ele>
        <time>2012-11-14T15:05:40Z</time>
      </trkpt>
      <trkpt lat="45.46963" lon="3.24203">
        <ele>444</ele>
        <time>2012-11-14T15:05:44Z</time>
      </trkpt>
      <trkpt lat="45.46951" lon="3.24181">
        <ele>444</ele>
        <time>2012-11-14T15:05:48Z</time>
      </trkpt>
      <trkpt lat="45.46933" lon="3.24164">
        <ele>444</ele>
        <time>2012-11-14T15:05:52Z</time>
      </trkpt>
      <trkpt lat="45.46913" lon="3.24147">
        <ele>443</ele>
        <time>2012-11-14T15:05:56Z</time>
      </trkpt>
      <trkpt lat="45.46894" lon="3.2413">
        <ele>442</ele>
        <time>2012-11-14T15:06:00Z</time>
      </trkpt>
      <trkpt lat="45.46878" lon="3.2411">
        <ele>442</ele>
        <time>2012-11-14T15:06:04Z</time>
      </trkpt>
      <trkpt lat="45.46863" lon="3.24086">
        <ele>442</ele>
        <time>2012-11-14T15:06:08Z</time>
      </trkpt>
      <trkpt lat="45.46852" lon="3.24064">
        <ele>442</ele>
        <time>2012-11-14T15:06:11Z</time>
      </trkpt>
      <trkpt lat="45.46841" lon="3.24038">
        <ele>442</ele>
        <time>2012-11-14T15:06:14Z</time>
      </trkpt>
      <trkpt lat="45.46833" lon="3.24012">
        <ele>441</ele>
        <time>2012-11-14T15:06:17Z</time>
      </trkpt>
      <trkpt lat="45.46822" lon="3.23986">
        <ele>441</ele>
        <time>2012-11-14T15:06:20Z</time>
      </trkpt>
      <trkpt lat="45.46808" lon="3.2396">
        <ele>440</ele>
        <time>2012-11-14T15:06:23Z</time>
      </trkpt>
      <trkpt lat="45.46796" lon="3.23929">
        <ele>440</ele>
        <time>2012-11-14T15:06:26Z</time>
      </trkpt>
      <trkpt lat="45.46788" lon="3.23906">
        <ele>437</ele>
        <time>2012-11-14T15:06:28Z</time>
      </trkpt>
      <trkpt lat="45.46777" lon="3.23882">
        <ele>436</ele>
        <time>2012-11-14T15:06:30Z</time>
      </trkpt>
      <trkpt lat="45.46766" lon="3.2386">
        <ele>435</ele>
        <time>2012-11-14T15:06:32Z</time>
      </trkpt>
      <trkpt lat="45.46753" lon="3.23839">
        <ele>434</ele>
        <time>2012-11-14T15:06:34Z</time>
      </trkpt>
      <trkpt lat="45.46739" lon="3.23819">
        <ele>432</ele>
        <time>2012-11-14T15:06:36Z</time>
      </trkpt>
      <trkpt lat="45.46725" lon="3.23798">
        <ele>431</ele>
        <time>2012-11-14T15:06:38Z</time>
      </trkpt>
      <trkpt lat="45.46709" lon="3.2378">
        <ele>431</ele>
        <time>2012-11-14T15:06:40Z</time>
      </trkpt>
      <trkpt lat="45.46692" lon="3.23762">
        <ele>430</ele>
        <time>2012-11-14T15:06:42Z</time>
      </trkpt>
      <trkpt lat="45.46675" lon="3.23746">
        <ele>427</ele>
        <time>2012-11-14T15:06:44Z</time>
      </trkpt>
      <trkpt lat="45.46658" lon="3.23732">
        <ele>425</ele>
        <time>2012-11-14T15:06:46Z</time>
      </trkpt>
      <trkpt lat="45.46638" lon="3.23718">
        <ele>423</ele>
        <time>2012-11-14T15:06:48Z</time>
      </trkpt>
      <trkpt lat="45.46622" lon="3.23699">
        <ele>422</ele>
        <time>2012-11-14T15:06:50Z</time>
      </trkpt>
      <trkpt lat="45.46608" lon="3.23677">
        <ele>421</ele>
        <time>2012-11-14T15:06:52Z</time>
      </trkpt>
      <trkpt lat="45.466" lon="3.23654">
        <ele>418</ele>
        <time>2012-11-14T15:06:54Z</time>
      </trkpt>
      <trkpt lat="45.46596" lon="3.23623">
        <ele>418</ele>
        <time>2012-11-14T15:06:57Z</time>
      </trkpt>
      <trkpt lat="45.46612" lon="3.23601">
        <ele>417</ele>
        <time>2012-11-14T15:07:00Z</time>
      </trkpt>
      <trkpt lat="45.4663" lon="3.23589">
        <ele>417</ele>
        <time>2012-11-14T15:07:04Z</time>
      </trkpt>
      <trkpt lat="45.46633" lon="3.23564">
        <ele>415</ele>
        <time>2012-11-14T15:07:13Z</time>
      </trkpt>
      <trkpt lat="45.46616" lon="3.2357">
        <ele>415</ele>
        <time>2012-11-14T15:07:19Z</time>
      </trkpt>
      <trkpt lat="45.46596" lon="3.23583">
        <ele>415</ele>
        <time>2012-11-14T15:07:23Z</time>
      </trkpt>
      <trkpt lat="45.46576" lon="3.23597">
        <ele>414</ele>
        <time>2012-11-14T15:07:27Z</time>
      </trkpt>
      <trkpt lat="45.46556" lon="3.23609">
        <ele>414</ele>
        <time>2012-11-14T15:07:30Z</time>
      </trkpt>
      <trkpt lat="45.46537" lon="3.2362">
        <ele>413</ele>
        <time>2012-11-14T15:07:33Z</time>
      </trkpt>
      <trkpt lat="45.46517" lon="3.23633">
        <ele>412</ele>
        <time>2012-11-14T15:07:36Z</time>
      </trkpt>
      <trkpt lat="45.46494" lon="3.23649">
        <ele>409</ele>
        <time>2012-11-14T15:07:39Z</time>
      </trkpt>
      <trkpt lat="45.46477" lon="3.23661">
        <ele>409</ele>
        <time>2012-11-14T15:07:42Z</time>
      </trkpt>
      <trkpt lat="45.4648" lon="3.23633">
        <ele>408</ele>
        <time>2012-11-14T15:07:51Z</time>
      </trkpt>
      <trkpt lat="45.46498" lon="3.23613">
        <ele>408</ele>
        <time>2012-11-14T15:07:55Z</time>
      </trkpt>
      <trkpt lat="45.46516" lon="3.23593">
        <ele>411</ele>
        <time>2012-11-14T15:07:59Z</time>
      </trkpt>
      <trkpt lat="45.46535" lon="3.23572">
        <ele>411</ele>
        <time>2012-11-14T15:08:03Z</time>
      </trkpt>
      <trkpt lat="45.4655" lon="3.23548">
        <ele>412</ele>
        <time>2012-11-14T15:08:07Z</time>
      </trkpt>
      <trkpt lat="45.46566" lon="3.23526">
        <ele>412</ele>
        <time>2012-11-14T15:08:11Z</time>
      </trkpt>
      <trkpt lat="45.46578" lon="3.23502">
        <ele>412</ele>
        <time>2012-11-14T15:08:15Z</time>
      </trkpt>
      <trkpt lat="45.46591" lon="3.23483">
        <ele>413</ele>
        <time>2012-11-14T15:08:19Z</time>
      </trkpt>
      <trkpt lat="45.46612" lon="3.23472">
        <ele>413</ele>
        <time>2012-11-14T15:08:23Z</time>
      </trkpt>
      <trkpt lat="45.46631" lon="3.23461">
        <ele>413</ele>
        <time>2012-11-14T15:08:28Z</time>
      </trkpt>
      <trkpt lat="45.4665" lon="3.23455">
        <ele>413</ele>
        <time>2012-11-14T15:08:32Z</time>
      </trkpt>
      <trkpt lat="45.46671" lon="3.23445">
        <ele>414</ele>
        <time>2012-11-14T15:08:37Z</time>
      </trkpt>
      <trkpt lat="45.46691" lon="3.23437">
        <ele>414</ele>
        <time>2012-11-14T15:08:41Z</time>
      </trkpt>
      <trkpt lat="45.46712" lon="3.23426">
        <ele>414</ele>
        <time>2012-11-14T15:08:45Z</time>
      </trkpt>
      <trkpt lat="45.46731" lon="3.23413">
        <ele>413</ele>
        <time>2012-11-14T15:08:49Z</time>
      </trkpt>
      <trkpt lat="45.46751" lon="3.234">
        <ele>413</ele>
        <time>2012-11-14T15:08:53Z</time>
      </trkpt>
      <trkpt lat="45.46772" lon="3.23387">
        <ele>413</ele>
        <time>2012-11-14T15:08:57Z</time>
      </trkpt>
      <trkpt lat="45.46791" lon="3.23371">
        <ele>413</ele>
        <time>2012-11-14T15:09:01Z</time>
      </trkpt>
      <trkpt lat="45.46807" lon="3.23354">
        <ele>412</ele>
        <time>2012-11-14T15:09:05Z</time>
      </trkpt>
      <trkpt lat="45.46824" lon="3.23344">
        <ele>411</ele>
        <time>2012-11-14T15:09:08Z</time>
      </trkpt>
      <trkpt lat="45.46842" lon="3.23333">
        <ele>411</ele>
        <time>2012-11-14T15:09:12Z</time>
      </trkpt>
      <trkpt lat="45.46864" lon="3.23328">
        <ele>409</ele>
        <time>2012-11-14T15:09:16Z</time>
      </trkpt>
      <trkpt lat="45.46882" lon="3.23321">
        <ele>408</ele>
        <time>2012-11-14T15:09:19Z</time>
      </trkpt>
      <trkpt lat="45.46899" lon="3.23313">
        <ele>408</ele>
        <time>2012-11-14T15:09:22Z</time>
      </trkpt>
      <trkpt lat="45.46919" lon="3.23299">
        <ele>407</ele>
        <time>2012-11-14T15:09:25Z</time>
      </trkpt>
      <trkpt lat="45.46941" lon="3.23279">
        <ele>406</ele>
        <time>2012-11-14T15:09:28Z</time>
      </trkpt>
      <trkpt lat="45.46959" lon="3.23263">
        <ele>406</ele>
        <time>2012-11-14T15:09:31Z</time>
      </trkpt>
      <trkpt lat="45.46977" lon="3.23243">
        <ele>404</ele>
        <time>2012-11-14T15:09:34Z</time>
      </trkpt>
      <trkpt lat="45.46993" lon="3.23226">
        <ele>404</ele>
        <time>2012-11-14T15:09:37Z</time>
      </trkpt>
      <trkpt lat="45.47014" lon="3.23208">
        <ele>403</ele>
        <time>2012-11-14T15:09:40Z</time>
      </trkpt>
      <trkpt lat="45.4703" lon="3.23191">
        <ele>403</ele>
        <time>2012-11-14T15:09:43Z</time>
      </trkpt>
      <trkpt lat="45.47046" lon="3.23174">
        <ele>402</ele>
        <time>2012-11-14T15:09:46Z</time>
      </trkpt>
      <trkpt lat="45.47061" lon="3.2316">
        <ele>403</ele>
        <time>2012-11-14T15:09:48Z</time>
      </trkpt>
      <trkpt lat="45.47077" lon="3.23145">
        <ele>403</ele>
        <time>2012-11-14T15:09:52Z</time>
      </trkpt>
      <trkpt lat="45.47094" lon="3.23123">
        <ele>403</ele>
        <time>2012-11-14T15:09:56Z</time>
      </trkpt>
      <trkpt lat="45.4711" lon="3.23103">
        <ele>403</ele>
        <time>2012-11-14T15:10:00Z</time>
      </trkpt>
      <trkpt lat="45.47129" lon="3.23087">
        <ele>403</ele>
        <time>2012-11-14T15:10:04Z</time>
      </trkpt>
      <trkpt lat="45.47146" lon="3.2307">
        <ele>404</ele>
        <time>2012-11-14T15:10:08Z</time>
      </trkpt>
      <trkpt lat="45.4715" lon="3.2304">
        <ele>405</ele>
        <time>2012-11-14T15:10:14Z</time>
      </trkpt>
      <trkpt lat="45.47143" lon="3.2301">
        <ele>405</ele>
        <time>2012-11-14T15:10:19Z</time>
      </trkpt>
      <trkpt lat="45.47134" lon="3.22986">
        <ele>405</ele>
        <time>2012-11-14T15:10:23Z</time>
      </trkpt>
      <trkpt lat="45.47124" lon="3.2296">
        <ele>405</ele>
        <time>2012-11-14T15:10:27Z</time>
      </trkpt>
      <trkpt lat="45.47113" lon="3.22933">
        <ele>405</ele>
        <time>2012-11-14T15:10:31Z</time>
      </trkpt>
      <trkpt lat="45.47102" lon="3.22908">
        <ele>405</ele>
        <time>2012-11-14T15:10:35Z</time>
      </trkpt>
      <trkpt lat="45.47091" lon="3.22882">
        <ele>406</ele>
        <time>2012-11-14T15:10:39Z</time>
      </trkpt>
      <trkpt lat="45.47084" lon="3.22855">
        <ele>406</ele>
        <time>2012-11-14T15:10:43Z</time>
      </trkpt>
      <trkpt lat="45.4708" lon="3.22828">
        <ele>404</ele>
        <time>2012-11-14T15:10:47Z</time>
      </trkpt>
      <trkpt lat="45.47079" lon="3.228">
        <ele>404</ele>
        <time>2012-11-14T15:10:51Z</time>
      </trkpt>
      <trkpt lat="45.47079" lon="3.22771">
        <ele>405</ele>
        <time>2012-11-14T15:10:55Z</time>
      </trkpt>
      <trkpt lat="45.47078" lon="3.22742">
        <ele>405</ele>
        <time>2012-11-14T15:10:59Z</time>
      </trkpt>
      <trkpt lat="45.4708" lon="3.22711">
        <ele>406</ele>
        <time>2012-11-14T15:11:03Z</time>
      </trkpt>
      <trkpt lat="45.47081" lon="3.22682">
        <ele>406</ele>
        <time>2012-11-14T15:11:07Z</time>
      </trkpt>
      <trkpt lat="45.47081" lon="3.22653">
        <ele>407</ele>
        <time>2012-11-14T15:11:11Z</time>
      </trkpt>
      <trkpt lat="45.47081" lon="3.22623">
        <ele>407</ele>
        <time>2012-11-14T15:11:15Z</time>
      </trkpt>
      <trkpt lat="45.47082" lon="3.22592">
        <ele>408</ele>
        <time>2012-11-14T15:11:19Z</time>
      </trkpt>
      <trkpt lat="45.47084" lon="3.22563">
        <ele>409</ele>
        <time>2012-11-14T15:11:23Z</time>
      </trkpt>
      <trkpt lat="45.4709" lon="3.22534">
        <ele>409</ele>
        <time>2012-11-14T15:11:27Z</time>
      </trkpt>
      <trkpt lat="45.47097" lon="3.22506">
        <ele>408</ele>
        <time>2012-11-14T15:11:31Z</time>
      </trkpt>
      <trkpt lat="45.47106" lon="3.22478">
        <ele>408</ele>
        <time>2012-11-14T15:11:35Z</time>
      </trkpt>
      <trkpt lat="45.47117" lon="3.22448">
        <ele>408</ele>
        <time>2012-11-14T15:11:39Z</time>
      </trkpt>
      <trkpt lat="45.47128" lon="3.2242">
        <ele>408</ele>
        <time>2012-11-14T15:11:43Z</time>
      </trkpt>
      <trkpt lat="45.47137" lon="3.22392">
        <ele>407</ele>
        <time>2012-11-14T15:11:47Z</time>
      </trkpt>
      <trkpt lat="45.47146" lon="3.22363">
        <ele>407</ele>
        <time>2012-11-14T15:11:51Z</time>
      </trkpt>
      <trkpt lat="45.47154" lon="3.22338">
        <ele>408</ele>
        <time>2012-11-14T15:11:55Z</time>
      </trkpt>
      <trkpt lat="45.47159" lon="3.2231">
        <ele>408</ele>
        <time>2012-11-14T15:12:01Z</time>
      </trkpt>
      <trkpt lat="45.47173" lon="3.22293">
        <ele>410</ele>
        <time>2012-11-14T15:14:08Z</time>
      </trkpt>
      <trkpt lat="45.47188" lon="3.22275">
        <ele>410</ele>
        <time>2012-11-14T15:14:14Z</time>
      </trkpt>
      <trkpt lat="45.47207" lon="3.22261">
        <ele>410</ele>
        <time>2012-11-14T15:14:20Z</time>
      </trkpt>
      <trkpt lat="45.47223" lon="3.22249">
        <ele>410</ele>
        <time>2012-11-14T15:14:24Z</time>
      </trkpt>
      <trkpt lat="45.47243" lon="3.22233">
        <ele>410</ele>
        <time>2012-11-14T15:14:29Z</time>
      </trkpt>
      <trkpt lat="45.47259" lon="3.22221">
        <ele>413</ele>
        <time>2012-11-14T15:14:33Z</time>
      </trkpt>
      <trkpt lat="45.47277" lon="3.22207">
        <ele>413</ele>
        <time>2012-11-14T15:14:37Z</time>
      </trkpt>
      <trkpt lat="45.47294" lon="3.22191">
        <ele>413</ele>
        <time>2012-11-14T15:14:41Z</time>
      </trkpt>
      <trkpt lat="45.47311" lon="3.22177">
        <ele>414</ele>
        <time>2012-11-14T15:14:45Z</time>
      </trkpt>
      <trkpt lat="45.47328" lon="3.22162">
        <ele>413</ele>
        <time>2012-11-14T15:14:49Z</time>
      </trkpt>
      <trkpt lat="45.47346" lon="3.22148">
        <ele>414</ele>
        <time>2012-11-14T15:14:53Z</time>
      </trkpt>
      <trkpt lat="45.47362" lon="3.22133">
        <ele>414</ele>
        <time>2012-11-14T15:14:57Z</time>
      </trkpt>
      <trkpt lat="45.47381" lon="3.22119">
        <ele>414</ele>
        <time>2012-11-14T15:15:01Z</time>
      </trkpt>
      <trkpt lat="45.47401" lon="3.22109">
        <ele>414</ele>
        <time>2012-11-14T15:15:05Z</time>
      </trkpt>
      <trkpt lat="45.47421" lon="3.22098">
        <ele>416</ele>
        <time>2012-11-14T15:15:09Z</time>
      </trkpt>
      <trkpt lat="45.47441" lon="3.22088">
        <ele>417</ele>
        <time>2012-11-14T15:15:13Z</time>
      </trkpt>
      <trkpt lat="45.47462" lon="3.22079">
        <ele>414</ele>
        <time>2012-11-14T15:15:17Z</time>
      </trkpt>
      <trkpt lat="45.47484" lon="3.2207">
        <ele>415</ele>
        <time>2012-11-14T15:15:21Z</time>
      </trkpt>
      <trkpt lat="45.47503" lon="3.22062">
        <ele>416</ele>
        <time>2012-11-14T15:15:25Z</time>
      </trkpt>
      <trkpt lat="45.47523" lon="3.22055">
        <ele>416</ele>
        <time>2012-11-14T15:15:29Z</time>
      </trkpt>
      <trkpt lat="45.47541" lon="3.22052">
        <ele>416</ele>
        <time>2012-11-14T15:15:33Z</time>
      </trkpt>
      <trkpt lat="45.47559" lon="3.22047">
        <ele>416</ele>
        <time>2012-11-14T15:15:37Z</time>
      </trkpt>
      <trkpt lat="45.47579" lon="3.22041">
        <ele>416</ele>
        <time>2012-11-14T15:15:41Z</time>
      </trkpt>
      <trkpt lat="45.476" lon="3.2204">
        <ele>418</ele>
        <time>2012-11-14T15:15:45Z</time>
      </trkpt>
      <trkpt lat="45.4762" lon="3.22038">
        <ele>418</ele>
        <time>2012-11-14T15:15:49Z</time>
      </trkpt>
      <trkpt lat="45.47639" lon="3.22035">
        <ele>418</ele>
        <time>2012-11-14T15:15:53Z</time>
      </trkpt>
      <trkpt lat="45.47662" lon="3.22035">
        <ele>418</ele>
        <time>2012-11-14T15:15:58Z</time>
      </trkpt>
      <trkpt lat="45.47682" lon="3.22034">
        <ele>420</ele>
        <time>2012-11-14T15:16:02Z</time>
      </trkpt>
      <trkpt lat="45.47705" lon="3.22035">
        <ele>421</ele>
        <time>2012-11-14T15:16:06Z</time>
      </trkpt>
      <trkpt lat="45.47726" lon="3.22033">
        <ele>421</ele>
        <time>2012-11-14T15:16:10Z</time>
      </trkpt>
      <trkpt lat="45.47747" lon="3.22035">
        <ele>421</ele>
        <time>2012-11-14T15:16:14Z</time>
      </trkpt>
      <trkpt lat="45.47766" lon="3.22037">
        <ele>422</ele>
        <time>2012-11-14T15:16:18Z</time>
      </trkpt>
      <trkpt lat="45.47785" lon="3.22041">
        <ele>422</ele>
        <time>2012-11-14T15:16:22Z</time>
      </trkpt>
      <trkpt lat="45.47804" lon="3.22045">
        <ele>423</ele>
        <time>2012-11-14T15:16:26Z</time>
      </trkpt>
      <trkpt lat="45.47824" lon="3.2205">
        <ele>423</ele>
        <time>2012-11-14T15:16:30Z</time>
      </trkpt>
      <trkpt lat="45.47844" lon="3.22052">
        <ele>424</ele>
        <time>2012-11-14T15:16:34Z</time>
      </trkpt>
      <trkpt lat="45.47864" lon="3.22054">
        <ele>424</ele>
        <time>2012-11-14T15:16:38Z</time>
      </trkpt>
      <trkpt lat="45.47883" lon="3.22055">
        <ele>424</ele>
        <time>2012-11-14T15:16:42Z</time>
      </trkpt>
      <trkpt lat="45.47902" lon="3.22061">
        <ele>425</ele>
        <time>2012-11-14T15:16:46Z</time>
      </trkpt>
      <trkpt lat="45.47922" lon="3.22072">
        <ele>427</ele>
        <time>2012-11-14T15:16:50Z</time>
      </trkpt>
      <trkpt lat="45.47942" lon="3.2208">
        <ele>426</ele>
        <time>2012-11-14T15:16:54Z</time>
      </trkpt>
      <trkpt lat="45.4796" lon="3.22082">
        <ele>426</ele>
        <time>2012-11-14T15:16:59Z</time>
      </trkpt>
      <trkpt lat="45.4798" lon="3.22084">
        <ele>430</ele>
        <time>2012-11-14T15:17:03Z</time>
      </trkpt>
      <trkpt lat="45.47998" lon="3.22077">
        <ele>427</ele>
        <time>2012-11-14T15:17:06Z</time>
      </trkpt>
      <trkpt lat="45.48019" lon="3.22074">
        <ele>426</ele>
        <time>2012-11-14T15:17:09Z</time>
      </trkpt>
      <trkpt lat="45.48038" lon="3.22078">
        <ele>426</ele>
        <time>2012-11-14T15:17:12Z</time>
      </trkpt>
      <trkpt lat="45.48057" lon="3.22084">
        <ele>430</ele>
        <time>2012-11-14T15:17:15Z</time>
      </trkpt>
      <trkpt lat="45.4808" lon="3.22091">
        <ele>429</ele>
        <time>2012-11-14T15:17:19Z</time>
      </trkpt>
      <trkpt lat="45.48101" lon="3.22092">
        <ele>430</ele>
        <time>2012-11-14T15:17:23Z</time>
      </trkpt>
      <trkpt lat="45.4812" lon="3.22096">
        <ele>431</ele>
        <time>2012-11-14T15:17:27Z</time>
      </trkpt>
      <trkpt lat="45.48142" lon="3.22093">
        <ele>431</ele>
        <time>2012-11-14T15:17:32Z</time>
      </trkpt>
      <trkpt lat="45.48162" lon="3.22097">
        <ele>430</ele>
        <time>2012-11-14T15:17:37Z</time>
      </trkpt>
      <trkpt lat="45.4818" lon="3.22096">
        <ele>431</ele>
        <time>2012-11-14T15:17:41Z</time>
      </trkpt>
      <trkpt lat="45.48202" lon="3.22094">
        <ele>432</ele>
        <time>2012-11-14T15:17:45Z</time>
      </trkpt>
      <trkpt lat="45.48223" lon="3.22095">
        <ele>432</ele>
        <time>2012-11-14T15:17:50Z</time>
      </trkpt>
      <trkpt lat="45.48242" lon="3.22096">
        <ele>432</ele>
        <time>2012-11-14T15:17:54Z</time>
      </trkpt>
      <trkpt lat="45.48263" lon="3.22101">
        <ele>432</ele>
        <time>2012-11-14T15:17:59Z</time>
      </trkpt>
      <trkpt lat="45.48283" lon="3.22108">
        <ele>432</ele>
        <time>2012-11-14T15:18:04Z</time>
      </trkpt>
      <trkpt lat="45.48303" lon="3.22112">
        <ele>432</ele>
        <time>2012-11-14T15:18:09Z</time>
      </trkpt>
      <trkpt lat="45.48324" lon="3.22115">
        <ele>432</ele>
        <time>2012-11-14T15:18:13Z</time>
      </trkpt>
      <trkpt lat="45.48347" lon="3.22112">
        <ele>432</ele>
        <time>2012-11-14T15:18:17Z</time>
      </trkpt>
      <trkpt lat="45.48369" lon="3.22105">
        <ele>432</ele>
        <time>2012-11-14T15:18:21Z</time>
      </trkpt>
      <trkpt lat="45.48388" lon="3.22098">
        <ele>432</ele>
        <time>2012-11-14T15:18:25Z</time>
      </trkpt>
      <trkpt lat="45.48407" lon="3.22089">
        <ele>432</ele>
        <time>2012-11-14T15:18:30Z</time>
      </trkpt>
      <trkpt lat="45.48426" lon="3.22083">
        <ele>432</ele>
        <time>2012-11-14T15:18:35Z</time>
      </trkpt>
      <trkpt lat="45.48444" lon="3.22075">
        <ele>433</ele>
        <time>2012-11-14T15:18:39Z</time>
      </trkpt>
      <trkpt lat="45.48466" lon="3.22067">
        <ele>434</ele>
        <time>2012-11-14T15:18:44Z</time>
      </trkpt>
      <trkpt lat="45.48487" lon="3.22062">
        <ele>435</ele>
        <time>2012-11-14T15:18:49Z</time>
      </trkpt>
      <trkpt lat="45.48507" lon="3.22055">
        <ele>438</ele>
        <time>2012-11-14T15:18:54Z</time>
      </trkpt>
      <trkpt lat="45.48519" lon="3.22079">
        <ele>438</ele>
        <time>2012-11-14T15:19:00Z</time>
      </trkpt>
      <trkpt lat="45.48521" lon="3.22108">
        <ele>439</ele>
        <time>2012-11-14T15:19:05Z</time>
      </trkpt>
      <trkpt lat="45.48523" lon="3.22139">
        <ele>439</ele>
        <time>2012-11-14T15:19:10Z</time>
      </trkpt>
      <trkpt lat="45.48525" lon="3.22166">
        <ele>439</ele>
        <time>2012-11-14T15:19:15Z</time>
      </trkpt>
      <trkpt lat="45.48527" lon="3.22193">
        <ele>441</ele>
        <time>2012-11-14T15:19:20Z</time>
      </trkpt>
      <trkpt lat="45.48528" lon="3.22222">
        <ele>442</ele>
        <time>2012-11-14T15:19:26Z</time>
      </trkpt>
      <trkpt lat="45.4853" lon="3.22249">
        <ele>442</ele>
        <time>2012-11-14T15:19:32Z</time>
      </trkpt>
      <trkpt lat="45.48542" lon="3.22271">
        <ele>447</ele>
        <time>2012-11-14T15:19:39Z</time>
      </trkpt>
      <trkpt lat="45.4856" lon="3.22282">
        <ele>447</ele>
        <time>2012-11-14T15:19:45Z</time>
      </trkpt>
      <trkpt lat="45.48579" lon="3.22291">
        <ele>448</ele>
        <time>2012-11-14T15:19:52Z</time>
      </trkpt>
      <trkpt lat="45.48597" lon="3.22301">
        <ele>449</ele>
        <time>2012-11-14T15:20:00Z</time>
      </trkpt>
      <trkpt lat="45.48616" lon="3.22309">
        <ele>450</ele>
        <time>2012-11-14T15:20:07Z</time>
      </trkpt>
      <trkpt lat="45.48635" lon="3.22313">
        <ele>450</ele>
        <time>2012-11-14T15:20:14Z</time>
      </trkpt>
      <trkpt lat="45.48653" lon="3.22318">
        <ele>451</ele>
        <time>2012-11-14T15:20:21Z</time>
      </trkpt>
      <trkpt lat="45.48671" lon="3.22321">
        <ele>453</ele>
        <time>2012-11-14T15:20:27Z</time>
      </trkpt>
      <trkpt lat="45.48691" lon="3.22325">
        <ele>453</ele>
        <time>2012-11-14T15:20:34Z</time>
      </trkpt>
      <trkpt lat="45.4871" lon="3.22328">
        <ele>454</ele>
        <time>2012-11-14T15:20:41Z</time>
      </trkpt>
      <trkpt lat="45.48729" lon="3.22331">
        <ele>455</ele>
        <time>2012-11-14T15:20:48Z</time>
      </trkpt>
      <trkpt lat="45.4875" lon="3.22335">
        <ele>458</ele>
        <time>2012-11-14T15:20:55Z</time>
      </trkpt>
      <trkpt lat="45.48769" lon="3.2234">
        <ele>462</ele>
        <time>2012-11-14T15:21:02Z</time>
      </trkpt>
      <trkpt lat="45.48789" lon="3.22345">
        <ele>463</ele>
        <time>2012-11-14T15:21:09Z</time>
      </trkpt>
      <trkpt lat="45.48807" lon="3.22351">
        <ele>464</ele>
        <time>2012-11-14T15:21:15Z</time>
      </trkpt>
      <trkpt lat="45.48826" lon="3.22359">
        <ele>464</ele>
        <time>2012-11-14T15:21:22Z</time>
      </trkpt>
      <trkpt lat="45.48845" lon="3.22367">
        <ele>467</ele>
        <time>2012-11-14T15:21:29Z</time>
      </trkpt>
      <trkpt lat="45.48865" lon="3.22368">
        <ele>467</ele>
        <time>2012-11-14T15:21:36Z</time>
      </trkpt>
      <trkpt lat="45.48885" lon="3.22375">
        <ele>468</ele>
        <time>2012-11-14T15:21:43Z</time>
      </trkpt>
      <trkpt lat="45.48904" lon="3.22383">
        <ele>468</ele>
        <time>2012-11-14T15:21:49Z</time>
      </trkpt>
      <trkpt lat="45.48923" lon="3.22388">
        <ele>470</ele>
        <time>2012-11-14T15:21:55Z</time>
      </trkpt>
      <trkpt lat="45.48941" lon="3.22397">
        <ele>471</ele>
        <time>2012-11-14T15:22:01Z</time>
      </trkpt>
      <trkpt lat="45.48959" lon="3.22395">
        <ele>471</ele>
        <time>2012-11-14T15:22:07Z</time>
      </trkpt>
      <trkpt lat="45.4898" lon="3.22391">
        <ele>471</ele>
        <time>2012-11-14T15:22:13Z</time>
      </trkpt>
      <trkpt lat="45.49" lon="3.22386">
        <ele>471</ele>
        <time>2012-11-14T15:22:18Z</time>
      </trkpt>
      <trkpt lat="45.49019" lon="3.2238">
        <ele>473</ele>
        <time>2012-11-14T15:22:23Z</time>
      </trkpt>
      <trkpt lat="45.4904" lon="3.22377">
        <ele>474</ele>
        <time>2012-11-14T15:22:28Z</time>
      </trkpt>
      <trkpt lat="45.49059" lon="3.22376">
        <ele>474</ele>
        <time>2012-11-14T15:22:33Z</time>
      </trkpt>
      <trkpt lat="45.49077" lon="3.22373">
        <ele>474</ele>
        <time>2012-11-14T15:22:38Z</time>
      </trkpt>
      <trkpt lat="45.49096" lon="3.2237">
        <ele>477</ele>
        <time>2012-11-14T15:22:44Z</time>
      </trkpt>
      <trkpt lat="45.49116" lon="3.2237">
        <ele>477</ele>
        <time>2012-11-14T15:22:51Z</time>
      </trkpt>
      <trkpt lat="45.49137" lon="3.22367">
        <ele>478</ele>
        <time>2012-11-14T15:22:57Z</time>
      </trkpt>
      <trkpt lat="45.49155" lon="3.22362">
        <ele>478</ele>
        <time>2012-11-14T15:23:02Z</time>
      </trkpt>
      <trkpt lat="45.49174" lon="3.22353">
        <ele>479</ele>
        <time>2012-11-14T15:23:08Z</time>
      </trkpt>
      <trkpt lat="45.49193" lon="3.22347">
        <ele>480</ele>
        <time>2012-11-14T15:23:13Z</time>
      </trkpt>
      <trkpt lat="45.49213" lon="3.22344">
        <ele>480</ele>
        <time>2012-11-14T15:23:18Z</time>
      </trkpt>
      <trkpt lat="45.49233" lon="3.22341">
        <ele>480</ele>
        <time>2012-11-14T15:23:23Z</time>
      </trkpt>
      <trkpt lat="45.49254" lon="3.22338">
        <ele>480</ele>
        <time>2012-11-14T15:23:28Z</time>
      </trkpt>
      <trkpt lat="45.49275" lon="3.22336">
        <ele>482</ele>
        <time>2012-11-14T15:23:33Z</time>
      </trkpt>
      <trkpt lat="45.49293" lon="3.22325">
        <ele>478</ele>
        <time>2012-11-14T15:23:39Z</time>
      </trkpt>
      <trkpt lat="45.49291" lon="3.22293">
        <ele>477</ele>
        <time>2012-11-14T15:23:43Z</time>
      </trkpt>
      <trkpt lat="45.49292" lon="3.22266">
        <ele>476</ele>
        <time>2012-11-14T15:23:46Z</time>
      </trkpt>
      <trkpt lat="45.49308" lon="3.2225">
        <ele>476</ele>
        <time>2012-11-14T15:23:50Z</time>
      </trkpt>
      <trkpt lat="45.49326" lon="3.22248">
        <ele>474</ele>
        <time>2012-11-14T15:23:54Z</time>
      </trkpt>
      <trkpt lat="45.49349" lon="3.22241">
        <ele>474</ele>
        <time>2012-11-14T15:23:59Z</time>
      </trkpt>
      <trkpt lat="45.49366" lon="3.22231">
        <ele>473</ele>
        <time>2012-11-14T15:24:03Z</time>
      </trkpt>
      <trkpt lat="45.49387" lon="3.2222">
        <ele>473</ele>
        <time>2012-11-14T15:24:07Z</time>
      </trkpt>
      <trkpt lat="45.49409" lon="3.22215">
        <ele>472</ele>
        <time>2012-11-14T15:24:11Z</time>
      </trkpt>
      <trkpt lat="45.49429" lon="3.22208">
        <ele>473</ele>
        <time>2012-11-14T15:24:15Z</time>
      </trkpt>
      <trkpt lat="45.49453" lon="3.22206">
        <ele>473</ele>
        <time>2012-11-14T15:24:19Z</time>
      </trkpt>
      <trkpt lat="45.49471" lon="3.22207">
        <ele>474</ele>
        <time>2012-11-14T15:24:23Z</time>
      </trkpt>
      <trkpt lat="45.49492" lon="3.22202">
        <ele>473</ele>
        <time>2012-11-14T15:24:28Z</time>
      </trkpt>
      <trkpt lat="45.49514" lon="3.222">
        <ele>475</ele>
        <time>2012-11-14T15:24:33Z</time>
      </trkpt>
      <trkpt lat="45.49536" lon="3.22194">
        <ele>475</ele>
        <time>2012-11-14T15:24:38Z</time>
      </trkpt>
      <trkpt lat="45.49555" lon="3.22191">
        <ele>475</ele>
        <time>2012-11-14T15:24:42Z</time>
      </trkpt>
      <trkpt lat="45.49574" lon="3.22189">
        <ele>475</ele>
        <time>2012-11-14T15:24:46Z</time>
      </trkpt>
      <trkpt lat="45.49596" lon="3.22188">
        <ele>476</ele>
        <time>2012-11-14T15:24:50Z</time>
      </trkpt>
      <trkpt lat="45.49616" lon="3.22191">
        <ele>476</ele>
        <time>2012-11-14T15:24:55Z</time>
      </trkpt>
      <trkpt lat="45.49634" lon="3.22193">
        <ele>477</ele>
        <time>2012-11-14T15:24:59Z</time>
      </trkpt>
      <trkpt lat="45.49653" lon="3.22194">
        <ele>477</ele>
        <time>2012-11-14T15:25:04Z</time>
      </trkpt>
      <trkpt lat="45.49671" lon="3.22196">
        <ele>477</ele>
        <time>2012-11-14T15:25:09Z</time>
      </trkpt>
      <trkpt lat="45.4969" lon="3.22201">
        <ele>477</ele>
        <time>2012-11-14T15:25:14Z</time>
      </trkpt>
      <trkpt lat="45.49708" lon="3.22202">
        <ele>477</ele>
        <time>2012-11-14T15:25:19Z</time>
      </trkpt>
      <trkpt lat="45.4973" lon="3.22203">
        <ele>477</ele>
        <time>2012-11-14T15:25:25Z</time>
      </trkpt>
      <trkpt lat="45.4975" lon="3.22204">
        <ele>478</ele>
        <time>2012-11-14T15:25:30Z</time>
      </trkpt>
      <trkpt lat="45.4977" lon="3.22204">
        <ele>478</ele>
        <time>2012-11-14T15:25:35Z</time>
      </trkpt>
      <trkpt lat="45.49789" lon="3.22199">
        <ele>478</ele>
        <time>2012-11-14T15:25:40Z</time>
      </trkpt>
      <trkpt lat="45.4981" lon="3.22192">
        <ele>478</ele>
        <time>2012-11-14T15:25:45Z</time>
      </trkpt>
      <trkpt lat="45.4983" lon="3.22185">
        <ele>478</ele>
        <time>2012-11-14T15:25:50Z</time>
      </trkpt>
      <trkpt lat="45.49849" lon="3.22182">
        <ele>479</ele>
        <time>2012-11-14T15:25:55Z</time>
      </trkpt>
      <trkpt lat="45.49869" lon="3.22181">
        <ele>480</ele>
        <time>2012-11-14T15:26:00Z</time>
      </trkpt>
      <trkpt lat="45.49889" lon="3.22183">
        <ele>480</ele>
        <time>2012-11-14T15:26:05Z</time>
      </trkpt>
      <trkpt lat="45.4991" lon="3.22185">
        <ele>480</ele>
        <time>2012-11-14T15:26:11Z</time>
      </trkpt>
      <trkpt lat="45.49929" lon="3.22185">
        <ele>481</ele>
        <time>2012-11-14T15:26:16Z</time>
      </trkpt>
      <trkpt lat="45.4995" lon="3.22187">
        <ele>482</ele>
        <time>2012-11-14T15:26:22Z</time>
      </trkpt>
      <trkpt lat="45.49971" lon="3.22191">
        <ele>483</ele>
        <time>2012-11-14T15:26:28Z</time>
      </trkpt>
      <trkpt lat="45.49992" lon="3.22192">
        <ele>483</ele>
        <time>2012-11-14T15:26:34Z</time>
      </trkpt>
      <trkpt lat="45.50011" lon="3.22194">
        <ele>485</ele>
        <time>2012-11-14T15:26:41Z</time>
      </trkpt>
      <trkpt lat="45.50029" lon="3.22194">
        <ele>486</ele>
        <time>2012-11-14T15:26:48Z</time>
      </trkpt>
      <trkpt lat="45.50046" lon="3.2218">
        <ele>486</ele>
        <time>2012-11-14T15:26:55Z</time>
      </trkpt>
      <trkpt lat="45.50065" lon="3.22179">
        <ele>487</ele>
        <time>2012-11-14T15:27:06Z</time>
      </trkpt>
      <trkpt lat="45.50075" lon="3.22204">
        <ele>488</ele>
        <time>2012-11-14T15:27:13Z</time>
      </trkpt>
      <trkpt lat="45.50085" lon="3.22228">
        <ele>492</ele>
        <time>2012-11-14T15:27:20Z</time>
      </trkpt>
      <trkpt lat="45.50092" lon="3.22253">
        <ele>494</ele>
        <time>2012-11-14T15:27:27Z</time>
      </trkpt>
      <trkpt lat="45.50098" lon="3.2228">
        <ele>496</ele>
        <time>2012-11-14T15:27:34Z</time>
      </trkpt>
      <trkpt lat="45.50112" lon="3.223">
        <ele>497</ele>
        <time>2012-11-14T15:27:42Z</time>
      </trkpt>
      <trkpt lat="45.5013" lon="3.22309">
        <ele>498</ele>
        <time>2012-11-14T15:27:50Z</time>
      </trkpt>
      <trkpt lat="45.5015" lon="3.22317">
        <ele>499</ele>
        <time>2012-11-14T15:27:58Z</time>
      </trkpt>
      <trkpt lat="45.50168" lon="3.22326">
        <ele>502</ele>
        <time>2012-11-14T15:28:05Z</time>
      </trkpt>
      <trkpt lat="45.50185" lon="3.22339">
        <ele>504</ele>
        <time>2012-11-14T15:28:12Z</time>
      </trkpt>
      <trkpt lat="45.50189" lon="3.22365">
        <ele>506</ele>
        <time>2012-11-14T15:28:25Z</time>
      </trkpt>
      <trkpt lat="45.50198" lon="3.22387">
        <ele>507</ele>
        <time>2012-11-14T15:28:34Z</time>
      </trkpt>
      <trkpt lat="45.50206" lon="3.2241">
        <ele>507</ele>
        <time>2012-11-14T15:28:43Z</time>
      </trkpt>
      <trkpt lat="45.50218" lon="3.22431">
        <ele>512</ele>
        <time>2012-11-14T15:28:54Z</time>
      </trkpt>
      <trkpt lat="45.50233" lon="3.22447">
        <ele>513</ele>
        <time>2012-11-14T15:29:03Z</time>
      </trkpt>
      <trkpt lat="45.50249" lon="3.22461">
        <ele>514</ele>
        <time>2012-11-14T15:29:15Z</time>
      </trkpt>
      <trkpt lat="45.50269" lon="3.22473">
        <ele>516</ele>
        <time>2012-11-14T15:29:26Z</time>
      </trkpt>
      <trkpt lat="45.50284" lon="3.22487">
        <ele>517</ele>
        <time>2012-11-14T15:29:35Z</time>
      </trkpt>
      <trkpt lat="45.50301" lon="3.22502">
        <ele>522</ele>
        <time>2012-11-14T15:29:44Z</time>
      </trkpt>
      <trkpt lat="45.5032" lon="3.2251">
        <ele>522</ele>
        <time>2012-11-14T15:29:54Z</time>
      </trkpt>
      <trkpt lat="45.50338" lon="3.22527">
        <ele>522</ele>
        <time>2012-11-14T15:30:08Z</time>
      </trkpt>
      <trkpt lat="45.50351" lon="3.22546">
        <ele>523</ele>
        <time>2012-11-14T15:30:21Z</time>
      </trkpt>
      <trkpt lat="45.50363" lon="3.22567">
        <ele>524</ele>
        <time>2012-11-14T15:30:27Z</time>
      </trkpt>
      <trkpt lat="45.50378" lon="3.22586">
        <ele>528</ele>
        <time>2012-11-14T15:30:33Z</time>
      </trkpt>
      <trkpt lat="45.50389" lon="3.2261">
        <ele>528</ele>
        <time>2012-11-14T15:30:41Z</time>
      </trkpt>
      <trkpt lat="45.504" lon="3.22632">
        <ele>530</ele>
        <time>2012-11-14T15:30:52Z</time>
      </trkpt>
      <trkpt lat="45.50412" lon="3.22656">
        <ele>532</ele>
        <time>2012-11-14T15:31:08Z</time>
      </trkpt>
      <trkpt lat="45.50427" lon="3.22677">
        <ele>535</ele>
        <time>2012-11-14T15:31:15Z</time>
      </trkpt>
      <trkpt lat="45.50442" lon="3.22693">
        <ele>536</ele>
        <time>2012-11-14T15:31:22Z</time>
      </trkpt>
      <trkpt lat="45.50455" lon="3.22711">
        <ele>537</ele>
        <time>2012-11-14T15:31:30Z</time>
      </trkpt>
      <trkpt lat="45.50467" lon="3.22732">
        <ele>538</ele>
        <time>2012-11-14T15:31:40Z</time>
      </trkpt>
      <trkpt lat="45.50477" lon="3.22754">
        <ele>544</ele>
        <time>2012-11-14T15:31:49Z</time>
      </trkpt>
      <trkpt lat="45.5049" lon="3.22772">
        <ele>544</ele>
        <time>2012-11-14T15:31:59Z</time>
      </trkpt>
      <trkpt lat="45.50505" lon="3.22788">
        <ele>545</ele>
        <time>2012-11-14T15:32:07Z</time>
      </trkpt>
      <trkpt lat="45.50521" lon="3.22803">
        <ele>546</ele>
        <time>2012-11-14T15:32:14Z</time>
      </trkpt>
      <trkpt lat="45.50537" lon="3.22816">
        <ele>547</ele>
        <time>2012-11-14T15:32:21Z</time>
      </trkpt>
      <trkpt lat="45.50553" lon="3.22828">
        <ele>547</ele>
        <time>2012-11-14T15:32:32Z</time>
      </trkpt>
    </trkseg>
  </trk>
</gpx>